Provisional Data: Nanticoke Creek near Maine, NY


Please select a monitoring station.
Please select start date.
Please select start date.

Toggle Unit: C/F Toggle Unit: C/F
Sample Time Temperature (C) Temperature (F) Specific Conductivity (mS/cm) pH   Turbidity (NTU+) DO (mg/L)
3/23/2021 12:00:00 AM 5.98 42.764 0.11 6.96 12.97 11.74
3/23/2021 12:15:00 AM 5.87 42.566 0.11 6.95 13.18 11.77
3/23/2021 12:30:00 AM 5.76 42.368 0.11 6.95 12.75 11.8
3/23/2021 12:45:00 AM 5.64 42.152 0.11 6.94 12.43 11.84
3/23/2021 1:00:00 AM 5.53 41.954 0.11 6.94 13.88 11.87
3/23/2021 1:15:00 AM 5.41 41.738 0.11 6.95 12.63 11.9
3/23/2021 1:30:00 AM 5.29 41.522 0.11 6.94 14.99 11.94
3/23/2021 1:45:00 AM 5.16 41.288 0.11 6.93 11.88 11.98
3/23/2021 2:00:00 AM 5.04 41.072 0.11 6.94 12.43 12.02
3/23/2021 2:15:00 AM 4.92 40.856 0.11 6.93 12.6 12.07
3/23/2021 2:30:00 AM 4.79 40.622 0.11 6.94 12.39 12.11
3/23/2021 2:45:00 AM 4.67 40.406 0.11 6.91 12.21 12.15
3/23/2021 3:00:00 AM 4.54 40.172 0.11 6.93 12.46 12.19
3/23/2021 3:15:00 AM 4.42 39.956 0.109 6.93 12.61 12.23
3/23/2021 3:30:00 AM 4.29 39.722 0.11 6.93 12.68 12.28
3/23/2021 3:45:00 AM 4.17 39.506 0.11 6.93 11.71 12.32
3/23/2021 4:00:00 AM 4.05 39.29 0.11 6.93 12.98 12.37
3/23/2021 4:15:00 AM 3.93 39.074 0.11 6.91 11.8 12.41
3/23/2021 4:30:00 AM 3.81 38.858 0.11 6.92 11.81 12.45
3/23/2021 4:45:00 AM 3.69 38.642 0.11 6.91 12.41 12.5
3/23/2021 5:00:00 AM 3.58 38.444 0.11 6.92 12.2 12.54
3/23/2021 5:15:00 AM 3.47 38.246 0.11 6.92 13.29 12.57
3/23/2021 5:30:00 AM 3.35 38.03 0.109 6.92 12.78 12.62
3/23/2021 5:45:00 AM 3.25 37.85 0.11 6.92 15.6 12.66
3/23/2021 6:00:00 AM 3.14 37.652 0.11 6.93 13.87 12.7
3/23/2021 6:15:00 AM 3.03 37.454 0.11 6.93 13.57 12.73
3/23/2021 6:30:00 AM 2.93 37.274 0.11 6.92 13.63 12.77
3/23/2021 6:45:00 AM 2.84 37.112 0.11 6.93 13.37 12.81
3/23/2021 7:00:00 AM 2.74 36.932 0.11 6.93 13.44 12.84
3/23/2021 7:15:00 AM 2.64 36.752 0.109 6.93 12.89 12.89
3/23/2021 7:30:00 AM 2.56 36.608 0.109 6.94 13.53 12.93
3/23/2021 7:45:00 AM 2.48 36.464 0.109 6.93 13.69 12.97
3/23/2021 8:00:00 AM 2.41 36.338 0.109 6.94 17.41 13.02
3/23/2021 8:15:00 AM 2.36 36.248 0.109 6.94 14.26 13.06
3/23/2021 8:30:00 AM 2.31 36.158 0.109 6.92 11.96 13.11
3/23/2021 8:45:00 AM 2.29 36.122 0.109 6.96 13.7 13.16
3/23/2021 9:00:00 AM 2.27 36.086 0.109 6.97 9.37 13.21
3/23/2021 9:15:00 AM 2.27 36.086 0.109 6.97 10.03 13.25
3/23/2021 9:30:00 AM 2.29 36.122 0.108 6.98 9.68 13.29
3/23/2021 9:45:00 AM 2.32 36.176 0.108 6.99 9.95 13.32
3/23/2021 10:00:00 AM 2.37 36.266 0.108 6.99 9.86 13.36
3/23/2021 10:15:00 AM 2.45 36.41 0.108 7.01 9.77 13.4
3/23/2021 10:30:00 AM 2.53 36.554 0.108 7.02 9.71 13.42
3/23/2021 10:45:00 AM 2.64 36.752 0.108 7.03 9.68 13.42
3/23/2021 11:00:00 AM 2.76 36.968 0.108 7.04 10.66 13.44
3/23/2021 11:15:00 AM 2.9 37.22 0.108 7.05 10.42 13.46
3/23/2021 11:30:00 AM 3.08 37.544 0.108 7.06 11.33 13.45
3/23/2021 11:45:00 AM 3.28 37.904 0.107 7.08 10.78 13.44
3/23/2021 12:00:00 PM 3.49 38.282 0.107 7.08 8.88 13.43
3/23/2021 12:15:00 PM 3.71 38.678 0.107 7.07 11.59 13.4
3/23/2021 12:30:00 PM 3.96 39.128 0.107 7.08 10.41 13.38
3/23/2021 12:45:00 PM 4.22 39.596 0.107 7.1 14.83 13.34
3/23/2021 1:00:00 PM 4.48 40.064 0.107 7.11 12 13.29
3/23/2021 1:15:00 PM 4.74 40.532 0.107 7.13 12.26 13.24
3/23/2021 1:30:00 PM 5.02 41.036 0.107 7.13 10.21 13.2
3/23/2021 1:45:00 PM 5.32 41.576 0.106 7.14 15.1 13.12
3/23/2021 2:00:00 PM 5.61 42.098 0.106 7.15 11.83 13.07
3/23/2021 2:15:00 PM 5.87 42.566 0.106 7.16 12.67 13
3/23/2021 2:30:00 PM 6.12 43.016 0.106 7.16 10.15 12.94
3/23/2021 2:45:00 PM 6.35 43.43 0.106 7.17 10.21 12.87
3/23/2021 3:00:00 PM 6.57 43.826 0.106 7.17 10.95 12.8
3/23/2021 3:15:00 PM 6.78 44.204 0.106 7.17 11.36 12.74
3/23/2021 3:30:00 PM 6.95 44.51 0.106 7.17 11.03 12.67
3/23/2021 3:45:00 PM 7.1 44.78 0.106 7.17 11.31 12.61
3/23/2021 4:00:00 PM 7.24 45.032 0.106 7.17 11.51 12.55
3/23/2021 4:15:00 PM 7.39 45.302 0.106 7.19 11.83 12.48
3/23/2021 4:30:00 PM 7.5 45.5 0.106 7.19 12.35 12.42
3/23/2021 4:45:00 PM 7.6 45.68 0.106 7.19 12.41 12.36
3/23/2021 5:00:00 PM 7.68 45.824 0.106 7.18 12.5 12.29
3/23/2021 5:15:00 PM 7.74 45.932 0.106 7.18 12.6 12.25
3/23/2021 5:30:00 PM 7.79 46.022 0.106 7.17 12.42 12.19
3/23/2021 5:45:00 PM 7.81 46.058 0.106 7.17 12.52 12.13
3/23/2021 6:00:00 PM 7.83 46.094 0.106 7.14 12.64 12.07
3/23/2021 6:15:00 PM 7.84 46.112 0.106 7.15 12.91 12.01
3/23/2021 6:30:00 PM 7.84 46.112 0.106 7.14 13.14 11.95
3/23/2021 6:45:00 PM 7.83 46.094 0.106 7.13 13.63 11.89
3/23/2021 7:00:00 PM 7.82 46.076 0.106 7.13 13.83 11.83
3/23/2021 7:15:00 PM 7.79 46.022 0.106 7.11 13.83 11.78
3/23/2021 7:30:00 PM 7.76 45.968 0.106 7.1 13.7 11.73
3/23/2021 7:45:00 PM 7.72 45.896 0.107 7.09 13.9 11.68
3/23/2021 8:00:00 PM 7.69 45.842 0.107 7.09 13.68 11.64
3/23/2021 8:15:00 PM 7.65 45.77 0.107 7.08 16.32 11.6
3/23/2021 8:30:00 PM 7.61 45.698 0.107 7.07 14.21 11.57
3/23/2021 8:45:00 PM 7.56 45.608 0.107 7.06 14.34 11.54
3/23/2021 9:00:00 PM 7.51 45.518 0.107 7.06 13.91 11.52
3/23/2021 9:15:00 PM 7.47 45.446 0.107 7.05 14.23 11.49
3/23/2021 9:30:00 PM 7.43 45.374 0.107 7.05 14.19 11.48
3/23/2021 9:45:00 PM 7.39 45.302 0.107 7.04 14.18 11.46
3/23/2021 10:00:00 PM 7.34 45.212 0.107 7.03 14.13 11.45
3/23/2021 10:15:00 PM 7.29 45.122 0.107 7.03 13.83 11.44
3/23/2021 10:30:00 PM 7.23 45.014 0.107 7.02 14.02 11.44
3/23/2021 10:45:00 PM 7.18 44.924 0.107 7.01 13.5 11.44
3/23/2021 11:00:00 PM 7.12 44.816 0.107 7 12.88 11.45
3/23/2021 11:15:00 PM 7.05 44.69 0.107 7 12.67 11.45
3/23/2021 11:30:00 PM 6.99 44.582 0.107 7 12 11.46
3/23/2021 11:45:00 PM 6.92 44.456 0.107 6.99 11.85 11.47
3/24/2021 12:00:00 AM 6.84 44.312 0.107 6.97 11.35 11.48
3/24/2021 12:15:00 AM 6.77 44.186 0.107 6.98 11.17 11.5
3/24/2021 12:30:00 AM 6.69 44.042 0.107 6.98 10.87 11.52
3/24/2021 12:45:00 AM 6.61 43.898 0.107 6.98 10.68 11.54
3/24/2021 1:00:00 AM 6.53 43.754 0.107 6.96 10.58 11.56
3/24/2021 1:15:00 AM 6.44 43.592 0.107 6.98 14.03 11.58
3/24/2021 1:30:00 AM 6.36 43.448 0.107 6.98 10.94 11.61
3/24/2021 1:45:00 AM 6.27 43.286 0.107 6.97 10.62 11.63
3/24/2021 2:00:00 AM 6.18 43.124 0.107 6.97 10.75 11.66
3/24/2021 2:15:00 AM 6.1 42.98 0.107 6.97 10.41 11.69
3/24/2021 2:30:00 AM 6.01 42.818 0.107 6.97 10.39 11.72
3/24/2021 2:45:00 AM 5.93 42.674 0.107 6.97 10.68 11.74
3/24/2021 3:00:00 AM 5.84 42.512 0.107 6.97 10.84 11.77
3/24/2021 3:15:00 AM 5.76 42.368 0.107 6.97 9.83 11.8
3/24/2021 3:30:00 AM 5.66 42.188 0.107 6.97 9.54 11.83
3/24/2021 3:45:00 AM 5.57 42.026 0.107 6.97 9.68 11.86
3/24/2021 4:00:00 AM 5.49 41.882 0.107 6.96 9.61 11.89
3/24/2021 4:15:00 AM 5.4 41.72 0.107 6.96 9.51 11.92
3/24/2021 4:30:00 AM 5.33 41.594 0.107 6.96 9.33 11.95
3/24/2021 4:45:00 AM 5.25 41.45 0.107 6.97 9.38 11.99
3/24/2021 5:00:00 AM 5.17 41.306 0.107 6.94 9.48 12.01
3/24/2021 5:15:00 AM 5.1 41.18 0.107 6.97 9.22 12.04
3/24/2021 5:30:00 AM 5.03 41.054 0.107 6.94 9.4 12.07
3/24/2021 5:45:00 AM 4.96 40.928 0.107 6.97 9.33 12.1
3/24/2021 6:00:00 AM 4.89 40.802 0.107 6.97 9.31 12.12
3/24/2021 6:15:00 AM 4.82 40.676 0.107 6.97 9.47 12.15
3/24/2021 6:30:00 AM 4.76 40.568 0.107 6.97 9.41 12.16
3/24/2021 6:45:00 AM 4.71 40.478 0.106 6.97 9.38 12.18
3/24/2021 7:00:00 AM 4.66 40.388 0.107 6.97 9.23 12.2
3/24/2021 7:15:00 AM 4.61 40.298 0.106 6.97 9.22 12.23
3/24/2021 7:30:00 AM 4.57 40.226 0.106 6.96 9.16 12.24
3/24/2021 7:45:00 AM 4.54 40.172 0.106 6.97 9.19 12.27
3/24/2021 8:00:00 AM 4.5 40.1 0.106 6.98 9.25 12.29
3/24/2021 8:15:00 AM 4.48 40.064 0.106 6.95 9.16 12.31
3/24/2021 8:30:00 AM 4.46 40.028 0.106 6.98 9.37 12.34
3/24/2021 8:45:00 AM 4.44 39.992 0.106 6.99 9.31 12.35
3/24/2021 9:00:00 AM 4.43 39.974 0.106 6.98 9.28 12.37
3/24/2021 9:15:00 AM 4.42 39.956 0.106 6.99 9.13 12.4
3/24/2021 9:30:00 AM 4.42 39.956 0.105 6.99 9 12.43
3/24/2021 9:45:00 AM 4.43 39.974 0.105 7.01 8.46 12.46
3/24/2021 10:00:00 AM 4.43 39.974 0.105 7.01 8.16 12.48
3/24/2021 10:15:00 AM 4.45 40.01 0.105 7.01 8.1 12.51
3/24/2021 10:30:00 AM 4.47 40.046 0.105 7.01 7.65 12.53
3/24/2021 10:45:00 AM 4.49 40.082 0.105 7.01 8.01 12.54
3/24/2021 11:00:00 AM 4.52 40.136 0.105 7.03 7.77 12.57
3/24/2021 11:15:00 AM 4.55 40.19 0.104 7.04 7.69 12.58
3/24/2021 11:30:00 AM 4.59 40.262 0.104 7.05 7.68 12.6
3/24/2021 11:45:00 AM 4.62 40.316 0.104 7.06 7.7 12.61
3/24/2021 12:00:00 PM 4.66 40.388 0.104 7.06 7.69 12.62
3/24/2021 12:15:00 PM 4.71 40.478 0.104 7.05 7.73 12.63
3/24/2021 12:30:00 PM 4.77 40.586 0.104 7.07 8.09 12.64
3/24/2021 12:45:00 PM 4.82 40.676 0.103 7.05 8.3 12.64
3/24/2021 1:00:00 PM 4.88 40.784 0.103 7.08 8.72 12.65
3/24/2021 1:15:00 PM 4.95 40.91 0.103 7.08 9.08 12.64
3/24/2021 1:30:00 PM 5.04 41.072 0.103 7.09 9.7 12.65
3/24/2021 1:45:00 PM 5.12 41.216 0.104 7.09 10.46 12.64
3/24/2021 2:00:00 PM 5.2 41.36 0.104 7.09 11.56 12.62
3/24/2021 2:15:00 PM 5.29 41.522 0.104 7.09 12.46 12.62
3/24/2021 2:30:00 PM 5.39 41.702 0.105 7.09 13.53 12.59
3/24/2021 2:45:00 PM 5.49 41.882 0.105 7.09 15.37 12.57
3/24/2021 3:00:00 PM 5.58 42.044 0.105 7.1 17.37 12.54
3/24/2021 3:15:00 PM 5.67 42.206 0.105 7.09 19.37 12.49
3/24/2021 3:30:00 PM 5.75 42.35 0.106 7.11 21.95 12.45
3/24/2021 3:45:00 PM 5.83 42.494 0.107 7.11 23.83 12.41
3/24/2021 4:00:00 PM 5.9 42.62 0.109 7.11 26.54 12.36
3/24/2021 4:15:00 PM 5.97 42.746 0.109 7.12 28.65 12.31
3/24/2021 4:30:00 PM 6.02 42.836 0.11 7.11 348.93 12.27
3/24/2021 4:45:00 PM 6.06 42.908 0.111 7.09 35.85 12.22
3/24/2021 5:00:00 PM 6.1 42.98 0.112 7.11 32.14 12.19
3/24/2021 5:15:00 PM 6.14 43.052 0.112 7.12 37.7 12.15
3/24/2021 5:30:00 PM 6.18 43.124 0.113 7.11 36.59 12.13
3/24/2021 5:45:00 PM 6.21 43.178 0.111 7.1 38.41 12.1
3/24/2021 6:00:00 PM 6.24 43.232 0.112 7.09 37.65 12.08
3/24/2021 6:15:00 PM 6.26 43.268 0.112 7.07 37.98 12.06
3/24/2021 6:30:00 PM 6.28 43.304 0.113 7.08 39.42 12.03
3/24/2021 6:45:00 PM 6.3 43.34 0.113 7.09 40.38 12.01
3/24/2021 7:00:00 PM 6.31 43.358 0.113 7.06 40.89 11.98
3/24/2021 7:15:00 PM 6.33 43.394 0.113 7.07 44.3 11.97
3/24/2021 7:30:00 PM 6.34 43.412 0.113 7.06 40.98 11.94
3/24/2021 7:45:00 PM 6.34 43.412 0.113 7.05 40.53 11.92
3/24/2021 8:00:00 PM 6.35 43.43 0.114 7.04 108.73 11.9
3/24/2021 8:15:00 PM 6.35 43.43 0.113 7.04 40.89 11.88
3/24/2021 8:30:00 PM 6.34 43.412 0.114 7.06 39.92 11.87
3/24/2021 8:45:00 PM 6.34 43.412 0.115 7.06 37.88 11.85
3/24/2021 9:00:00 PM 6.33 43.394 0.115 7.09 36.01 11.84
3/24/2021 9:15:00 PM 6.33 43.394 0.115 7.05 35.21 11.82
3/24/2021 9:30:00 PM 6.33 43.394 0.115 7.04 35.3 11.81
3/24/2021 9:45:00 PM 6.32 43.376 0.115 7.05 32.94 11.8
3/24/2021 10:00:00 PM 6.32 43.376 0.115 7.04 31.4 11.79
3/24/2021 10:15:00 PM 6.31 43.358 0.115 7.05 30.41 11.78
3/24/2021 10:30:00 PM 6.3 43.34 0.114 7.03 29.64 11.78
3/24/2021 10:45:00 PM 6.29 43.322 0.114 7.03 28.62 11.77
3/24/2021 11:00:00 PM 6.28 43.304 0.113 7.04 27.83 11.77
3/24/2021 11:15:00 PM 6.27 43.286 0.113 7.04 27.02 11.77
3/24/2021 11:30:00 PM 6.25 43.25 0.112 7.02 26.03 11.77
3/24/2021 11:45:00 PM 6.23 43.214 0.111 7.01 25.6 11.77
3/25/2021 12:00:00 AM 6.21 43.178 0.111 7.02 24.71 11.77
3/25/2021 12:15:00 AM 6.19 43.142 0.11 6.97 23.77 11.78
3/25/2021 12:30:00 AM 6.17 43.106 0.11 7 23.17 11.78
3/25/2021 12:45:00 AM 6.14 43.052 0.109 7.01 23.85 11.79
3/25/2021 1:00:00 AM 6.12 43.016 0.109 7.01 21.52 11.8
3/25/2021 1:15:00 AM 6.09 42.962 0.108 7.01 21.21 11.8
3/25/2021 1:30:00 AM 6.06 42.908 0.108 6.99 20.66 11.8
3/25/2021 1:45:00 AM 6.04 42.872 0.108 6.95 20.06 11.81
3/25/2021 2:00:00 AM 6.01 42.818 0.107 7.01 19.63 11.81
3/25/2021 2:15:00 AM 5.99 42.782 0.107 6.97 19.51 11.82
3/25/2021 2:30:00 AM 5.97 42.746 0.107 6.99 18.81 11.83
3/25/2021 2:45:00 AM 5.94 42.692 0.107 6.98 18.41 11.83
3/25/2021 3:00:00 AM 5.92 42.656 0.106 6.97 18.27 11.84
3/25/2021 3:15:00 AM 5.89 42.602 0.106 6.97 18.02 11.84
3/25/2021 3:30:00 AM 5.86 42.548 0.106 6.95 17.28 11.85
3/25/2021 3:45:00 AM 5.84 42.512 0.106 6.99 17.92 11.86
3/25/2021 4:00:00 AM 5.82 42.476 0.106 6.98 16.36 11.86
3/25/2021 4:15:00 AM 5.79 42.422 0.105 6.98 16.17 11.87
3/25/2021 4:30:00 AM 5.78 42.404 0.105 6.99 15.84 11.87
3/25/2021 4:45:00 AM 5.76 42.368 0.105 6.98 16 11.87
3/25/2021 5:00:00 AM 5.74 42.332 0.105 6.99 15.73 11.88
3/25/2021 5:15:00 AM 5.73 42.314 0.104 6.98 15.5 11.88
3/25/2021 5:30:00 AM 5.71 42.278 0.104 6.98 15.6 11.89
3/25/2021 5:45:00 AM 5.7 42.26 0.104 6.98 15.33 11.89
3/25/2021 6:00:00 AM 5.69 42.242 0.104 6.98 14.95 11.89
3/25/2021 6:15:00 AM 5.67 42.206 0.104 6.98 15.11 11.9
3/25/2021 6:30:00 AM 5.66 42.188 0.103 6.98 15.19 11.91
3/25/2021 6:45:00 AM 5.65 42.17 0.103 6.98 203.24 11.91
3/25/2021 7:00:00 AM 5.64 42.152 0.103 6.97 15.22 11.91
3/25/2021 7:15:00 AM 5.64 42.152 0.103 6.98 15.02 11.91
3/25/2021 7:30:00 AM 5.63 42.134 0.103 6.97 14.82 11.92
3/25/2021 7:45:00 AM 5.63 42.134 0.103 6.99 15.46 11.93
3/25/2021 8:00:00 AM 5.63 42.134 0.103 6.98 15.73 11.94
3/25/2021 8:15:00 AM 5.64 42.152 0.103 6.96 16.58 11.96
3/25/2021 8:30:00 AM 5.66 42.188 0.102 6.99 14.68 11.97
3/25/2021 8:45:00 AM 5.7 42.26 0.102 7.01 14.74 12
3/25/2021 9:00:00 AM 5.74 42.332 0.102 7.02 14.84 12.02
3/25/2021 9:15:00 AM 5.78 42.404 0.102 6.99 14.71 12.05
3/25/2021 9:30:00 AM 5.82 42.476 0.102 7.03 14.45 12.08
3/25/2021 9:45:00 AM 5.88 42.584 0.102 7 16.04 12.1
3/25/2021 10:00:00 AM 5.94 42.692 0.102 7.04 13.51 12.12
3/25/2021 10:15:00 AM 6.01 42.818 0.102 7.05 16.74 12.14
3/25/2021 10:30:00 AM 6.09 42.962 0.102 7.06 12.46 12.16
3/25/2021 10:45:00 AM 6.22 43.196 0.101 7.08 13.52 12.19
3/25/2021 11:00:00 AM 6.31 43.358 0.101 7.09 13.61 12.19
3/25/2021 11:15:00 AM 6.45 43.61 0.101 7.09 13.31 12.2
3/25/2021 11:30:00 AM 6.6 43.88 0.101 7.11 16.66 12.21
3/25/2021 11:45:00 AM 6.78 44.204 0.101 7.11 12.87 12.21
3/25/2021 12:00:00 PM 6.96 44.528 0.101 7.13 14.65 12.2
3/25/2021 12:15:00 PM 7.14 44.852 0.101 7.14 13.74 12.19
3/25/2021 12:30:00 PM 7.36 45.248 0.101 7.14 11.25 12.17
3/25/2021 12:45:00 PM 7.58 45.644 0.101 7.15 11.35 12.16
3/25/2021 1:00:00 PM 7.79 46.022 0.101 7.16 12.26 12.14
3/25/2021 1:15:00 PM 8.01 46.418 0.101 7.16 13.97 12.11
3/25/2021 1:30:00 PM 8.25 46.85 0.101 7.18 11.68 12.07
3/25/2021 1:45:00 PM 8.49 47.282 0.101 7.19 10.94 12.03
3/25/2021 2:00:00 PM 8.76 47.768 0.101 7.18 10.77 11.99
3/25/2021 2:15:00 PM 9.02 48.236 0.101 7.17 12.19 11.94
3/25/2021 2:30:00 PM 9.25 48.65 0.101 7.21 10.89 11.89
3/25/2021 2:45:00 PM 9.47 49.046 0.101 7.2 11.19 11.83
3/25/2021 3:00:00 PM 9.67 49.406 0.101 7.22 10.95 11.79
3/25/2021 3:15:00 PM 9.89 49.802 0.101 7.21 11.9 11.73
3/25/2021 3:30:00 PM 10.06 50.108 0.101 7.22 10.76 11.68
3/25/2021 3:45:00 PM 10.22 50.396 0.101 7.24 10.88 11.63
3/25/2021 4:00:00 PM 10.34 50.612 0.101 7.25 11.02 11.58
3/25/2021 4:15:00 PM 10.45 50.81 0.101 7.25 10.98 11.53
3/25/2021 4:30:00 PM 10.54 50.972 0.101 7.24 11.19 11.48
3/25/2021 4:45:00 PM 10.63 51.134 0.101 7.23 11.25 11.43
3/25/2021 5:00:00 PM 10.69 51.242 0.101 7.18 11.66 11.37
3/25/2021 5:15:00 PM 10.74 51.332 0.101 7.23 12.45 11.32
3/25/2021 5:30:00 PM 10.78 51.404 0.101 7.21 13.2 11.25
3/25/2021 5:45:00 PM 10.79 51.422 0.101 7.22 13.73 11.19
3/25/2021 6:00:00 PM 10.8 51.44 0.101 7.2 14.86 11.14
3/25/2021 6:15:00 PM 10.78 51.404 0.101 7.18 14.69 11.08
3/25/2021 6:30:00 PM 10.76 51.368 0.101 7.17 17.13 11.04
3/25/2021 6:45:00 PM 10.73 51.314 0.101 7.17 16.15 10.99
3/25/2021 7:00:00 PM 10.7 51.26 0.102 7.16 13.88 10.95
3/25/2021 7:15:00 PM 10.66 51.188 0.101 7.15 18.05 10.91
3/25/2021 7:30:00 PM 10.61 51.098 0.102 7.15 13.18 10.86
3/25/2021 7:45:00 PM 10.56 51.008 0.102 7.13 13.26 10.82
3/25/2021 8:00:00 PM 10.51 50.918 0.102 7.11 13.27 10.79
3/25/2021 8:15:00 PM 10.45 50.81 0.102 7.09 13.13 10.76
3/25/2021 8:30:00 PM 10.39 50.702 0.102 7.09 12.67 10.73
3/25/2021 8:45:00 PM 10.32 50.576 0.102 7.08 12.67 10.71
3/25/2021 9:00:00 PM 10.26 50.468 0.102 7.05 12.32 10.69
3/25/2021 9:15:00 PM 10.19 50.342 0.102 7.07 15.48 10.67
3/25/2021 9:30:00 PM 10.12 50.216 0.102 7.05 13 10.66
3/25/2021 9:45:00 PM 10.05 50.09 0.103 7.04 17.43 10.66
3/25/2021 10:00:00 PM 9.98 49.964 0.103 7.04 13.35 10.65
3/25/2021 10:15:00 PM 9.9 49.82 0.103 7.03 13.44 10.66
3/25/2021 10:30:00 PM 9.83 49.694 0.103 7.02 12.86 10.66
3/25/2021 10:45:00 PM 9.76 49.568 0.103 7.01 12.64 10.68
3/25/2021 11:00:00 PM 9.67 49.406 0.103 7.02 12.6 10.69
3/25/2021 11:15:00 PM 9.58 49.244 0.103 7.01 13.82 10.71
3/25/2021 11:30:00 PM 9.49 49.082 0.104 6.98 13.52 10.72
3/25/2021 11:45:00 PM 9.41 48.938 0.104 7 12.74 10.74
3/26/2021 12:00:00 AM 9.32 48.776 0.104 7 13.37 10.76
3/26/2021 12:15:00 AM 9.24 48.632 0.104 7 12.26 10.78
3/26/2021 12:30:00 AM 9.16 48.488 0.104 7.02 13.84 10.79
3/26/2021 12:45:00 AM 9.08 48.344 0.104 7 12.74 10.81
3/26/2021 1:00:00 AM 8.99 48.182 0.104 6.96 13.63 10.83
3/26/2021 1:15:00 AM 8.92 48.056 0.104 6.98 16.47 10.85
3/26/2021 1:30:00 AM 8.83 47.894 0.104 6.99 13.66 10.87
3/26/2021 1:45:00 AM 8.74 47.732 0.104 6.99 15.16 10.89
3/26/2021 2:00:00 AM 8.67 47.606 0.104 7 12.78 10.91
3/26/2021 2:15:00 AM 8.58 47.444 0.104 6.99 16.23 10.93
3/26/2021 2:30:00 AM 8.5 47.3 0.104 6.99 12.22 10.95
3/26/2021 2:45:00 AM 8.42 47.156 0.104 6.99 12.67 10.97
3/26/2021 3:00:00 AM 8.34 47.012 0.103 6.99 13.58 10.99
3/26/2021 3:15:00 AM 8.26 46.868 0.103 6.99 13.49 11.01
3/26/2021 3:30:00 AM 8.2 46.76 0.103 6.99 14.23 11.02
3/26/2021 3:45:00 AM 8.13 46.634 0.103 6.98 12.24 11.04
3/26/2021 4:00:00 AM 8.07 46.526 0.103 6.97 11.54 11.05
3/26/2021 4:15:00 AM 8.01 46.418 0.103 6.99 11.55 11.07
3/26/2021 4:30:00 AM 7.95 46.31 0.103 7 11.78 11.08
3/26/2021 4:45:00 AM 7.9 46.22 0.103 6.99 11.2 11.09
3/26/2021 5:00:00 AM 7.85 46.13 0.103 6.98 19.18 11.1
3/26/2021 5:15:00 AM 7.8 46.04 0.103 6.99 16.61 11.12
3/26/2021 5:30:00 AM 7.76 45.968 0.103 6.99 10.88 11.12
3/26/2021 5:45:00 AM 7.72 45.896 0.103 6.95 10.84 11.12
3/26/2021 6:00:00 AM 7.68 45.824 0.103 6.99 10.98 11.13
3/26/2021 6:15:00 AM 7.65 45.77 0.103 6.98 10.73 11.13
3/26/2021 6:30:00 AM 7.63 45.734 0.103 6.99 10.93 11.13
3/26/2021 6:45:00 AM 7.62 45.716 0.103 7 10.81 11.14
3/26/2021 7:00:00 AM 7.6 45.68 0.103 6.99 10.91 11.15
3/26/2021 7:15:00 AM 7.59 45.662 0.102 7 10.96 11.15
3/26/2021 7:30:00 AM 7.59 45.662 0.103 7 10.94 11.16
3/26/2021 7:45:00 AM 7.59 45.662 0.103 7 10.77 11.16
3/26/2021 8:00:00 AM 7.6 45.68 0.103 6.99 10.55 11.18
3/26/2021 8:15:00 AM 7.61 45.698 0.103 7.01 10.39 11.19
3/26/2021 8:30:00 AM 7.63 45.734 0.103 7.01 10.29 11.21
3/26/2021 8:45:00 AM 7.66 45.788 0.103 7.02 10.1 11.23
3/26/2021 9:00:00 AM 7.73 45.914 0.103 7.03 10.02 11.25
3/26/2021 9:15:00 AM 7.81 46.058 0.103 7.06 10.14 11.29
3/26/2021 9:30:00 AM 7.91 46.238 0.103 7.06 10.35 11.31
3/26/2021 9:45:00 AM 8.02 46.436 0.103 7.09 10.18 11.34
3/26/2021 10:00:00 AM 8.14 46.652 0.103 7.08 9.98 11.36
3/26/2021 10:15:00 AM 8.26 46.868 0.103 7.1 9.93 11.38
3/26/2021 10:30:00 AM 8.38 47.084 0.103 7.12 9.68 11.4
3/26/2021 10:45:00 AM 8.47 47.246 0.103 7.12 9.77 11.41
3/26/2021 11:00:00 AM 8.64 47.552 0.103 7.14 9.77 11.43
3/26/2021 11:15:00 AM 8.74 47.732 0.103 7.15 9.6 11.42
3/26/2021 11:30:00 AM 8.83 47.894 0.103 7.12 9.82 11.41
3/26/2021 11:45:00 AM 8.91 48.038 0.103 7.16 10.74 11.39
3/26/2021 12:00:00 PM 9 48.2 0.103 7.16 9.22 11.4
3/26/2021 12:15:00 PM 9.13 48.434 0.103 7.18 15.07 11.38
3/26/2021 12:30:00 PM 9.23 48.614 0.103 7.18 13.45 11.37
3/26/2021 12:45:00 PM 9.34 48.812 0.103 7.19 9.54 11.36
3/26/2021 1:00:00 PM 9.41 48.938 0.103 7.2 9.55 11.34
3/26/2021 1:15:00 PM 9.51 49.118 0.103 7.2 9.61 11.33
3/26/2021 1:30:00 PM 9.57 49.226 0.103 7.21 9.39 11.32
3/26/2021 1:45:00 PM 9.63 49.334 0.103 7.2 9.55 11.31
3/26/2021 2:00:00 PM 9.7 49.46 0.103 7.22 9.44 11.3
3/26/2021 2:15:00 PM 9.74 49.532 0.103 7.22 9.88 11.29
3/26/2021 2:30:00 PM 9.79 49.622 0.103 7.22 9.51 11.27
3/26/2021 2:45:00 PM 9.83 49.694 0.103 7.22 9.3 11.26
3/26/2021 3:00:00 PM 9.86 49.748 0.103 7.22 9.87 11.22
3/26/2021 3:15:00 PM 9.91 49.838 0.103 7.22 9.45 11.21
3/26/2021 3:30:00 PM 9.97 49.946 0.103 7.22 9.51 11.2
3/26/2021 3:45:00 PM 10.05 50.09 0.103 7.22 13.45 11.2
3/26/2021 4:00:00 PM 10.15 50.27 0.103 7.24 10.68 11.19
3/26/2021 4:15:00 PM 10.18 50.324 0.103 7.24 10.92 11.18
3/26/2021 4:30:00 PM 10.17 50.306 0.103 7.23 20.57 11.15
3/26/2021 4:45:00 PM 10.15 50.27 0.104 7.23 1156.46 11.12
3/26/2021 5:00:00 PM 10.15 50.27 0.104 7.22 109.81 11.13
3/26/2021 5:15:00 PM 10.14 50.252 0.104 7.22 12.79 11.12
3/26/2021 5:30:00 PM 10.12 50.216 0.104 7.18 54.51 11.08
3/26/2021 5:45:00 PM 10.09 50.162 0.104 7.21 11.87 11.06
3/26/2021 6:00:00 PM 10.06 50.108 0.104 7.2 298.68 11.03
3/26/2021 6:15:00 PM 10.01 50.018 0.104 7.2 12.18 11
3/26/2021 6:30:00 PM 9.95 49.91 0.104 7.18 155.7 10.97
3/26/2021 6:45:00 PM 9.9 49.82 0.104 7.17 43.71 10.95
3/26/2021 7:00:00 PM 9.83 49.694 0.104 7.17 8.12 10.93
3/26/2021 7:15:00 PM 9.76 49.568 0.104 7.16 450.37 10.9
3/26/2021 7:30:00 PM 9.69 49.442 0.104 7.14 8.65 10.88
3/26/2021 7:45:00 PM 9.61 49.298 0.105 7.13 76.85 10.86
3/26/2021 8:00:00 PM 9.54 49.172 0.105 7.1 8.47 10.86
3/26/2021 8:15:00 PM 9.46 49.028 0.105 7.11 9.42 10.84
3/26/2021 8:30:00 PM 9.38 48.884 0.105 7.1 166.22 10.84
3/26/2021 8:45:00 PM 9.3 48.74 0.105 7.09 143.03 10.84
3/26/2021 9:00:00 PM 9.22 48.596 0.105 7.08 63.76 10.84
3/26/2021 9:15:00 PM 9.14 48.452 0.105 7.08 48.77 10.84
3/26/2021 9:30:00 PM 9.07 48.326 0.105 7.07 8.75 10.85
3/26/2021 9:45:00 PM 9 48.2 0.105 7.08 158.85 10.86
3/26/2021 10:00:00 PM 8.93 48.074 0.106 7.08 167.07 10.86
3/26/2021 10:15:00 PM 8.85 47.93 0.106 7.07 10.49 10.87
3/26/2021 10:30:00 PM 8.78 47.804 0.106 7.07 9.47 10.88
3/26/2021 10:45:00 PM 8.71 47.678 0.106 7.06 212.61 10.89
3/26/2021 11:00:00 PM 8.65 47.57 0.106 7.06 33.09 10.91
3/26/2021 11:15:00 PM 8.57 47.426 0.106 7.06 10.94 10.93
3/26/2021 11:30:00 PM 8.49 47.282 0.105 7.05 9.9 10.94
3/26/2021 11:45:00 PM 8.43 47.174 0.106 7.06 9.31 10.96
3/27/2021 12:00:00 AM 8.35 47.03 0.106 7.05 9.26 10.97
3/27/2021 12:15:00 AM 8.28 46.904 0.106 7.07 9.46 10.99
3/27/2021 12:30:00 AM 8.21 46.778 0.106 7.02 9.65 11.01
3/27/2021 12:45:00 AM 8.15 46.67 0.106 7.06 9.46 11.02
3/27/2021 1:00:00 AM 8.08 46.544 0.106 7.06 9.1 11.04
3/27/2021 1:15:00 AM 8.02 46.436 0.107 7.06 8.8 11.05
3/27/2021 1:30:00 AM 7.95 46.31 0.107 7.03 8.87 11.07
3/27/2021 1:45:00 AM 7.88 46.184 0.107 7.06 9.37 11.09
3/27/2021 2:00:00 AM 7.81 46.058 0.107 7.06 8.77 11.1
3/27/2021 2:15:00 AM 7.74 45.932 0.107 7.06 8.86 11.13
3/27/2021 2:30:00 AM 7.67 45.806 0.107 7.06 9.08 11.14
3/27/2021 2:45:00 AM 7.61 45.698 0.107 7.06 8.78 11.16
3/27/2021 3:00:00 AM 7.55 45.59 0.107 7.07 9 11.17
3/27/2021 3:15:00 AM 7.5 45.5 0.107 7.03 8.62 11.19
3/27/2021 3:30:00 AM 7.46 45.428 0.107 7.03 8.61 11.2
3/27/2021 3:45:00 AM 7.41 45.338 0.107 7.03 8.56 11.22
3/27/2021 4:00:00 AM 7.36 45.248 0.107 7.04 8.68 11.22
3/27/2021 4:15:00 AM 7.31 45.158 0.107 7.04 9.24 11.24
3/27/2021 4:30:00 AM 7.26 45.068 0.108 7.04 9.15 11.26
3/27/2021 4:45:00 AM 7.22 44.996 0.108 7.05 9.02 11.27
3/27/2021 5:00:00 AM 7.18 44.924 0.108 7.06 8.86 11.28
3/27/2021 5:15:00 AM 7.14 44.852 0.108 7.05 8.98 11.29
3/27/2021 5:30:00 AM 7.1 44.78 0.108 7.05 8.83 11.31
3/27/2021 5:45:00 AM 7.06 44.708 0.108 7.05 8.72 11.32
3/27/2021 6:00:00 AM 7.02 44.636 0.109 7.01 8.72 11.33
3/27/2021 6:15:00 AM 6.99 44.582 0.108 7.05 8.71 11.34
3/27/2021 6:30:00 AM 6.96 44.528 0.109 7.05 8.43 11.35
3/27/2021 6:45:00 AM 6.93 44.474 0.109 7.08 9.15 11.36
3/27/2021 7:00:00 AM 6.9 44.42 0.109 7.06 8.49 11.37
3/27/2021 7:15:00 AM 6.87 44.366 0.109 7.08 8.7 11.38
3/27/2021 7:30:00 AM 6.85 44.33 0.109 7.06 8.64 11.39
3/27/2021 7:45:00 AM 6.83 44.294 0.109 7.07 8.64 11.41
3/27/2021 8:00:00 AM 6.81 44.258 0.109 7.07 8.56 11.44
3/27/2021 8:15:00 AM 6.8 44.24 0.109 7.08 8.68 11.48
3/27/2021 8:30:00 AM 6.79 44.222 0.11 7.09 8.68 11.51
3/27/2021 8:45:00 AM 6.79 44.222 0.11 7.09 8.85 11.55
3/27/2021 9:00:00 AM 6.78 44.204 0.11 7.09 8.42 11.58
3/27/2021 9:15:00 AM 6.78 44.204 0.11 7.11 8.45 11.62
3/27/2021 9:30:00 AM 6.78 44.204 0.11 7.08 8.41 11.65
3/27/2021 9:45:00 AM 6.78 44.204 0.11 7.12 8.71 11.69
3/27/2021 10:00:00 AM 6.79 44.222 0.11 7.13 8.46 11.73
3/27/2021 10:15:00 AM 6.81 44.258 0.11 7.14 8.28 11.78
3/27/2021 10:30:00 AM 6.84 44.312 0.11 7.15 8.12 11.83
3/27/2021 10:45:00 AM 6.86 44.348 0.11 7.13 8.31 11.87
3/27/2021 11:00:00 AM 6.89 44.402 0.11 7.17 7.86 11.9
3/27/2021 11:15:00 AM 6.91 44.438 0.11 7.16 8.13 11.93
3/27/2021 11:30:00 AM 6.96 44.528 0.11 7.19 8.28 11.96
3/27/2021 11:45:00 AM 7.01 44.618 0.11 7.17 7.7 11.99
3/27/2021 12:00:00 PM 7.08 44.744 0.11 7.21 7.8 12.01
3/27/2021 12:15:00 PM 7.24 45.032 0.11 7.21 7.63 12.05
3/27/2021 12:30:00 PM 7.43 45.374 0.11 7.22 7.56 12.07
3/27/2021 12:45:00 PM 7.61 45.698 0.11 7.23 7.71 12.08
3/27/2021 1:00:00 PM 7.77 45.986 0.11 7.2 7.84 12.08
3/27/2021 1:15:00 PM 8 46.4 0.11 7.24 7.86 12.09
3/27/2021 1:30:00 PM 8.19 46.742 0.11 7.25 7.96 12.08
3/27/2021 1:45:00 PM 8.35 47.03 0.11 7.25 7.64 12.08
3/27/2021 2:00:00 PM 8.44 47.192 0.11 7.26 7.74 12.08
3/27/2021 2:15:00 PM 8.5 47.3 0.11 7.27 7.72 12.07
3/27/2021 2:30:00 PM 8.56 47.408 0.11 7.27 7.51 12.05
3/27/2021 2:45:00 PM 8.65 47.57 0.11 7.28 7.6 12.03
3/27/2021 3:00:00 PM 8.67 47.606 0.11 7.27 7.69 12.01
3/27/2021 3:15:00 PM 8.78 47.804 0.11 7.3 7.68 12
3/27/2021 3:30:00 PM 8.87 47.966 0.11 7.29 7.67 11.98
3/27/2021 3:45:00 PM 8.97 48.146 0.11 7.31 7.69 11.95
3/27/2021 4:00:00 PM 9.07 48.326 0.111 7.31 7.86 11.93
3/27/2021 4:15:00 PM 9.17 48.506 0.11 7.3 7.68 11.88
3/27/2021 4:30:00 PM 9.26 48.668 0.111 7.32 7.62 11.84
3/27/2021 4:45:00 PM 9.37 48.866 0.111 7.32 7.8 11.8
3/27/2021 5:00:00 PM 9.46 49.028 0.11 7.32 7.83 11.76
3/27/2021 5:15:00 PM 9.54 49.172 0.111 7.32 8.11 11.72
3/27/2021 5:30:00 PM 9.6 49.28 0.111 7.26 7.99 11.68
3/27/2021 5:45:00 PM 9.66 49.388 0.111 7.32 7.58 11.63
3/27/2021 6:00:00 PM 9.72 49.496 0.111 7.32 7.81 11.58
3/27/2021 6:15:00 PM 9.76 49.568 0.111 7.3 7.8 11.52
3/27/2021 6:30:00 PM 9.78 49.604 0.111 7.3 8.08 11.46
3/27/2021 6:45:00 PM 9.78 49.604 0.111 7.28 7.97 11.39
3/27/2021 7:00:00 PM 9.76 49.568 0.111 7.27 7.84 11.33
3/27/2021 7:15:00 PM 9.73 49.514 0.111 7.24 7.87 11.28
3/27/2021 7:30:00 PM 9.68 49.424 0.111 7.23 7.99 11.23
3/27/2021 7:45:00 PM 9.61 49.298 0.111 7.21 7.8 11.18
3/27/2021 8:00:00 PM 9.54 49.172 0.112 7.2 8.08 11.13
3/27/2021 8:15:00 PM 9.47 49.046 0.112 7.19 7.78 11.1
3/27/2021 8:30:00 PM 9.39 48.902 0.112 7.16 8.13 11.06
3/27/2021 8:45:00 PM 9.31 48.758 0.112 7.15 7.89 11.03
3/27/2021 9:00:00 PM 9.22 48.596 0.112 7.13 7.7 11.01
3/27/2021 9:15:00 PM 9.15 48.47 0.112 7.13 8.15 10.98
3/27/2021 9:30:00 PM 9.07 48.326 0.112 7.13 8.07 10.96
3/27/2021 9:45:00 PM 8.99 48.182 0.112 7.12 8.33 10.94
3/27/2021 10:00:00 PM 8.92 48.056 0.112 7.06 9.54 10.92
3/27/2021 10:15:00 PM 8.85 47.93 0.112 7.1 8.18 10.91
3/27/2021 10:30:00 PM 8.78 47.804 0.113 7.1 8.53 10.9
3/27/2021 10:45:00 PM 8.71 47.678 0.113 7.09 8.07 10.89
3/27/2021 11:00:00 PM 8.63 47.534 0.113 7.09 8.88 10.9
3/27/2021 11:15:00 PM 8.57 47.426 0.113 7.07 8.53 10.89
3/27/2021 11:30:00 PM 8.5 47.3 0.113 7.07 8.87 10.89
3/27/2021 11:45:00 PM 8.42 47.156 0.113 7.06 9.59 10.9
3/28/2021 12:00:00 AM 8.34 47.012 0.113 7.04 9.15 10.91
3/28/2021 12:15:00 AM 8.27 46.886 0.114 7.07 10.59 10.91
3/28/2021 12:30:00 AM 8.19 46.742 0.114 7.07 10.09 10.92
3/28/2021 12:45:00 AM 8.12 46.616 0.114 7.03 11.09 10.93
3/28/2021 1:00:00 AM 8.04 46.472 0.114 7.07 9.87 10.94
3/28/2021 1:15:00 AM 7.97 46.346 0.114 7.07 10.08 10.95
3/28/2021 1:30:00 AM 7.9 46.22 0.114 7.06 9.79 10.96
3/28/2021 1:45:00 AM 7.83 46.094 0.115 7.07 8.58 10.98
3/28/2021 2:00:00 AM 7.76 45.968 0.115 7.07 8.69 10.99
3/28/2021 2:15:00 AM 7.69 45.842 0.115 7.08 9.08 11
3/28/2021 2:30:00 AM 7.62 45.716 0.115 7.07 9.11 11.02
3/28/2021 2:45:00 AM 7.55 45.59 0.115 7.06 9.53 11.03
3/28/2021 3:00:00 AM 7.48 45.464 0.115 7.06 9.28 11.05
3/28/2021 3:15:00 AM 7.41 45.338 0.115 7.04 8.83 11.07
3/28/2021 3:30:00 AM 7.34 45.212 0.115 7.04 9.38 11.07
3/28/2021 3:45:00 AM 7.27 45.086 0.115 7.01 9.2 11.09
3/28/2021 4:00:00 AM 7.2 44.96 0.116 7.03 8.52 11.11
3/28/2021 4:15:00 AM 7.12 44.816 0.116 7.04 8.18 11.13
3/28/2021 4:30:00 AM 7.05 44.69 0.116 7.04 8.33 11.14
3/28/2021 4:45:00 AM 6.98 44.564 0.116 7.05 8.8 11.16
3/28/2021 5:00:00 AM 6.92 44.456 0.116 7.04 8.44 11.18
3/28/2021 5:15:00 AM 6.86 44.348 0.116 7.05 8.33 11.19
3/28/2021 5:30:00 AM 6.8 44.24 0.116 7.05 8.81 11.21
3/28/2021 5:45:00 AM 6.73 44.114 0.117 7.05 8.5 11.23
3/28/2021 6:00:00 AM 6.68 44.024 0.117 7.05 8.87 11.25
3/28/2021 6:15:00 AM 6.63 43.934 0.117 7.05 9.23 11.27
3/28/2021 6:30:00 AM 6.58 43.844 0.117 7.06 8.57 11.28
3/28/2021 6:45:00 AM 6.54 43.772 0.117 7.05 8.51 11.3
3/28/2021 7:00:00 AM 6.51 43.718 0.117 7.03 8.59 11.31
3/28/2021 7:15:00 AM 6.48 43.664 0.117 7.06 8.81 11.33
3/28/2021 7:30:00 AM 6.45 43.61 0.117 7.07 9.46 11.34
3/28/2021 7:45:00 AM 6.45 43.61 0.117 7.05 8.49 11.37
3/28/2021 8:00:00 AM 6.44 43.592 0.118 7.07 9.36 11.38
3/28/2021 8:15:00 AM 6.43 43.574 0.118 7.08 7.95 11.4
3/28/2021 8:30:00 AM 6.42 43.556 0.118 7.09 8.16 11.41
3/28/2021 8:45:00 AM 6.42 43.556 0.118 7.08 8.78 11.43
3/28/2021 9:00:00 AM 6.42 43.556 0.118 7.08 8.95 11.44
3/28/2021 9:15:00 AM 6.42 43.556 0.118 7.1 8.91 11.46
3/28/2021 9:30:00 AM 6.44 43.592 0.118 7.1 8.64 11.49
3/28/2021 9:45:00 AM 6.46 43.628 0.118 7.11 8.23 11.52
3/28/2021 10:00:00 AM 6.48 43.664 0.119 7.11 8.09 11.55
3/28/2021 10:15:00 AM 6.51 43.718 0.119 7.12 8.88 11.57
3/28/2021 10:30:00 AM 6.54 43.772 0.118 7.14 8.36 11.59
3/28/2021 10:45:00 AM 6.57 43.826 0.118 7.15 7.59 11.6
3/28/2021 11:00:00 AM 6.61 43.898 0.119 7.16 7.82 11.63
3/28/2021 11:15:00 AM 6.64 43.952 0.118 7.16 7.67 11.64
3/28/2021 11:30:00 AM 6.67 44.006 0.118 7.17 8.66 11.65
3/28/2021 11:45:00 AM 6.71 44.078 0.118 7.18 9.68 11.66
3/28/2021 12:00:00 PM 6.74 44.132 0.119 7.17 8.01 11.66
3/28/2021 12:15:00 PM 6.77 44.186 0.119 7.18 9.2 11.65
3/28/2021 12:30:00 PM 6.81 44.258 0.119 7.18 8.29 11.65
3/28/2021 12:45:00 PM 6.84 44.312 0.119 7.18 7.85 11.67
3/28/2021 1:00:00 PM 6.87 44.366 0.119 7.19 9.66 11.66
3/28/2021 1:15:00 PM 6.92 44.456 0.119 7.19 8.09 11.67
3/28/2021 1:30:00 PM 6.98 44.564 0.119 7.19 8.96 11.69
3/28/2021 1:45:00 PM 7.05 44.69 0.119 7.2 9.95 11.72
3/28/2021 2:00:00 PM 7.13 44.834 0.119 7.21 8.64 11.73
3/28/2021 2:15:00 PM 7.21 44.978 0.119 7.2 8.16 11.74
3/28/2021 2:30:00 PM 7.27 45.086 0.119 7.22 8.2 11.74
3/28/2021 2:45:00 PM 7.35 45.23 0.119 7.22 8.38 11.74
3/28/2021 3:00:00 PM 7.4 45.32 0.119 7.22 8.42 11.73
3/28/2021 3:15:00 PM 7.47 45.446 0.119 7.23 9.72 11.73
3/28/2021 3:30:00 PM 7.51 45.518 0.119 7.22 9.8 11.71
3/28/2021 3:45:00 PM 7.56 45.608 0.119 7.22 8.3 11.68
3/28/2021 4:00:00 PM 7.61 45.698 0.119 7.22 9.67 11.67
3/28/2021 4:15:00 PM 7.68 45.824 0.119 7.24 9.89 11.65
3/28/2021 4:30:00 PM 7.76 45.968 0.118 7.24 10.52 11.62
3/28/2021 4:45:00 PM 7.8 46.04 0.119 7.24 10.42 11.59
3/28/2021 5:00:00 PM 7.84 46.112 0.119 7.24 9.32 11.56
3/28/2021 5:15:00 PM 7.87 46.166 0.119 7.22 9.05 11.53
3/28/2021 5:30:00 PM 7.89 46.202 0.118 7.23 8.73 11.48
3/28/2021 5:45:00 PM 7.92 46.256 0.118 7.22 9.44 11.44
3/28/2021 6:00:00 PM 7.94 46.292 0.118 7.21 10.16 11.41
3/28/2021 6:15:00 PM 7.97 46.346 0.118 7.21 9.11 11.38
3/28/2021 6:30:00 PM 7.98 46.364 0.118 7.21 9.72 11.35
3/28/2021 6:45:00 PM 7.99 46.382 0.119 7.21 9.77 11.32
3/28/2021 7:00:00 PM 7.99 46.382 0.119 7.19 9.64 11.31
3/28/2021 7:15:00 PM 7.99 46.382 0.119 7.2 9.08 11.29
3/28/2021 7:30:00 PM 7.98 46.364 0.119 7.2 9.51 11.26
3/28/2021 7:45:00 PM 7.96 46.328 0.119 7.2 10.99 11.22
3/28/2021 8:00:00 PM 7.94 46.292 0.119 7.15 9.41 11.19
3/28/2021 8:15:00 PM 7.91 46.238 0.119 7.16 9.76 11.16
3/28/2021 8:30:00 PM 7.87 46.166 0.119 7.14 9.56 11.14
3/28/2021 8:45:00 PM 7.83 46.094 0.12 7.15 9.62 11.12
3/28/2021 9:00:00 PM 7.8 46.04 0.12 7.11 9.4 11.11
3/28/2021 9:15:00 PM 7.77 45.986 0.12 7.13 10.05 11.1
3/28/2021 9:30:00 PM 7.72 45.896 0.12 7.13 10.37 11.09
3/28/2021 9:45:00 PM 7.68 45.824 0.12 7.14 11 11.09
3/28/2021 10:00:00 PM 7.65 45.77 0.12 7.13 11.62 11.07
3/28/2021 10:15:00 PM 7.6 45.68 0.12 7.12 10.97 11.07
3/28/2021 10:30:00 PM 7.55 45.59 0.12 7.11 11.63 11.07
3/28/2021 10:45:00 PM 7.5 45.5 0.121 7.11 10.95 11.08
3/28/2021 11:00:00 PM 7.45 45.41 0.121 7.1 10.92 11.08
3/28/2021 11:15:00 PM 7.39 45.302 0.121 7.09 10.16 11.09
3/28/2021 11:30:00 PM 7.34 45.212 0.122 7.09 10.45 11.1
3/28/2021 11:45:00 PM 7.28 45.104 0.122 7.09 11.72 11.11
3/29/2021 12:00:00 AM 7.21 44.978 0.122 7.09 11.8 11.13
3/29/2021 12:15:00 AM 7.15 44.87 0.123 7.1 12.88 11.13
3/29/2021 12:30:00 AM 7.09 44.762 0.123 7.09 11.54 11.14
3/29/2021 12:45:00 AM 7.03 44.654 0.124 7.09 12.78 11.16
3/29/2021 1:00:00 AM 6.97 44.546 0.124 7.1 11.43 11.17
3/29/2021 1:15:00 AM 6.9 44.42 0.125 7.09 11.48 11.19
3/29/2021 1:30:00 AM 6.84 44.312 0.125 7.05 12.68 11.2
3/29/2021 1:45:00 AM 6.78 44.204 0.125 7.08 12.22 11.22
3/29/2021 2:00:00 AM 6.71 44.078 0.125 7.08 12.48 11.23
3/29/2021 2:15:00 AM 6.64 43.952 0.125 7.07 12.03 11.25
3/29/2021 2:30:00 AM 6.58 43.844 0.125 7.08 11.75 11.26
3/29/2021 2:45:00 AM 6.51 43.718 0.125 7.08 11.57 11.29
3/29/2021 3:00:00 AM 6.44 43.592 0.125 7.07 13.15 11.31
3/29/2021 3:15:00 AM 6.37 43.466 0.125 7.07 12.38 11.33
3/29/2021 3:30:00 AM 6.3 43.34 0.124 7.05 13.56 11.35
3/29/2021 3:45:00 AM 6.24 43.232 0.124 7.06 12.53 11.37
3/29/2021 4:00:00 AM 6.18 43.124 0.124 7.07 17.05 11.39
3/29/2021 4:15:00 AM 6.12 43.016 0.124 7.08 14.11 11.41
3/29/2021 4:30:00 AM 6.05 42.89 0.124 7.07 13.83 11.43
3/29/2021 4:45:00 AM 6 42.8 0.125 7.07 16.17 11.45
3/29/2021 5:00:00 AM 5.93 42.674 0.124 7.07 15.42 11.47
3/29/2021 5:15:00 AM 5.88 42.584 0.125 7.07 12.18 11.49
3/29/2021 5:30:00 AM 5.82 42.476 0.125 7.08 14.65 11.51
3/29/2021 5:45:00 AM 5.76 42.368 0.125 7.07 13.78 11.54
3/29/2021 6:00:00 AM 5.7 42.26 0.125 7.07 13.36 11.56
3/29/2021 6:15:00 AM 5.64 42.152 0.125 7.08 15.71 11.58
3/29/2021 6:30:00 AM 5.57 42.026 0.125 7.07 12.48 11.6
3/29/2021 6:45:00 AM 5.5 41.9 0.125 7.08 12.91 11.63
3/29/2021 7:00:00 AM 5.43 41.774 0.125 7.08 12.46 11.65
3/29/2021 7:15:00 AM 5.36 41.648 0.125 7.06 13.16 11.67
3/29/2021 7:30:00 AM 5.3 41.54 0.125 7.07 14.08 11.7
3/29/2021 7:45:00 AM 5.25 41.45 0.125 7.08 12.47 11.73
3/29/2021 8:00:00 AM 5.21 41.378 0.125 7.09 13.59 11.77
3/29/2021 8:15:00 AM 5.17 41.306 0.125 7.08 13.18 11.8
3/29/2021 8:30:00 AM 5.13 41.234 0.125 7.08 13.86 11.84
3/29/2021 8:45:00 AM 5.07 41.126 0.125 7.08 13.63 11.87
3/29/2021 9:00:00 AM 5.04 41.072 0.126 7.09 15.32 11.92
3/29/2021 9:15:00 AM 5.02 41.036 0.125 7.1 14.72 11.97
3/29/2021 9:30:00 AM 5.02 41.036 0.125 7.11 15.24 12.03
3/29/2021 9:45:00 AM 5.02 41.036 0.125 7.12 14.89 12.1
3/29/2021 10:00:00 AM 5 41 0.125 7.13 15.21 12.13
3/29/2021 10:15:00 AM 4.98 40.964 0.125 7.12 13.41 12.17
3/29/2021 10:30:00 AM 4.99 40.982 0.125 7.14 14.81 12.24
3/29/2021 10:45:00 AM 5.04 41.072 0.125 7.16 14.24 12.29
3/29/2021 11:00:00 AM 5.06 41.108 0.125 7.15 15.79 12.35
3/29/2021 11:15:00 AM 5.07 41.126 0.125 7.16 14.52 12.4
3/29/2021 11:30:00 AM 5.15 41.27 0.124 7.19 13.75 12.43
3/29/2021 11:45:00 AM 5.29 41.522 0.124 7.2 14.52 12.47
3/29/2021 12:00:00 PM 5.44 41.792 0.124 7.2 14.36 12.51
3/29/2021 12:15:00 PM 5.49 41.882 0.123 7.22 12.02 12.54
3/29/2021 12:30:00 PM 5.58 42.044 0.123 7.22 10.21 12.56
3/29/2021 12:45:00 PM 5.78 42.404 0.123 7.23 10.57 12.58
3/29/2021 1:00:00 PM 5.91 42.638 0.122 7.24 7.82 12.59
3/29/2021 1:15:00 PM 6.03 42.854 0.122 7.24 11.13 12.6
3/29/2021 1:30:00 PM 6.18 43.124 0.122 7.26 14.64 12.6
3/29/2021 1:45:00 PM 6.35 43.43 0.122 7.27 15.36 12.6
3/29/2021 2:00:00 PM 6.54 43.772 0.122 7.28 15.43 12.6
3/29/2021 2:15:00 PM 6.75 44.15 0.122 7.29 14.6 12.58
3/29/2021 2:30:00 PM 6.95 44.51 0.121 7.3 15.6 12.55
3/29/2021 2:45:00 PM 7.17 44.906 0.121 7.3 15.42 12.51
3/29/2021 3:00:00 PM 7.37 45.266 0.121 7.31 13.94 12.47
3/29/2021 3:15:00 PM 7.58 45.644 0.121 7.32 16.92 12.44
3/29/2021 3:30:00 PM 7.79 46.022 0.121 7.3 12.78 12.39
3/29/2021 3:45:00 PM 7.97 46.346 0.121 7.32 15.69 12.35
3/29/2021 4:00:00 PM 8.14 46.652 0.121 7.33 14.53 12.3
3/29/2021 4:15:00 PM 8.28 46.904 0.121 7.32 12.87 12.26
3/29/2021 4:30:00 PM 8.38 47.084 0.121 7.33 15.61 12.21
3/29/2021 4:45:00 PM 8.47 47.246 0.12 7.32 14.7 12.17
3/29/2021 5:00:00 PM 8.53 47.354 0.12 7.32 15.13 12.13
3/29/2021 5:15:00 PM 8.56 47.408 0.12 7.32 16.46 12.08
3/29/2021 5:30:00 PM 8.57 47.426 0.12 7.29 17.71 12.04
3/29/2021 5:45:00 PM 8.57 47.426 0.12 7.29 11.64 11.99
3/29/2021 6:00:00 PM 8.55 47.39 0.12 7.27 14.36 11.95
3/29/2021 6:15:00 PM 8.53 47.354 0.12 7.23 16.02 11.9
3/29/2021 6:30:00 PM 8.49 47.282 0.12 7.29 13.1 11.85
3/29/2021 6:45:00 PM 8.44 47.192 0.12 7.27 16.46 11.81
3/29/2021 7:00:00 PM 8.37 47.066 0.12 7.24 14.66 11.76
3/29/2021 7:15:00 PM 8.29 46.922 0.12 7.21 14.89 11.71
3/29/2021 7:30:00 PM 8.21 46.778 0.12 7.21 14.11 11.66
3/29/2021 7:45:00 PM 8.12 46.616 0.12 7.23 11.88 11.61
3/29/2021 8:00:00 PM 8.03 46.454 0.12 7.21 12.14 11.57
3/29/2021 8:15:00 PM 7.94 46.292 0.12 7.17 12.54 11.55
3/29/2021 8:30:00 PM 7.84 46.112 0.12 7.17 13.9 11.52
3/29/2021 8:45:00 PM 7.74 45.932 0.12 7.16 17.08 11.5
3/29/2021 9:00:00 PM 7.64 45.752 0.12 7.15 14.43 11.47
3/29/2021 9:15:00 PM 7.53 45.554 0.12 7.16 10.38 11.47
3/29/2021 9:30:00 PM 7.44 45.392 0.12 7.15 13.3 11.46
3/29/2021 9:45:00 PM 7.33 45.194 0.12 7.09 13.13 11.45
3/29/2021 10:00:00 PM 7.22 44.996 0.12 7.12 12.88 11.45
3/29/2021 10:15:00 PM 7.12 44.816 0.12 7.11 10.14 11.45
3/29/2021 10:30:00 PM 7.01 44.618 0.12 7.09 13.61 11.45
3/29/2021 10:45:00 PM 6.9 44.42 0.12 7.09 13.9 11.46
3/29/2021 11:00:00 PM 6.8 44.24 0.12 7.08 14.15 11.47
3/29/2021 11:15:00 PM 6.7 44.06 0.12 7.08 11.56 11.47
3/29/2021 11:30:00 PM 6.61 43.898 0.12 7.08 12.49 11.48
3/29/2021 11:45:00 PM 6.52 43.736 0.121 7.08 14.62 11.5
3/30/2021 12:00:00 AM 6.44 43.592 0.121 7.08 20.6 11.5
3/30/2021 12:15:00 AM 6.36 43.448 0.121 7.06 9.32 11.52
3/30/2021 12:30:00 AM 6.29 43.322 0.121 7.07 12.25 11.53
3/30/2021 12:45:00 AM 6.21 43.178 0.121 7.07 17.73 11.54
3/30/2021 1:00:00 AM 6.14 43.052 0.121 7.07 11.52 11.56
3/30/2021 1:15:00 AM 6.06 42.908 0.121 7.05 6.88 11.57
3/30/2021 1:30:00 AM 5.99 42.782 0.121 7.06 16.72 11.59
3/30/2021 1:45:00 AM 5.91 42.638 0.121 7.07 151.31 11.61
3/30/2021 2:00:00 AM 5.83 42.494 0.122 7.06 11.53 11.63
3/30/2021 2:15:00 AM 5.75 42.35 0.122 7.06 12.27 11.65
3/30/2021 2:30:00 AM 5.67 42.206 0.122 7.06 10.49 11.68
3/30/2021 2:45:00 AM 5.59 42.062 0.122 7.07 8.68 11.71
3/30/2021 3:00:00 AM 5.51 41.918 0.122 7.03 16.26 11.73
3/30/2021 3:15:00 AM 5.42 41.756 0.122 7.07 13.86 11.76
3/30/2021 3:30:00 AM 5.34 41.612 0.122 7.07 9.88 11.78
3/30/2021 3:45:00 AM 5.25 41.45 0.122 7.07 14.77 11.81
3/30/2021 4:00:00 AM 5.17 41.306 0.122 7.06 13.72 11.83
3/30/2021 4:15:00 AM 5.08 41.144 0.122 7.06 12.5 11.86
3/30/2021 4:30:00 AM 5 41 0.123 7.06 36.19 11.89
3/30/2021 4:45:00 AM 4.91 40.838 0.122 7.04 12.32 11.91
3/30/2021 5:00:00 AM 4.82 40.676 0.123 7.05 9.04 11.95
3/30/2021 5:15:00 AM 4.74 40.532 0.123 7.02 10.9 11.96
3/30/2021 5:30:00 AM 4.65 40.37 0.123 7.04 9.46 12
3/30/2021 5:45:00 AM 4.56 40.208 0.123 7.05 9.08 12.03
3/30/2021 6:00:00 AM 4.48 40.064 0.123 7.06 9.34 12.06
3/30/2021 6:15:00 AM 4.39 39.902 0.123 7.07 9.14 12.09
3/30/2021 6:30:00 AM 4.31 39.758 0.123 7.07 9.55 12.12
3/30/2021 6:45:00 AM 4.22 39.596 0.123 7.03 10.07 12.15
3/30/2021 7:00:00 AM 4.14 39.452 0.123 7.07 8.96 12.18
3/30/2021 7:15:00 AM 4.07 39.326 0.124 7.06 9.2 12.22
3/30/2021 7:30:00 AM 3.99 39.182 0.124 7.07 8.76 12.27
3/30/2021 7:45:00 AM 3.92 39.056 0.124 7.05 10.44 12.32
3/30/2021 8:00:00 AM 3.87 38.966 0.124 7.08 8.77 12.37
3/30/2021 8:15:00 AM 3.82 38.876 0.124 7.1 9.13 12.43
3/30/2021 8:30:00 AM 3.79 38.822 0.124 7.1 11.15 12.49
3/30/2021 8:45:00 AM 3.77 38.786 0.124 7.11 8.61 12.54
3/30/2021 9:00:00 AM 3.77 38.786 0.124 7.13 8.48 12.6
3/30/2021 9:15:00 AM 3.79 38.822 0.124 7.14 8.84 12.65
3/30/2021 9:30:00 AM 3.82 38.876 0.124 7.15 9.22 12.7
3/30/2021 9:45:00 AM 3.87 38.966 0.124 7.16 8.11 12.75
3/30/2021 10:00:00 AM 3.95 39.11 0.124 7.17 9.47 12.79
3/30/2021 10:15:00 AM 4.04 39.272 0.124 7.18 9.09 12.82
3/30/2021 10:30:00 AM 4.16 39.488 0.124 7.19 8.06 12.86
3/30/2021 10:45:00 AM 4.28 39.704 0.124 7.2 9.05 12.9
3/30/2021 11:00:00 AM 4.42 39.956 0.124 7.2 8.09 12.92
3/30/2021 11:15:00 AM 4.58 40.244 0.124 7.22 8.49 12.94
3/30/2021 11:30:00 AM 4.76 40.568 0.124 7.22 8.32 12.95
3/30/2021 11:45:00 AM 4.96 40.928 0.124 7.24 8 12.95
3/30/2021 12:00:00 PM 5.19 41.342 0.124 7.23 8.63 12.95
3/30/2021 12:15:00 PM 5.42 41.756 0.124 7.26 8.31 12.95
3/30/2021 12:30:00 PM 5.67 42.206 0.124 7.27 8.54 12.92
3/30/2021 12:45:00 PM 5.95 42.71 0.124 7.28 8.4 12.9
3/30/2021 1:00:00 PM 6.24 43.232 0.124 7.29 8.04 12.86
3/30/2021 1:15:00 PM 6.53 43.754 0.124 7.3 8.34 12.82
3/30/2021 1:30:00 PM 6.83 44.294 0.124 7.31 8.76 12.78
3/30/2021 1:45:00 PM 7.13 44.834 0.124 7.31 8.1 12.73
3/30/2021 2:00:00 PM 7.43 45.374 0.123 7.33 8.38 12.68
3/30/2021 2:15:00 PM 7.73 45.914 0.124 7.33 9.38 12.61
3/30/2021 2:30:00 PM 8.03 46.454 0.124 7.32 8.75 12.55
3/30/2021 2:45:00 PM 8.3 46.94 0.123 7.34 9.14 12.49
3/30/2021 3:00:00 PM 8.57 47.426 0.123 7.36 8.13 12.43
3/30/2021 3:15:00 PM 8.84 47.912 0.123 7.35 8.31 12.35
3/30/2021 3:30:00 PM 9.07 48.326 0.123 7.36 8.38 12.29
3/30/2021 3:45:00 PM 9.29 48.722 0.122 7.37 8.32 12.22
3/30/2021 4:00:00 PM 9.48 49.064 0.122 7.37 8.2 12.16
3/30/2021 4:15:00 PM 9.65 49.37 0.122 7.38 7.99 12.09
3/30/2021 4:30:00 PM 9.8 49.64 0.122 7.37 8.28 12.03
3/30/2021 4:45:00 PM 9.93 49.874 0.123 7.38 8.73 11.96
3/30/2021 5:00:00 PM 10.04 50.072 0.122 7.38 8.27 11.9
3/30/2021 5:15:00 PM 10.11 50.198 0.123 7.38 8.51 11.84
3/30/2021 5:30:00 PM 10.14 50.252 0.123 7.38 8.19 11.77
3/30/2021 5:45:00 PM 10.17 50.306 0.124 7.37 8.11 11.72
3/30/2021 6:00:00 PM 10.2 50.36 0.125 7.37 8.28 11.67
3/30/2021 6:15:00 PM 10.2 50.36 0.125 7.36 8.34 11.59
3/30/2021 6:30:00 PM 10.18 50.324 0.125 7.34 10.05 11.52
3/30/2021 6:45:00 PM 10.16 50.288 0.125 7.33 8.21 11.45
3/30/2021 7:00:00 PM 10.12 50.216 0.125 7.33 8.55 11.37
3/30/2021 7:15:00 PM 10.07 50.126 0.125 7.31 9.01 11.3
3/30/2021 7:30:00 PM 10.01 50.018 0.125 7.26 8.64 11.22
3/30/2021 7:45:00 PM 9.96 49.928 0.124 7.28 8.57 11.15
3/30/2021 8:00:00 PM 9.9 49.82 0.124 7.22 9.88 11.09
3/30/2021 8:15:00 PM 9.84 49.712 0.124 7.26 10.81 11.04
3/30/2021 8:30:00 PM 9.78 49.604 0.125 7.24 10.02 11
3/30/2021 8:45:00 PM 9.71 49.478 0.124 7.22 10.14 10.95
3/30/2021 9:00:00 PM 9.64 49.352 0.125 7.22 10 10.92
3/30/2021 9:15:00 PM 9.57 49.226 0.125 7.2 10.13 10.89
3/30/2021 9:30:00 PM 9.5 49.1 0.125 7.19 10.06 10.86
3/30/2021 9:45:00 PM 9.43 48.974 0.125 7.16 11.94 10.84
3/30/2021 10:00:00 PM 9.36 48.848 0.125 7.16 13.5 10.83
3/30/2021 10:15:00 PM 9.28 48.704 0.125 7.17 13.15 10.82
3/30/2021 10:30:00 PM 9.21 48.578 0.125 7.15 11 10.8
3/30/2021 10:45:00 PM 9.14 48.452 0.125 7.14 11.49 10.79
3/30/2021 11:00:00 PM 9.07 48.326 0.125 7.13 11.47 10.79
3/30/2021 11:15:00 PM 9 48.2 0.125 7.12 11.23 10.79
3/30/2021 11:30:00 PM 8.94 48.092 0.125 7.13 12.9 10.78
3/30/2021 11:45:00 PM 8.88 47.984 0.126 7.13 10.86 10.79
3/31/2021 12:00:00 AM 8.82 47.876 0.126 7.13 12 10.78
3/31/2021 12:15:00 AM 8.76 47.768 0.126 7.13 11.89 10.79
3/31/2021 12:30:00 AM 8.71 47.678 0.126 7.12 12.52 10.78
3/31/2021 12:45:00 AM 8.66 47.588 0.126 7.12 12.11 10.79
3/31/2021 1:00:00 AM 8.61 47.498 0.127 7.12 11.46 10.79
3/31/2021 1:15:00 AM 8.57 47.426 0.127 7.12 12.42 10.79
3/31/2021 1:30:00 AM 8.52 47.336 0.127 7.13 13.1 10.8
3/31/2021 1:45:00 AM 8.48 47.264 0.128 7.13 11.39 10.81
3/31/2021 2:00:00 AM 8.44 47.192 0.128 7.13 13.53 10.81
3/31/2021 2:15:00 AM 8.41 47.138 0.128 7.13 11.38 10.82
3/31/2021 2:30:00 AM 8.37 47.066 0.128 7.13 14.3 10.82
3/31/2021 2:45:00 AM 8.33 46.994 0.129 7.12 13.23 10.82
3/31/2021 3:00:00 AM 8.29 46.922 0.129 7.13 13.01 10.83
3/31/2021 3:15:00 AM 8.25 46.85 0.128 7.13 13.59 10.84
3/31/2021 3:30:00 AM 8.22 46.796 0.128 7.12 12.17 10.85
3/31/2021 3:45:00 AM 8.18 46.724 0.129 7.12 12.96 10.86
3/31/2021 4:00:00 AM 8.15 46.67 0.129 7.11 12.42 10.87
3/31/2021 4:15:00 AM 8.11 46.598 0.128 7.13 13.59 10.88
3/31/2021 4:30:00 AM 8.07 46.526 0.128 7.12 12.83 10.89
3/31/2021 4:45:00 AM 8.02 46.436 0.128 7.13 12.65 10.9
3/31/2021 5:00:00 AM 7.99 46.382 0.129 7.12 11.68 10.91
3/31/2021 5:15:00 AM 7.95 46.31 0.129 7.11 12.3 10.92
3/31/2021 5:30:00 AM 7.91 46.238 0.129 7.12 14.7 10.93
3/31/2021 5:45:00 AM 7.87 46.166 0.129 7.12 15.72 10.95
3/31/2021 6:00:00 AM 7.84 46.112 0.129 7.11 13.91 10.96
3/31/2021 6:15:00 AM 7.8 46.04 0.13 7.13 11.52 10.96
3/31/2021 6:30:00 AM 7.76 45.968 0.13 7.13 11.82 10.97
3/31/2021 6:45:00 AM 7.72 45.896 0.13 7.13 11.62 10.99
3/31/2021 7:00:00 AM 7.69 45.842 0.131 7.14 10.75 11
3/31/2021 7:15:00 AM 7.66 45.788 0.131 7.12 12.35 11.02
3/31/2021 7:30:00 AM 7.63 45.734 0.131 7.13 11.65 11.06
3/31/2021 7:45:00 AM 7.61 45.698 0.131 7.15 15.01 11.09
3/31/2021 8:00:00 AM 7.59 45.662 0.132 7.15 10.51 11.14
3/31/2021 8:15:00 AM 7.58 45.644 0.131 7.16 11.56 11.2
3/31/2021 8:30:00 AM 7.57 45.626 0.131 7.17 10.54 11.26
3/31/2021 8:45:00 AM 7.57 45.626 0.131 7.16 11.51 11.32
3/31/2021 9:00:00 AM 7.57 45.626 0.132 7.19 10.78 11.37
3/31/2021 9:15:00 AM 7.57 45.626 0.132 7.19 12.09 11.44
3/31/2021 9:30:00 AM 7.58 45.644 0.132 7.19 12.39 11.49
3/31/2021 9:45:00 AM 7.59 45.662 0.132 7.19 11.62 11.53
3/31/2021 10:00:00 AM 7.6 45.68 0.132 7.18 16.66 11.58
3/31/2021 10:15:00 AM 7.62 45.716 0.132 7.21 10.3 11.64
3/31/2021 10:30:00 AM 7.64 45.752 0.132 7.22 12.56 11.69
3/31/2021 10:45:00 AM 7.66 45.788 0.132 7.23 12.77 11.72
3/31/2021 11:00:00 AM 7.67 45.806 0.132 7.24 12.8 11.75
3/31/2021 11:15:00 AM 7.69 45.842 0.132 7.25 26.19 11.8
3/31/2021 11:30:00 AM 7.72 45.896 0.132 7.26 12.26 11.83
3/31/2021 11:45:00 AM 7.74 45.932 0.132 7.27 12.3 11.86
3/31/2021 12:00:00 PM 7.77 45.986 0.132 7.28 10.77 11.88
3/31/2021 12:15:00 PM 7.78 46.004 0.132 7.28 12.65 11.87
3/31/2021 12:30:00 PM 7.8 46.04 0.132 7.29 11.33 11.87
3/31/2021 12:45:00 PM 7.81 46.058 0.131 7.29 16.83 11.86
3/31/2021 1:00:00 PM 7.83 46.094 0.132 7.28 13.86 11.87
3/31/2021 1:15:00 PM 7.86 46.148 0.131 7.3 11.86 11.89
3/31/2021 1:30:00 PM 7.9 46.22 0.131 7.3 11.88 11.9
3/31/2021 1:45:00 PM 7.94 46.292 0.131 7.31 14.32 11.91
3/31/2021 2:00:00 PM 7.99 46.382 0.131 7.32 11.07 11.92
3/31/2021 2:15:00 PM 8.02 46.436 0.13 7.32 14.05 11.91
3/31/2021 2:30:00 PM 8.04 46.472 0.13 7.32 15.24 11.88
3/31/2021 2:45:00 PM 8.07 46.526 0.13 7.32 13.93 11.86
3/31/2021 3:00:00 PM 8.09 46.562 0.129 7.32 11.2 11.83
3/31/2021 3:15:00 PM 8.09 46.562 0.129 7.32 11.22 11.78
3/31/2021 3:30:00 PM 8.11 46.598 0.129 7.32 10.75 11.75
3/31/2021 3:45:00 PM 8.13 46.634 0.129 7.32 14.89 11.74
3/31/2021 4:00:00 PM 8.15 46.67 0.129 7.33 9.21 11.71
3/31/2021 4:15:00 PM 8.15 46.67 0.13 7.32 9.44 11.67
3/31/2021 4:30:00 PM 8.16 46.688 0.13 7.31 9.68 11.64
3/31/2021 4:45:00 PM 8.17 46.706 0.13 7.31 10.36 11.6
3/31/2021 5:00:00 PM 8.18 46.724 0.13 7.3 10.96 11.56
3/31/2021 5:15:00 PM 8.18 46.724 0.13 7.29 9.04 11.53
3/31/2021 5:30:00 PM 8.19 46.742 0.13 7.28 9.09 11.49
3/31/2021 5:45:00 PM 8.19 46.742 0.13 7.28 10.84 11.47
3/31/2021 6:00:00 PM 8.2 46.76 0.13 7.27 8.12 11.43
3/31/2021 6:15:00 PM 8.2 46.76 0.13 7.25 8.83 11.4
3/31/2021 6:30:00 PM 8.18 46.724 0.13 7.25 9.16 11.37
3/31/2021 6:45:00 PM 8.16 46.688 0.13 7.25 8.12 11.34
3/31/2021 7:00:00 PM 8.14 46.652 0.13 7.24 9.48 11.31
3/31/2021 7:15:00 PM 8.12 46.616 0.13 7.23 8.89 11.28
3/31/2021 7:30:00 PM 8.11 46.598 0.13 7.23 7.82 11.25
3/31/2021 7:45:00 PM 8.09 46.562 0.13 7.21 10.36 11.22
3/31/2021 8:00:00 PM 8.07 46.526 0.131 7.22 8.2 11.19
3/31/2021 8:15:00 PM 8.05 46.49 0.13 7.21 8.47 11.17
3/31/2021 8:30:00 PM 8.02 46.436 0.13 7.21 8.53 11.15
3/31/2021 8:45:00 PM 8 46.4 0.13 7.2 8.36 11.14
3/31/2021 9:00:00 PM 7.97 46.346 0.13 7.2 8.83 11.12
3/31/2021 9:15:00 PM 7.94 46.292 0.131 7.2 8.56 11.11
3/31/2021 9:30:00 PM 7.91 46.238 0.131 7.19 9.01 11.11
3/31/2021 9:45:00 PM 7.88 46.184 0.131 7.18 8.54 11.1
3/31/2021 10:00:00 PM 7.84 46.112 0.131 7.18 11.43 11.09
3/31/2021 10:15:00 PM 7.81 46.058 0.131 7.17 11.46 11.09
3/31/2021 10:30:00 PM 7.77 45.986 0.131 7.17 8.67 11.08
3/31/2021 10:45:00 PM 7.74 45.932 0.131 7.18 8.89 11.07
3/31/2021 11:00:00 PM 7.7 45.86 0.131 7.15 8.69 11.07
3/31/2021 11:15:00 PM 7.67 45.806 0.131 7.17 8.57 11.07
3/31/2021 11:30:00 PM 7.64 45.752 0.131 7.17 8.91 11.07
3/31/2021 11:45:00 PM 7.6 45.68 0.132 7.17 9.41 11.08
4/1/2021 12:00:00 AM 7.57 45.626 0.132 7.17 10.49 11.07
4/1/2021 12:15:00 AM 7.53 45.554 0.132 7.17 9.19 11.08
4/1/2021 12:30:00 AM 7.49 45.482 0.132 7.18 8.97 11.09
4/1/2021 12:45:00 AM 7.46 45.428 0.132 7.19 8.65 11.09
4/1/2021 1:00:00 AM 7.42 45.356 0.132 7.19 8.77 11.1
4/1/2021 1:15:00 AM 7.38 45.284 0.132 7.19 9.06 11.11
4/1/2021 1:30:00 AM 7.35 45.23 0.132 7.19 9.29 11.11
4/1/2021 1:45:00 AM 7.32 45.176 0.133 7.18 8.75 11.11
4/1/2021 2:00:00 AM 7.27 45.086 0.132 7.18 8.41 11.12
4/1/2021 2:15:00 AM 7.23 45.014 0.133 7.18 8.59 11.13
4/1/2021 2:30:00 AM 7.18 44.924 0.133 7.17 8.54 11.14
4/1/2021 2:45:00 AM 7.14 44.852 0.133 7.16 9.21 11.15
4/1/2021 3:00:00 AM 7.07 44.726 0.133 7.18 8.39 11.16
4/1/2021 3:15:00 AM 6.97 44.546 0.133 7.17 8.27 11.17
4/1/2021 3:30:00 AM 6.85 44.33 0.133 7.16 8.57 11.17
4/1/2021 3:45:00 AM 6.74 44.132 0.133 7.16 7.71 11.19
4/1/2021 4:00:00 AM 6.65 43.97 0.133 7.16 8.1 11.2
4/1/2021 4:15:00 AM 6.58 43.844 0.133 7.16 8.49 11.21
4/1/2021 4:30:00 AM 6.52 43.736 0.134 7.16 8.74 11.23
4/1/2021 4:45:00 AM 6.47 43.646 0.134 7.16 8.42 11.24
4/1/2021 5:00:00 AM 6.43 43.574 0.134 7.16 8.56 11.26
4/1/2021 5:15:00 AM 6.37 43.466 0.134 7.16 8.44 11.28
4/1/2021 5:30:00 AM 6.28 43.304 0.134 7.16 8.27 11.3
4/1/2021 5:45:00 AM 6.17 43.106 0.134 7.16 9.17 11.32
4/1/2021 6:00:00 AM 6.07 42.926 0.134 7.16 8.97 11.34
4/1/2021 6:15:00 AM 5.97 42.746 0.134 7.15 8.03 11.37
4/1/2021 6:30:00 AM 5.88 42.584 0.134 7.15 7.88 11.39
4/1/2021 6:45:00 AM 5.81 42.458 0.134 7.15 7.73 11.41
4/1/2021 7:00:00 AM 5.74 42.332 0.134 7.15 8.45 11.44
4/1/2021 7:15:00 AM 5.7 42.26 0.134 7.16 8.43 11.47
4/1/2021 7:30:00 AM 5.65 42.17 0.133 7.16 7.78 11.52
4/1/2021 7:45:00 AM 5.61 42.098 0.134 7.16 7.42 11.56
4/1/2021 8:00:00 AM 5.57 42.026 0.134 7.17 6.93 11.63
4/1/2021 8:15:00 AM 5.54 41.972 0.133 7.18 8.06 11.69
4/1/2021 8:30:00 AM 5.5 41.9 0.134 7.19 8.1 11.76
4/1/2021 8:45:00 AM 5.48 41.864 0.134 7.19 7.5 11.82
4/1/2021 9:00:00 AM 5.45 41.81 0.134 7.2 8.64 11.89
4/1/2021 9:15:00 AM 5.42 41.756 0.134 7.21 7.89 11.95
4/1/2021 9:30:00 AM 5.41 41.738 0.134 7.22 9.3 12.01
4/1/2021 9:45:00 AM 5.38 41.684 0.133 7.23 8.01 12.07
4/1/2021 10:00:00 AM 5.38 41.684 0.134 7.23 7.64 12.13
4/1/2021 10:15:00 AM 5.44 41.792 0.133 7.25 8.32 12.19
4/1/2021 10:30:00 AM 5.5 41.9 0.133 7.26 9.01 12.24
4/1/2021 10:45:00 AM 5.55 41.99 0.134 7.28 7.18 12.29
4/1/2021 11:00:00 AM 5.64 42.152 0.134 7.29 8.05 12.34
4/1/2021 11:15:00 AM 5.78 42.404 0.134 7.3 9.79 12.38
4/1/2021 11:30:00 AM 5.94 42.692 0.134 7.32 8.37 12.41
4/1/2021 11:45:00 AM 6.07 42.926 0.134 7.33 9.75 12.45
4/1/2021 12:00:00 PM 6.14 43.052 0.134 7.33 10.24 12.47
4/1/2021 12:15:00 PM 6.24 43.232 0.134 7.34 9.93 12.5
4/1/2021 12:30:00 PM 6.37 43.466 0.134 7.35 8.52 12.51
4/1/2021 12:45:00 PM 6.43 43.574 0.134 7.36 8.36 12.52
4/1/2021 1:00:00 PM 6.5 43.7 0.135 7.36 8.23 12.53
4/1/2021 1:15:00 PM 6.65 43.97 0.134 7.37 7.59 12.52
4/1/2021 1:30:00 PM 6.84 44.312 0.134 7.38 7.69 12.52
4/1/2021 1:45:00 PM 7.02 44.636 0.134 7.39 7.52 12.51
4/1/2021 2:00:00 PM 7.12 44.816 0.134 7.39 8.88 12.49
4/1/2021 2:15:00 PM 7.16 44.888 0.134 7.4 8.92 12.47
4/1/2021 2:30:00 PM 7.23 45.014 0.134 7.39 8.34 12.46
4/1/2021 2:45:00 PM 7.27 45.086 0.134 7.4 7.59 12.45
4/1/2021 3:00:00 PM 7.36 45.248 0.134 7.4 7.31 12.43
4/1/2021 3:15:00 PM 7.43 45.374 0.135 7.4 6.01 12.4
4/1/2021 3:30:00 PM 7.48 45.464 0.134 7.41 5.77 12.38
4/1/2021 3:45:00 PM 7.47 45.446 0.135 7.42 5.81 12.35
4/1/2021 4:00:00 PM 7.59 45.662 0.135 7.42 5.8 12.34
4/1/2021 4:15:00 PM 7.75 45.95 0.135 7.43 7.32 12.33
4/1/2021 4:30:00 PM 7.81 46.058 0.135 7.44 8.65 12.3
4/1/2021 4:45:00 PM 7.9 46.22 0.135 7.44 7.86 12.29
4/1/2021 5:00:00 PM 7.88 46.184 0.135 7.44 9.8 12.25
4/1/2021 5:15:00 PM 7.78 46.004 0.136 7.43 8.33 12.21
4/1/2021 5:30:00 PM 7.77 45.986 0.136 7.45 7.83 12.2
4/1/2021 5:45:00 PM 7.74 45.932 0.136 7.44 7.74 12.19
4/1/2021 6:00:00 PM 7.7 45.86 0.136 7.43 6.66 12.16
4/1/2021 6:15:00 PM 7.64 45.752 0.136 7.42 9.8 12.11
4/1/2021 6:30:00 PM 7.58 45.644 0.137 7.42 8.28 12.09
4/1/2021 6:45:00 PM 7.51 45.518 0.137 7.4 9.1 12.05
4/1/2021 7:00:00 PM 7.44 45.392 0.137 7.4 9.13 12.02
4/1/2021 7:15:00 PM 7.35 45.23 0.137 7.38 9.79 11.98
4/1/2021 7:30:00 PM 7.24 45.032 0.137 7.37 10.12 11.93
4/1/2021 7:45:00 PM 7.15 44.87 0.137 7.36 8.65 11.89
4/1/2021 8:00:00 PM 7.06 44.708 0.137 7.34 9.56 11.85
4/1/2021 8:15:00 PM 6.95 44.51 0.137 7.33 9.92 11.82
4/1/2021 8:30:00 PM 6.85 44.33 0.138 7.32 10.07 11.79
4/1/2021 8:45:00 PM 6.74 44.132 0.138 7.3 10.17 11.77
4/1/2021 9:00:00 PM 6.62 43.916 0.138 7.28 12.45 11.76
4/1/2021 9:15:00 PM 6.51 43.718 0.138 7.28 10.07 11.75
4/1/2021 9:30:00 PM 6.41 43.538 0.139 7.27 10.92 11.74
4/1/2021 9:45:00 PM 6.28 43.304 0.139 7.26 9.33 11.74
4/1/2021 10:00:00 PM 6.17 43.106 0.139 7.23 9.27 11.73
4/1/2021 10:15:00 PM 6.03 42.854 0.139 7.25 9.97 11.72
4/1/2021 10:30:00 PM 5.87 42.566 0.139 7.25 9.89 11.73
4/1/2021 10:45:00 PM 5.79 42.422 0.14 7.24 10.05 11.73
4/1/2021 11:00:00 PM 5.69 42.242 0.14 7.23 9.23 11.75
4/1/2021 11:15:00 PM 5.58 42.044 0.14 7.22 8 11.76
4/1/2021 11:30:00 PM 5.48 41.864 0.14 7.22 8.41 11.77
4/1/2021 11:45:00 PM 5.38 41.684 0.14 7.21 7.96 11.78
4/2/2021 12:00:00 AM 5.26 41.468 0.14 7.21 8.32 11.8
4/2/2021 12:15:00 AM 5.17 41.306 0.14 7.21 9.53 11.82
4/2/2021 12:30:00 AM 5.09 41.162 0.14 7.21 10.27 11.84
4/2/2021 12:45:00 AM 5 41 0.14 7.21 8.57 11.85
4/2/2021 1:00:00 AM 4.91 40.838 0.139 7.2 9.62 11.87
4/2/2021 1:15:00 AM 4.83 40.694 0.139 7.2 8.57 11.9
4/2/2021 1:30:00 AM 4.74 40.532 0.139 7.19 9.47 11.92
4/2/2021 1:45:00 AM 4.66 40.388 0.139 7.19 8.83 11.95
4/2/2021 2:00:00 AM 4.55 40.19 0.139 7.19 9.56 11.98
4/2/2021 2:15:00 AM 4.45 40.01 0.139 7.18 7.56 12
4/2/2021 2:30:00 AM 4.35 39.83 0.139 7.18 8.38 12.03
4/2/2021 2:45:00 AM 4.25 39.65 0.139 7.17 8.98 12.06
4/2/2021 3:00:00 AM 4.16 39.488 0.139 7.17 10.93 12.09
4/2/2021 3:15:00 AM 4.07 39.326 0.139 7.17 8.69 12.11
4/2/2021 3:30:00 AM 3.98 39.164 0.139 7.17 9.2 12.15
4/2/2021 3:45:00 AM 3.89 39.002 0.139 7.17 8.86 12.18
4/2/2021 4:00:00 AM 3.82 38.876 0.139 7.17 9 12.2
4/2/2021 4:15:00 AM 3.75 38.75 0.139 7.17 8.43 12.23
4/2/2021 4:30:00 AM 3.67 38.606 0.139 7.16 7.39 12.25
4/2/2021 4:45:00 AM 3.59 38.462 0.139 7.17 7.61 12.28
4/2/2021 5:00:00 AM 3.52 38.336 0.139 7.16 7.39 12.31
4/2/2021 5:15:00 AM 3.43 38.174 0.139 7.17 7.65 12.34
4/2/2021 5:30:00 AM 3.35 38.03 0.139 7.16 7.92 12.36
4/2/2021 5:45:00 AM 3.27 37.886 0.139 7.17 7.69 12.39
4/2/2021 6:00:00 AM 3.19 37.742 0.139 7.16 7.87 12.42
4/2/2021 6:15:00 AM 3.1 37.58 0.139 7.16 7.83 12.45
4/2/2021 6:30:00 AM 3.02 37.436 0.14 7.16 8.06 12.49
4/2/2021 6:45:00 AM 2.95 37.31 0.14 7.17 7.12 12.51
4/2/2021 7:00:00 AM 2.86 37.148 0.14 7.16 7.32 12.54
4/2/2021 7:15:00 AM 2.8 37.04 0.14 7.15 8.11 12.58
4/2/2021 7:30:00 AM 2.75 36.95 0.14 7.17 7.29 12.64
4/2/2021 7:45:00 AM 2.7 36.86 0.14 7.18 7.25 12.69
4/2/2021 8:00:00 AM 2.66 36.788 0.14 7.18 6.85 12.75
4/2/2021 8:15:00 AM 2.65 36.77 0.14 7.19 6.58 12.8
4/2/2021 8:30:00 AM 2.63 36.734 0.14 7.18 6.49 12.87
4/2/2021 8:45:00 AM 2.6 36.68 0.14 7.21 6.48 12.94
4/2/2021 9:00:00 AM 2.58 36.644 0.14 7.22 6.33 12.98
4/2/2021 9:15:00 AM 2.58 36.644 0.14 7.23 6.37 13.03
4/2/2021 9:30:00 AM 2.59 36.662 0.14 7.24 6.08 13.1
4/2/2021 9:45:00 AM 2.59 36.662 0.14 7.24 6.63 13.14
4/2/2021 10:00:00 AM 2.62 36.716 0.14 7.25 6.3 13.18
4/2/2021 10:15:00 AM 2.63 36.734 0.14 7.25 6.15 13.23
4/2/2021 10:30:00 AM 2.67 36.806 0.14 7.26 6.39 13.27
4/2/2021 10:45:00 AM 2.75 36.95 0.14 7.27 6.18 13.31
4/2/2021 11:00:00 AM 2.88 37.184 0.139 7.29 6.66 13.36
4/2/2021 11:15:00 AM 3 37.4 0.139 7.28 6.53 13.38
4/2/2021 11:30:00 AM 3.14 37.652 0.139 7.3 6.46 13.4
4/2/2021 11:45:00 AM 3.31 37.958 0.139 7.31 8.06 13.42
4/2/2021 12:00:00 PM 3.5 38.3 0.138 7.32 7.66 13.43
4/2/2021 12:15:00 PM 3.7 38.66 0.138 7.33 7.29 13.43
4/2/2021 12:30:00 PM 3.91 39.038 0.138 7.33 8.19 13.43
4/2/2021 12:45:00 PM 4.13 39.434 0.138 7.34 8.38 13.41
4/2/2021 1:00:00 PM 4.36 39.848 0.138 7.35 7.88 13.39
4/2/2021 1:15:00 PM 4.57 40.226 0.138 7.36 8.77 13.37
4/2/2021 1:30:00 PM 4.78 40.604 0.137 7.37 7.09 13.33
4/2/2021 1:45:00 PM 5 41 0.137 7.37 6.03 13.3
4/2/2021 2:00:00 PM 5.22 41.396 0.137 7.38 7.77 13.27
4/2/2021 2:15:00 PM 5.43 41.774 0.137 7.38 6.54 13.22
4/2/2021 2:30:00 PM 5.64 42.152 0.137 7.38 8.23 13.18
4/2/2021 2:45:00 PM 5.84 42.512 0.137 7.39 6.95 13.13
4/2/2021 3:00:00 PM 6.01 42.818 0.137 7.39 6.94 13.09
4/2/2021 3:15:00 PM 6.21 43.178 0.136 7.4 8.48 13.03
4/2/2021 3:30:00 PM 6.38 43.484 0.137 7.4 6.43 12.98
4/2/2021 3:45:00 PM 6.55 43.79 0.136 7.41 6.24 12.92
4/2/2021 4:00:00 PM 6.7 44.06 0.136 7.41 8.33 12.87
4/2/2021 4:15:00 PM 6.83 44.294 0.136 7.41 5.98 12.82
4/2/2021 4:30:00 PM 6.91 44.438 0.136 7.42 8.19 12.77
4/2/2021 4:45:00 PM 6.99 44.582 0.136 7.42 6.28 12.72
4/2/2021 5:00:00 PM 7.04 44.672 0.136 7.41 7.21 12.67
4/2/2021 5:15:00 PM 7.05 44.69 0.136 7.42 6.47 12.62
4/2/2021 5:30:00 PM 7.05 44.69 0.136 7.39 7.16 12.57
4/2/2021 5:45:00 PM 7.03 44.654 0.136 7.41 6.64 12.52
4/2/2021 6:00:00 PM 7.02 44.636 0.136 7.41 7.57 12.49
4/2/2021 6:15:00 PM 6.97 44.546 0.136 7.41 6.61 12.44
4/2/2021 6:30:00 PM 6.89 44.402 0.136 7.4 8.67 12.4
4/2/2021 6:45:00 PM 6.81 44.258 0.136 7.38 8.43 12.35
4/2/2021 7:00:00 PM 6.73 44.114 0.136 7.38 9.29 12.3
4/2/2021 7:15:00 PM 6.63 43.934 0.136 7.37 10.39 12.25
4/2/2021 7:30:00 PM 6.52 43.736 0.136 7.36 7.65 12.21
4/2/2021 7:45:00 PM 6.4 43.52 0.136 7.33 8.53 12.16
4/2/2021 8:00:00 PM 6.3 43.34 0.136 7.32 7.15 12.12
4/2/2021 8:15:00 PM 6.2 43.16 0.136 7.29 6.98 12.08
4/2/2021 8:30:00 PM 6.09 42.962 0.136 7.3 7.27 12.06
4/2/2021 8:45:00 PM 5.98 42.764 0.136 7.28 8.54 12.04
4/2/2021 9:00:00 PM 5.87 42.566 0.136 7.27 7.56 12.02
4/2/2021 9:15:00 PM 5.75 42.35 0.136 7.27 7.28 12.02
4/2/2021 9:30:00 PM 5.63 42.134 0.136 7.25 7.56 12.01
4/2/2021 9:45:00 PM 5.49 41.882 0.136 7.25 7.65 12.02
4/2/2021 10:00:00 PM 5.38 41.684 0.137 7.24 8.44 12.02
4/2/2021 10:15:00 PM 5.26 41.468 0.137 7.23 7.63 12.03
4/2/2021 10:30:00 PM 5.14 41.252 0.137 7.23 7.85 12.03
4/2/2021 10:45:00 PM 5.02 41.036 0.137 7.22 7.47 12.04
4/2/2021 11:00:00 PM 4.9 40.82 0.137 7.21 8.11 12.05
4/2/2021 11:15:00 PM 4.78 40.604 0.137 7.2 8.56 12.06
4/2/2021 11:30:00 PM 4.67 40.406 0.138 7.2 7.86 12.09
4/2/2021 11:45:00 PM 4.55 40.19 0.138 7.2 7.22 12.1
4/3/2021 12:00:00 AM 4.44 39.992 0.138 7.19 7.13 12.12
4/3/2021 12:15:00 AM 4.32 39.776 0.138 7.18 7.36 12.15
4/3/2021 12:30:00 AM 4.22 39.596 0.138 7.18 7.9 12.17
4/3/2021 12:45:00 AM 4.1 39.38 0.138 7.18 7.74 12.2
4/3/2021 1:00:00 AM 4 39.2 0.138 7.18 7.23 12.22
4/3/2021 1:15:00 AM 3.9 39.02 0.138 7.17 8.2 12.24
4/3/2021 1:30:00 AM 3.81 38.858 0.138 7.17 8.09 12.26
4/3/2021 1:45:00 AM 3.72 38.696 0.138 7.17 8.05 12.28
4/3/2021 2:00:00 AM 3.63 38.534 0.138 7.17 8.36 12.31
4/3/2021 2:15:00 AM 3.54 38.372 0.138 7.17 7.67 12.33
4/3/2021 2:30:00 AM 3.46 38.228 0.138 7.18 6.97 12.35
4/3/2021 2:45:00 AM 3.39 38.102 0.138 7.18 7.54 12.38
4/3/2021 3:00:00 AM 3.31 37.958 0.138 7.15 7.01 12.39
4/3/2021 3:15:00 AM 3.23 37.814 0.138 7.17 6.81 12.42
4/3/2021 3:30:00 AM 3.16 37.688 0.139 7.16 7.75 12.44
4/3/2021 3:45:00 AM 3.08 37.544 0.139 7.16 7.45 12.47
4/3/2021 4:00:00 AM 3.01 37.418 0.139 7.16 8.78 12.49
4/3/2021 4:15:00 AM 2.93 37.274 0.139 7.16 7.32 12.52
4/3/2021 4:30:00 AM 2.86 37.148 0.139 7.17 6.9 12.55
4/3/2021 4:45:00 AM 2.78 37.004 0.139 7.16 6.97 12.57
4/3/2021 5:00:00 AM 2.71 36.878 0.139 7.17 6.31 12.59
4/3/2021 5:15:00 AM 2.63 36.734 0.139 7.16 6.64 12.62
4/3/2021 5:30:00 AM 2.55 36.59 0.139 7.16 6.1 12.65
4/3/2021 5:45:00 AM 2.48 36.464 0.139 7.16 6.75 12.68
4/3/2021 6:00:00 AM 2.41 36.338 0.139 7.16 7.23 12.7
4/3/2021 6:15:00 AM 2.34 36.212 0.139 7.15 7.41 12.73
4/3/2021 6:30:00 AM 2.26 36.068 0.139 7.16 6.86 12.75
4/3/2021 6:45:00 AM 2.19 35.942 0.139 7.16 6.76 12.79
4/3/2021 7:00:00 AM 2.12 35.816 0.139 7.16 7.49 12.83
4/3/2021 7:15:00 AM 2.06 35.708 0.139 7.16 6.85 12.86
4/3/2021 7:30:00 AM 2 35.6 0.139 7.17 7.33 12.91
4/3/2021 7:45:00 AM 1.95 35.51 0.14 7.17 7.74 12.97
4/3/2021 8:00:00 AM 1.92 35.456 0.14 7.18 7.49 13.03
4/3/2021 8:15:00 AM 1.9 35.42 0.14 7.17 7.25 13.09
4/3/2021 8:30:00 AM 1.89 35.402 0.14 7.19 7.67 13.14
4/3/2021 8:45:00 AM 1.9 35.42 0.14 7.2 7.89 13.21
4/3/2021 9:00:00 AM 1.93 35.474 0.139 7.2 8.08 13.26
4/3/2021 9:15:00 AM 1.97 35.546 0.14 7.21 7.37 13.3
4/3/2021 9:30:00 AM 2.02 35.636 0.14 7.22 8 13.35
4/3/2021 9:45:00 AM 2.1 35.78 0.14 7.23 6.85 13.39
4/3/2021 10:00:00 AM 2.2 35.96 0.14 7.24 6.83 13.43
4/3/2021 10:15:00 AM 2.31 36.158 0.14 7.22 6.83 13.46
4/3/2021 10:30:00 AM 2.43 36.374 0.139 7.26 6.39 13.5
4/3/2021 10:45:00 AM 2.57 36.626 0.139 7.27 6.06 13.53
4/3/2021 11:00:00 AM 2.72 36.896 0.139 7.28 6.96 13.55
4/3/2021 11:15:00 AM 2.88 37.184 0.139 7.28 7.33 13.57
4/3/2021 11:30:00 AM 3.05 37.49 0.139 7.29 7.03 13.58
4/3/2021 11:45:00 AM 3.23 37.814 0.139 7.3 6.73 13.59
4/3/2021 12:00:00 PM 3.43 38.174 0.139 7.3 6.47 13.6
4/3/2021 12:15:00 PM 3.64 38.552 0.139 7.31 7.3 13.6
4/3/2021 12:30:00 PM 3.86 38.948 0.139 7.32 7.13 13.59
4/3/2021 12:45:00 PM 4.1 39.38 0.139 7.33 6.95 13.57
4/3/2021 1:00:00 PM 4.36 39.848 0.139 7.34 4.57 13.55
4/3/2021 1:15:00 PM 4.62 40.316 0.139 7.35 8.48 13.51
4/3/2021 1:30:00 PM 4.89 40.802 0.139 7.35 8.3 13.48
4/3/2021 1:45:00 PM 5.16 41.288 0.139 7.36 7.49 13.44
4/3/2021 2:00:00 PM 5.44 41.792 0.138 7.37 7.19 13.38
4/3/2021 2:15:00 PM 5.7 42.26 0.138 7.38 4.64 13.33
4/3/2021 2:30:00 PM 5.97 42.746 0.138 7.38 7.71 13.27
4/3/2021 2:45:00 PM 6.25 43.25 0.138 7.38 7.02 13.2
4/3/2021 3:00:00 PM 6.5 43.7 0.138 7.39 6.47 13.13
4/3/2021 3:15:00 PM 6.72 44.096 0.138 7.4 6.41 13.07
4/3/2021 3:30:00 PM 6.94 44.492 0.138 7.41 7.16 13
4/3/2021 3:45:00 PM 7.04 44.672 0.138 7.4 6.72 12.93
4/3/2021 4:00:00 PM 7.2 44.96 0.138 7.42 8.66 12.87
4/3/2021 4:15:00 PM 7.42 45.356 0.138 7.42 7.65 12.81
4/3/2021 4:30:00 PM 7.56 45.608 0.138 7.42 7.99 12.75
4/3/2021 4:45:00 PM 7.64 45.752 0.138 7.43 7.27 12.68
4/3/2021 5:00:00 PM 7.71 45.878 0.138 7.43 7.76 12.62
4/3/2021 5:15:00 PM 7.82 46.076 0.138 7.43 7.82 12.56
4/3/2021 5:30:00 PM 7.87 46.166 0.138 7.43 8.24 12.5
4/3/2021 5:45:00 PM 7.88 46.184 0.138 7.43 7.9 12.43
4/3/2021 6:00:00 PM 7.9 46.22 0.139 7.43 7.34 12.36
4/3/2021 6:15:00 PM 7.92 46.256 0.138 7.43 6.54 12.31
4/3/2021 6:30:00 PM 7.92 46.256 0.138 7.42 6.13 12.27
4/3/2021 6:45:00 PM 7.9 46.22 0.139 7.42 7.46 12.22
4/3/2021 7:00:00 PM 7.87 46.166 0.139 7.42 7.98 12.17
4/3/2021 7:15:00 PM 7.83 46.094 0.139 7.4 8.61 12.1
4/3/2021 7:30:00 PM 7.77 45.986 0.139 7.39 9.28 12.02
4/3/2021 7:45:00 PM 7.7 45.86 0.139 7.37 9.94 11.95
4/3/2021 8:00:00 PM 7.62 45.716 0.139 7.36 8.57 11.88
4/3/2021 8:15:00 PM 7.53 45.554 0.139 7.33 7.89 11.83
4/3/2021 8:30:00 PM 7.45 45.41 0.139 7.33 6.73 11.78
4/3/2021 8:45:00 PM 7.38 45.284 0.139 7.31 7.75 11.74
4/3/2021 9:00:00 PM 7.31 45.158 0.139 7.29 7.39 11.7
4/3/2021 9:15:00 PM 7.24 45.032 0.14 7.28 7.17 11.67
4/3/2021 9:30:00 PM 7.16 44.888 0.14 7.27 16.8 11.65
4/3/2021 9:45:00 PM 7.09 44.762 0.14 7.28 11.5 11.63
4/3/2021 10:00:00 PM 7.01 44.618 0.14 7.28 16.94 11.61
4/3/2021 10:15:00 PM 6.94 44.492 0.14 7.26 13.48 11.6
4/3/2021 10:30:00 PM 6.85 44.33 0.14 7.25 11.06 11.59
4/3/2021 10:45:00 PM 6.78 44.204 0.14 7.24 12.21 11.57
4/3/2021 11:00:00 PM 6.7 44.06 0.14 7.24 14.21 11.57
4/3/2021 11:15:00 PM 6.62 43.916 0.14 7.22 11.38 11.56
4/3/2021 11:30:00 PM 6.55 43.79 0.14 7.23 11.55 11.57
4/3/2021 11:45:00 PM 6.48 43.664 0.141 7.23 7.37 11.56
4/4/2021 12:00:00 AM 6.4 43.52 0.141 7.22 11.53 11.56
4/4/2021 12:15:00 AM 6.34 43.412 0.141 7.22 10.44 11.56
4/4/2021 12:30:00 AM 6.28 43.304 0.141 7.21 13.42 11.56
4/4/2021 12:45:00 AM 6.21 43.178 0.141 7.21 12.32 11.56
4/4/2021 1:00:00 AM 6.16 43.088 0.141 7.21 13.19 11.58
4/4/2021 1:15:00 AM 6.11 42.998 0.141 7.2 11.33 11.57
4/4/2021 1:30:00 AM 6.06 42.908 0.141 7.2 11.48 11.58
4/4/2021 1:45:00 AM 6.02 42.836 0.142 7.2 13.17 11.58
4/4/2021 2:00:00 AM 5.97 42.746 0.141 7.2 15.52 11.58
4/4/2021 2:15:00 AM 5.94 42.692 0.142 7.2 16.43 11.59
4/4/2021 2:30:00 AM 5.9 42.62 0.142 7.2 12.8 11.59
4/4/2021 2:45:00 AM 5.87 42.566 0.142 7.2 12.96 11.59
4/4/2021 3:00:00 AM 5.83 42.494 0.141 7.19 13.94 11.6
4/4/2021 3:15:00 AM 5.81 42.458 0.142 7.2 12.02 11.6
4/4/2021 3:30:00 AM 5.78 42.404 0.142 7.19 8.64 11.6
4/4/2021 3:45:00 AM 5.75 42.35 0.142 7.19 7.64 11.61
4/4/2021 4:00:00 AM 5.73 42.314 0.142 7.19 6.08 11.61
4/4/2021 4:15:00 AM 5.71 42.278 0.142 7.2 14.72 11.6
4/4/2021 4:30:00 AM 5.68 42.224 0.142 7.19 12.98 11.61
4/4/2021 4:45:00 AM 5.65 42.17 0.142 7.19 11.06 11.62
4/4/2021 5:00:00 AM 5.63 42.134 0.142 7.19 16.74 11.62
4/4/2021 5:15:00 AM 5.6 42.08 0.142 7.2 5.35 11.63
4/4/2021 5:30:00 AM 5.57 42.026 0.142 7.18 4.75 11.63
4/4/2021 5:45:00 AM 5.54 41.972 0.142 7.19 5 11.63
4/4/2021 6:00:00 AM 5.5 41.9 0.142 7.19 5.27 11.65
4/4/2021 6:15:00 AM 5.46 41.828 0.143 7.19 4.64 11.65
4/4/2021 6:30:00 AM 5.41 41.738 0.143 7.18 4.5 11.66
4/4/2021 6:45:00 AM 5.37 41.666 0.143 7.18 4.88 11.67
4/4/2021 7:00:00 AM 5.32 41.576 0.143 7.19 4.58 11.68
4/4/2021 7:15:00 AM 5.27 41.486 0.143 7.18 4.88 11.73
4/4/2021 7:30:00 AM 5.23 41.414 0.143 7.19 4.81 11.77
4/4/2021 7:45:00 AM 5.2 41.36 0.143 7.2 4.65 11.83
4/4/2021 8:00:00 AM 5.18 41.324 0.144 7.21 4.8 11.88
4/4/2021 8:15:00 AM 5.17 41.306 0.144 7.22 8.66 11.92
4/4/2021 8:30:00 AM 5.17 41.306 0.144 7.23 6.28 11.99
4/4/2021 8:45:00 AM 5.19 41.342 0.143 7.23 6.81 12.05
4/4/2021 9:00:00 AM 5.21 41.378 0.144 7.23 6.63 12.09
4/4/2021 9:15:00 AM 5.23 41.414 0.144 7.24 12.87 12.16
4/4/2021 9:30:00 AM 5.29 41.522 0.144 7.25 8.72 12.21
4/4/2021 9:45:00 AM 5.36 41.648 0.144 7.27 11.21 12.26
4/4/2021 10:00:00 AM 5.45 41.81 0.144 7.28 12.07 12.31
4/4/2021 10:15:00 AM 5.56 42.008 0.144 7.29 9.99 12.35
4/4/2021 10:30:00 AM 5.67 42.206 0.144 7.3 9.26 12.39
4/4/2021 10:45:00 AM 5.81 42.458 0.144 7.32 10.38 12.43
4/4/2021 11:00:00 AM 5.96 42.728 0.144 7.33 11.4 12.47
4/4/2021 11:15:00 AM 6.12 43.016 0.144 7.34 15.09 12.51
4/4/2021 11:30:00 AM 6.29 43.322 0.144 7.35 11.48 12.54
4/4/2021 11:45:00 AM 6.44 43.592 0.143 7.36 6.07 12.57
4/4/2021 12:00:00 PM 6.58 43.844 0.143 7.36 6.01 12.59
4/4/2021 12:15:00 PM 6.7 44.06 0.143 7.37 16.95 12.61
4/4/2021 12:30:00 PM 6.89 44.402 0.144 7.38 9.75 12.63
4/4/2021 12:45:00 PM 7.1 44.78 0.143 7.4 13.61 12.64
4/4/2021 1:00:00 PM 7.35 45.23 0.144 7.41 11.6 12.63
4/4/2021 1:15:00 PM 7.61 45.698 0.143 7.42 12.1 12.62
4/4/2021 1:30:00 PM 7.85 46.13 0.143 7.44 9.97 12.61
4/4/2021 1:45:00 PM 8.11 46.598 0.143 7.45 9.3 12.58
4/4/2021 2:00:00 PM 8.34 47.012 0.143 7.44 7.94 12.55
4/4/2021 2:15:00 PM 8.59 47.462 0.143 7.46 8.69 12.52
4/4/2021 2:30:00 PM 8.83 47.894 0.144 7.46 14.5 12.49
4/4/2021 2:45:00 PM 9.07 48.326 0.144 7.47 6.87 12.44
4/4/2021 3:00:00 PM 9.27 48.686 0.144 7.48 8.49 12.39
4/4/2021 3:15:00 PM 9.49 49.082 0.144 7.5 11.83 12.33
4/4/2021 3:30:00 PM 9.67 49.406 0.144 7.5 11.02 12.27
4/4/2021 3:45:00 PM 9.89 49.802 0.144 7.51 5.27 12.23
4/4/2021 4:00:00 PM 10.08 50.144 0.144 7.51 6.16 12.16
4/4/2021 4:15:00 PM 10.27 50.486 0.144 7.52 5.18 12.11
4/4/2021 4:30:00 PM 10.41 50.738 0.144 7.53 11.3 12.06
4/4/2021 4:45:00 PM 10.54 50.972 0.144 7.53 11.9 11.99
4/4/2021 5:00:00 PM 10.57 51.026 0.144 7.53 12.49 11.9
4/4/2021 5:15:00 PM 10.6 51.08 0.144 7.52 11.53 11.83
4/4/2021 5:30:00 PM 10.62 51.116 0.143 7.51 15.11 11.77
4/4/2021 5:45:00 PM 10.63 51.134 0.143 7.51 4.81 11.71
4/4/2021 6:00:00 PM 10.61 51.098 0.143 7.5 12.91 11.65
4/4/2021 6:15:00 PM 10.6 51.08 0.143 7.49 17.76 11.59
4/4/2021 6:30:00 PM 10.58 51.044 0.143 7.48 10.26 11.52
4/4/2021 6:45:00 PM 10.53 50.954 0.143 7.46 10.35 11.46
4/4/2021 7:00:00 PM 10.48 50.864 0.142 7.45 13.5 11.4
4/4/2021 7:15:00 PM 10.41 50.738 0.143 7.43 10.98 11.33
4/4/2021 7:30:00 PM 10.33 50.594 0.142 7.42 11.84 11.26
4/4/2021 7:45:00 PM 10.25 50.45 0.142 7.4 10.49 11.19
4/4/2021 8:00:00 PM 10.16 50.288 0.142 7.39 11.47 11.11
4/4/2021 8:15:00 PM 10.07 50.126 0.142 7.37 11.83 11.05
4/4/2021 8:30:00 PM 9.98 49.964 0.142 7.34 13.66 11.01
4/4/2021 8:45:00 PM 9.89 49.802 0.142 7.32 11.96 10.96
4/4/2021 9:00:00 PM 9.79 49.622 0.142 7.3 10.78 10.92
4/4/2021 9:15:00 PM 9.68 49.424 0.142 7.29 9.16 10.89
4/4/2021 9:30:00 PM 9.58 49.244 0.142 7.27 11.63 10.87
4/4/2021 9:45:00 PM 9.47 49.046 0.142 7.26 10.9 10.84
4/4/2021 10:00:00 PM 9.37 48.866 0.142 7.26 10.31 10.82
4/4/2021 10:15:00 PM 9.26 48.668 0.142 7.25 11.7 10.81
4/4/2021 10:30:00 PM 9.15 48.47 0.142 7.24 8.83 10.79
4/4/2021 10:45:00 PM 9.03 48.254 0.143 7.24 8.97 10.8
4/4/2021 11:00:00 PM 8.92 48.056 0.142 7.23 11.2 10.79
4/4/2021 11:15:00 PM 8.8 47.84 0.143 7.22 10.29 10.78
4/4/2021 11:30:00 PM 8.68 47.624 0.142 7.22 14.46 10.79
4/4/2021 11:45:00 PM 8.56 47.408 0.143 7.21 10.63 10.8
4/5/2021 12:00:00 AM 8.44 47.192 0.143 7.19 13.34 10.8
4/5/2021 12:15:00 AM 8.31 46.958 0.142 7.19 15.71 10.81
4/5/2021 12:30:00 AM 8.2 46.76 0.143 7.15 5.98 10.83
4/5/2021 12:45:00 AM 8.06 46.508 0.143 7.18 31.89 10.85
4/5/2021 1:00:00 AM 7.93 46.274 0.143 7.18 13.9 10.87
4/5/2021 1:15:00 AM 7.83 46.094 0.143 7.18 5.65 10.88
4/5/2021 1:30:00 AM 7.69 45.842 0.143 7.18 15.96 10.91
4/5/2021 1:45:00 AM 7.57 45.626 0.143 7.16 7.95 10.93
4/5/2021 2:00:00 AM 7.45 45.41 0.143 7.16 9.15 10.95
4/5/2021 2:15:00 AM 7.33 45.194 0.143 7.17 367.58 10.99
4/5/2021 2:30:00 AM 7.21 44.978 0.143 7.16 5.02 11.01
4/5/2021 2:45:00 AM 7.11 44.798 0.144 7.17 10.44 11.03
4/5/2021 3:00:00 AM 6.99 44.582 0.144 7.16 13.2 11.07
4/5/2021 3:15:00 AM 6.9 44.42 0.144 7.16 11.57 11.09
4/5/2021 3:30:00 AM 6.8 44.24 0.144 7.17 11.7 11.11
4/5/2021 3:45:00 AM 6.7 44.06 0.144 7.16 7.73 11.14
4/5/2021 4:00:00 AM 6.61 43.898 0.144 7.17 15.5 11.16
4/5/2021 4:15:00 AM 6.51 43.718 0.144 7.17 15.03 11.19
4/5/2021 4:30:00 AM 6.43 43.574 0.144 7.16 15.59 11.2
4/5/2021 4:45:00 AM 6.35 43.43 0.144 7.16 10.95 11.23
4/5/2021 5:00:00 AM 6.25 43.25 0.144 7.16 15.03 11.26
4/5/2021 5:15:00 AM 6.17 43.106 0.144 7.17 5.65 11.28
4/5/2021 5:30:00 AM 6.08 42.944 0.144 7.17 13.23 11.31
4/5/2021 5:45:00 AM 6 42.8 0.144 7.17 7.49 11.33
4/5/2021 6:00:00 AM 5.92 42.656 0.144 7.16 8.25 11.35
4/5/2021 6:15:00 AM 5.83 42.494 0.144 7.17 9.84 11.38
4/5/2021 6:30:00 AM 5.75 42.35 0.145 7.16 11.84 11.4
4/5/2021 6:45:00 AM 5.67 42.206 0.145 7.17 8.58 11.43
4/5/2021 7:00:00 AM 5.59 42.062 0.145 7.17 8.79 11.48
4/5/2021 7:15:00 AM 5.51 41.918 0.145 7.17 7.67 11.52
4/5/2021 7:30:00 AM 5.45 41.81 0.145 7.18 9.25 11.58
4/5/2021 7:45:00 AM 5.39 41.702 0.145 7.18 10.99 11.64
4/5/2021 8:00:00 AM 5.34 41.612 0.145 7.2 9.38 11.71
4/5/2021 8:15:00 AM 5.31 41.558 0.146 7.2 9.11 11.79
4/5/2021 8:30:00 AM 5.29 41.522 0.146 7.22 10.66 11.86
4/5/2021 8:45:00 AM 5.3 41.54 0.146 7.23 9.81 11.93
4/5/2021 9:00:00 AM 5.32 41.576 0.146 7.24 10.41 12
4/5/2021 9:15:00 AM 5.36 41.648 0.146 7.25 9.62 12.06
4/5/2021 9:30:00 AM 5.43 41.774 0.146 7.27 8.44 12.13
4/5/2021 9:45:00 AM 5.51 41.918 0.146 7.28 8.68 12.18
4/5/2021 10:00:00 AM 5.61 42.098 0.146 7.29 10.39 12.23
4/5/2021 10:15:00 AM 5.72 42.296 0.146 7.31 8.11 12.28
4/5/2021 10:30:00 AM 5.85 42.53 0.146 7.32 6.9 12.33
4/5/2021 10:45:00 AM 5.99 42.782 0.146 7.33 10.16 12.37
4/5/2021 11:00:00 AM 6.15 43.07 0.146 7.35 8.22 12.42
4/5/2021 11:15:00 AM 6.3 43.34 0.146 7.36 12.72 12.45
4/5/2021 11:30:00 AM 6.47 43.646 0.146 7.37 8.44 12.49
4/5/2021 11:45:00 AM 6.66 43.988 0.146 7.38 6.97 12.5
4/5/2021 12:00:00 PM 6.84 44.312 0.146 7.39 11.92 12.54
4/5/2021 12:15:00 PM 7.04 44.672 0.146 7.39 11.22 12.56
4/5/2021 12:30:00 PM 7.25 45.05 0.146 7.4 8.32 12.57
4/5/2021 12:45:00 PM 7.47 45.446 0.146 7.42 11.17 12.58
4/5/2021 1:00:00 PM 7.72 45.896 0.146 7.43 6.1 12.58
4/5/2021 1:15:00 PM 7.96 46.328 0.146 7.44 7.72 12.57
4/5/2021 1:30:00 PM 8.21 46.778 0.145 7.46 10 12.55
4/5/2021 1:45:00 PM 8.46 47.228 0.146 7.47 8.26 12.54
4/5/2021 2:00:00 PM 8.73 47.714 0.146 7.47 5.73 12.52
4/5/2021 2:15:00 PM 8.97 48.146 0.146 7.48 8.12 12.48
4/5/2021 2:30:00 PM 9.22 48.596 0.146 7.49 6.35 12.44
4/5/2021 2:45:00 PM 9.45 49.01 0.146 7.51 7.87 12.4
4/5/2021 3:00:00 PM 9.65 49.37 0.146 7.51 9.36 12.36
4/5/2021 3:15:00 PM 9.86 49.748 0.146 7.52 10.82 12.31
4/5/2021 3:30:00 PM 10.09 50.162 0.146 7.53 16.48 12.26
4/5/2021 3:45:00 PM 10.27 50.486 0.146 7.53 8.14 12.2
4/5/2021 4:00:00 PM 10.46 50.828 0.146 7.55 8.01 12.14
4/5/2021 4:15:00 PM 10.65 51.17 0.146 7.56 8.15 12.07
4/5/2021 4:30:00 PM 10.79 51.422 0.146 7.56 11.84 12.02
4/5/2021 4:45:00 PM 10.86 51.548 0.146 7.56 9.05 11.96
4/5/2021 5:00:00 PM 10.94 51.692 0.146 7.56 8.75 11.91
4/5/2021 5:15:00 PM 11.01 51.818 0.146 7.56 5.39 11.85
4/5/2021 5:30:00 PM 11.03 51.854 0.146 7.55 10.83 11.79
4/5/2021 5:45:00 PM 11.03 51.854 0.146 7.55 6.34 11.73
4/5/2021 6:00:00 PM 11.02 51.836 0.146 7.53 13.5 11.66
4/5/2021 6:15:00 PM 10.99 51.782 0.146 7.53 8.5 11.59
4/5/2021 6:30:00 PM 10.96 51.728 0.146 7.51 9.36 11.53
4/5/2021 6:45:00 PM 10.91 51.638 0.146 7.51 8.78 11.46
4/5/2021 7:00:00 PM 10.85 51.53 0.146 7.5 10.53 11.39
4/5/2021 7:15:00 PM 10.78 51.404 0.146 7.48 7.63 11.32
4/5/2021 7:30:00 PM 10.7 51.26 0.146 7.46 10.6 11.23
4/5/2021 7:45:00 PM 10.63 51.134 0.146 7.44 10.93 11.14
4/5/2021 8:00:00 PM 10.53 50.954 0.145 7.41 13.83 11.06
4/5/2021 8:15:00 PM 10.44 50.792 0.145 7.39 11.56 11
4/5/2021 8:30:00 PM 10.34 50.612 0.145 7.37 13.46 10.94
4/5/2021 8:45:00 PM 10.24 50.432 0.145 7.35 11.36 10.89
4/5/2021 9:00:00 PM 10.13 50.234 0.145 7.34 14.1 10.85
4/5/2021 9:15:00 PM 10.01 50.018 0.145 7.33 14.75 10.82
4/5/2021 9:30:00 PM 9.91 49.838 0.146 7.32 11.26 10.79
4/5/2021 9:45:00 PM 9.8 49.64 0.145 7.3 9.84 10.77
4/5/2021 10:00:00 PM 9.68 49.424 0.145 7.3 13.44 10.75
4/5/2021 10:15:00 PM 9.56 49.208 0.145 7.29 11.1 10.74
4/5/2021 10:30:00 PM 9.45 49.01 0.145 7.27 13.28 10.72
4/5/2021 10:45:00 PM 9.32 48.776 0.145 7.27 10 10.72
4/5/2021 11:00:00 PM 9.19 48.542 0.145 7.24 8.26 10.72
4/5/2021 11:15:00 PM 9.06 48.308 0.145 7.26 15.07 10.71
4/5/2021 11:30:00 PM 8.93 48.074 0.145 7.25 13.46 10.72
4/5/2021 11:45:00 PM 8.8 47.84 0.145 7.24 14.9 10.72
4/6/2021 12:00:00 AM 8.67 47.606 0.145 7.24 14.73 10.72
4/6/2021 12:15:00 AM 8.53 47.354 0.145 7.23 17.68 10.73
4/6/2021 12:30:00 AM 8.39 47.102 0.145 7.22 13.94 10.75
4/6/2021 12:45:00 AM 8.26 46.868 0.145 7.22 12.79 10.76
4/6/2021 1:00:00 AM 8.14 46.652 0.145 7.21 13.65 10.76
4/6/2021 1:15:00 AM 8 46.4 0.145 7.2 11.62 10.79
4/6/2021 1:30:00 AM 7.88 46.184 0.146 7.2 13.16 10.81
4/6/2021 1:45:00 AM 7.76 45.968 0.146 7.2 12.86 10.82
4/6/2021 2:00:00 AM 7.63 45.734 0.146 7.18 10.8 10.85
4/6/2021 2:15:00 AM 7.5 45.5 0.146 7.2 14.21 10.88
4/6/2021 2:30:00 AM 7.39 45.302 0.146 7.19 13.21 10.89
4/6/2021 2:45:00 AM 7.27 45.086 0.146 7.19 12.15 10.93
4/6/2021 3:00:00 AM 7.15 44.87 0.146 7.2 16.12 10.96
4/6/2021 3:15:00 AM 7.04 44.672 0.147 7.19 9.9 10.98
4/6/2021 3:30:00 AM 6.94 44.492 0.147 7.19 11.26 11.01
4/6/2021 3:45:00 AM 6.83 44.294 0.147 7.19 12.95 11.03
4/6/2021 4:00:00 AM 6.72 44.096 0.147 7.18 13.83 11.06
4/6/2021 4:15:00 AM 6.63 43.934 0.147 7.19 10.07 11.08
4/6/2021 4:30:00 AM 6.52 43.736 0.147 7.19 11.45 11.11
4/6/2021 4:45:00 AM 6.43 43.574 0.147 7.19 9.83 11.13
4/6/2021 5:00:00 AM 6.34 43.412 0.147 7.19 11.17 11.16
4/6/2021 5:15:00 AM 6.24 43.232 0.147 7.19 11.27 11.19
4/6/2021 5:30:00 AM 6.16 43.088 0.148 7.19 10.71 11.21
4/6/2021 5:45:00 AM 6.06 42.908 0.148 7.19 11.33 11.24
4/6/2021 6:00:00 AM 5.97 42.746 0.148 7.19 9.52 11.26
4/6/2021 6:15:00 AM 5.88 42.584 0.148 7.16 10.93 11.3
4/6/2021 6:30:00 AM 5.79 42.422 0.148 7.18 9.3 11.32
4/6/2021 6:45:00 AM 5.71 42.278 0.148 7.19 7.85 11.35
4/6/2021 7:00:00 AM 5.62 42.116 0.148 7.19 9.84 11.39
4/6/2021 7:15:00 AM 5.53 41.954 0.148 7.19 12.43 11.45
4/6/2021 7:30:00 AM 5.46 41.828 0.148 7.2 10.95 11.51
4/6/2021 7:45:00 AM 5.4 41.72 0.148 7.21 9.66 11.57
4/6/2021 8:00:00 AM 5.35 41.63 0.148 7.21 10.29 11.64
4/6/2021 8:15:00 AM 5.32 41.576 0.148 7.23 12.04 11.73
4/6/2021 8:30:00 AM 5.3 41.54 0.148 7.24 9.69 11.8
4/6/2021 8:45:00 AM 5.3 41.54 0.148 7.25 11.08 11.88
4/6/2021 9:00:00 AM 5.32 41.576 0.148 7.26 9.27 11.95
4/6/2021 9:15:00 AM 5.36 41.648 0.148 7.28 12.03 12.02
4/6/2021 9:30:00 AM 5.42 41.756 0.148 7.29 10.21 12.08
4/6/2021 9:45:00 AM 5.51 41.918 0.148 7.29 10.06 12.14
4/6/2021 10:00:00 AM 5.63 42.134 0.148 7.33 9.35 12.19
4/6/2021 10:15:00 AM 5.78 42.404 0.148 7.34 10.13 12.25
4/6/2021 10:30:00 AM 5.93 42.674 0.148 7.35 11.06 12.29
4/6/2021 10:45:00 AM 6.09 42.962 0.148 7.35 15.96 12.34
4/6/2021 11:00:00 AM 6.26 43.268 0.148 7.37 12.43 12.37
4/6/2021 11:15:00 AM 6.44 43.592 0.148 7.37 12.09 12.41
4/6/2021 11:30:00 AM 6.64 43.952 0.148 7.39 11.2 12.44
4/6/2021 11:45:00 AM 6.84 44.312 0.148 7.41 10.49 12.47
4/6/2021 12:00:00 PM 7.05 44.69 0.148 7.42 11.21 12.49
4/6/2021 12:15:00 PM 7.27 45.086 0.148 7.43 11.97 12.51
4/6/2021 12:30:00 PM 7.5 45.5 0.148 7.45 5.43 12.51
4/6/2021 12:45:00 PM 7.73 45.914 0.148 7.46 10.23 12.53
4/6/2021 1:00:00 PM 7.96 46.328 0.148 7.46 11.21 12.53
4/6/2021 1:15:00 PM 8.2 46.76 0.148 7.47 8.73 12.54
4/6/2021 1:30:00 PM 8.42 47.156 0.148 7.48 8.85 12.53
4/6/2021 1:45:00 PM 8.65 47.57 0.148 7.49 4.26 12.52
4/6/2021 2:00:00 PM 8.92 48.056 0.148 7.5 5.2 12.5
4/6/2021 2:15:00 PM 9.16 48.488 0.148 7.51 4.7 12.48
4/6/2021 2:30:00 PM 9.37 48.866 0.148 7.53 5.43 12.45
4/6/2021 2:45:00 PM 9.6 49.28 0.148 7.53 8.11 12.41
4/6/2021 3:00:00 PM 9.81 49.658 0.148 7.55 4.44 12.38
4/6/2021 3:15:00 PM 10.06 50.108 0.148 7.56 8.1 12.33
4/6/2021 3:30:00 PM 10.27 50.486 0.148 7.56 8.68 12.27
4/6/2021 3:45:00 PM 10.47 50.846 0.148 7.58 9.04 12.22
4/6/2021 4:00:00 PM 10.7 51.26 0.148 7.59 9.13 12.15
4/6/2021 4:15:00 PM 10.85 51.53 0.148 7.59 6.33 12.1
4/6/2021 4:30:00 PM 11 51.8 0.148 7.6 8.26 12.04
4/6/2021 4:45:00 PM 11.11 51.998 0.148 7.6 7.23 11.98
4/6/2021 5:00:00 PM 11.21 52.178 0.148 7.58 7.08 11.92
4/6/2021 5:15:00 PM 11.31 52.358 0.148 7.61 7.49 11.86
4/6/2021 5:30:00 PM 11.39 52.502 0.148 7.61 5 11.82
4/6/2021 5:45:00 PM 11.45 52.61 0.148 7.61 5.02 11.74
4/6/2021 6:00:00 PM 11.47 52.646 0.148 7.58 6.51 11.65
4/6/2021 6:15:00 PM 11.47 52.646 0.148 7.58 14.43 11.56
4/6/2021 6:30:00 PM 11.47 52.646 0.148 7.57 9.06 11.47
4/6/2021 6:45:00 PM 11.45 52.61 0.148 7.56 7.48 11.38
4/6/2021 7:00:00 PM 11.42 52.556 0.148 7.53 8.94 11.27
4/6/2021 7:15:00 PM 11.39 52.502 0.148 7.52 9.04 11.2
4/6/2021 7:30:00 PM 11.33 52.394 0.148 7.5 8.84 11.1
4/6/2021 7:45:00 PM 11.27 52.286 0.148 7.48 9.23 11.02
4/6/2021 8:00:00 PM 11.2 52.16 0.148 7.45 7.73 10.93
4/6/2021 8:15:00 PM 11.14 52.052 0.148 7.44 5.83 10.84
4/6/2021 8:30:00 PM 11.07 51.926 0.148 7.42 9.71 10.78
4/6/2021 8:45:00 PM 10.99 51.782 0.147 7.4 8.08 10.72
4/6/2021 9:00:00 PM 10.91 51.638 0.148 7.38 4.29 10.67
4/6/2021 9:15:00 PM 10.83 51.494 0.148 7.36 9.81 10.63
4/6/2021 9:30:00 PM 10.74 51.332 0.148 7.34 4.55 10.59
4/6/2021 9:45:00 PM 10.66 51.188 0.148 7.33 5.02 10.56
4/6/2021 10:00:00 PM 10.57 51.026 0.148 7.3 7.85 10.53
4/6/2021 10:15:00 PM 10.47 50.846 0.148 7.31 8.95 10.5
4/6/2021 10:30:00 PM 10.38 50.684 0.148 7.3 12.55 10.49
4/6/2021 10:45:00 PM 10.29 50.522 0.149 7.29 9.02 10.48
4/6/2021 11:00:00 PM 10.19 50.342 0.149 7.28 9.07 10.46
4/6/2021 11:15:00 PM 10.09 50.162 0.149 7.28 13.6 10.46
4/6/2021 11:30:00 PM 10 50 0.149 7.27 8.04 10.45
4/6/2021 11:45:00 PM 9.91 49.838 0.149 7.27 5.93 10.44
4/7/2021 12:00:00 AM 9.82 49.676 0.149 7.26 7.05 10.44
4/7/2021 12:15:00 AM 9.73 49.514 0.15 7.26 6.26 10.44
4/7/2021 12:30:00 AM 9.64 49.352 0.15 7.25 7.28 10.43
4/7/2021 12:45:00 AM 9.54 49.172 0.15 7.25 10.67 10.44
4/7/2021 1:00:00 AM 9.45 49.01 0.15 7.25 8.74 10.46
4/7/2021 1:15:00 AM 9.36 48.848 0.15 7.24 9.54 10.47
4/7/2021 1:30:00 AM 9.28 48.704 0.15 7.24 13.73 10.47
4/7/2021 1:45:00 AM 9.2 48.56 0.15 7.24 10.62 10.48
4/7/2021 2:00:00 AM 9.12 48.416 0.15 7.23 9.55 10.48
4/7/2021 2:15:00 AM 9.03 48.254 0.15 7.2 8.6 10.5
4/7/2021 2:30:00 AM 8.95 48.11 0.15 7.23 4.5 10.52
4/7/2021 2:45:00 AM 8.87 47.966 0.151 7.22 10.68 10.53
4/7/2021 3:00:00 AM 8.79 47.822 0.15 7.22 10.33 10.54
4/7/2021 3:15:00 AM 8.73 47.714 0.151 7.22 9.77 10.56
4/7/2021 3:30:00 AM 8.66 47.588 0.151 7.22 12.54 10.57
4/7/2021 3:45:00 AM 8.59 47.462 0.151 7.22 12.37 10.58
4/7/2021 4:00:00 AM 8.54 47.372 0.151 7.22 8.01 10.59
4/7/2021 4:15:00 AM 8.48 47.264 0.151 7.21 12.16 10.61
4/7/2021 4:30:00 AM 8.43 47.174 0.151 7.21 12.64 10.61
4/7/2021 4:45:00 AM 8.37 47.066 0.151 7.22 9.2 10.63
4/7/2021 5:00:00 AM 8.33 46.994 0.152 7.22 8.68 10.63
4/7/2021 5:15:00 AM 8.29 46.922 0.151 7.22 13.15 10.66
4/7/2021 5:30:00 AM 8.25 46.85 0.151 7.22 14.96 10.67
4/7/2021 5:45:00 AM 8.22 46.796 0.151 7.23 13.66 10.68
4/7/2021 6:00:00 AM 8.18 46.724 0.151 7.23 8.57 10.68
4/7/2021 6:15:00 AM 8.15 46.67 0.151 7.23 16.34 10.7
4/7/2021 6:30:00 AM 8.12 46.616 0.151 7.23 9.32 10.7
4/7/2021 6:45:00 AM 8.09 46.562 0.151 7.23 5.02 10.71
4/7/2021 7:00:00 AM 8.06 46.508 0.152 7.23 8.08 10.72
4/7/2021 7:15:00 AM 8.04 46.472 0.152 7.23 4.37 10.75
4/7/2021 7:30:00 AM 8.02 46.436 0.152 7.24 12.61 10.79
4/7/2021 7:45:00 AM 8.01 46.418 0.152 7.23 11.43 10.84
4/7/2021 8:00:00 AM 7.99 46.382 0.152 7.25 11.26 10.91
4/7/2021 8:15:00 AM 7.98 46.364 0.152 7.26 10.05 11
4/7/2021 8:30:00 AM 7.98 46.364 0.152 7.28 9.83 11.08
4/7/2021 8:45:00 AM 8 46.4 0.152 7.29 6.91 11.17
4/7/2021 9:00:00 AM 8.06 46.508 0.152 7.3 8.24 11.26
4/7/2021 9:15:00 AM 8.12 46.616 0.152 7.32 16.11 11.34
4/7/2021 9:30:00 AM 8.18 46.724 0.152 7.34 10.64 11.41
4/7/2021 9:45:00 AM 8.23 46.814 0.152 7.35 10.54 11.48
4/7/2021 10:00:00 AM 8.3 46.94 0.152 7.37 12.89 11.55
4/7/2021 10:15:00 AM 8.39 47.102 0.152 7.38 10.1 11.6
4/7/2021 10:30:00 AM 8.49 47.282 0.152 7.4 4.27 11.66
4/7/2021 10:45:00 AM 8.63 47.534 0.152 7.41 12.32 11.72
4/7/2021 11:00:00 AM 8.81 47.858 0.152 7.42 8.64 11.76
4/7/2021 11:15:00 AM 8.95 48.11 0.152 7.44 12.06 11.8
4/7/2021 11:30:00 AM 9.06 48.308 0.153 7.46 4.9 11.83
4/7/2021 11:45:00 AM 9.19 48.542 0.153 7.47 4.33 11.88
4/7/2021 12:00:00 PM 9.38 48.884 0.152 7.48 12.7 11.92
4/7/2021 12:15:00 PM 9.59 49.262 0.152 7.5 17.94 11.95
4/7/2021 12:30:00 PM 9.79 49.622 0.152 7.52 9.98 11.97
4/7/2021 12:45:00 PM 9.9 49.82 0.152 7.53 13.12 11.99
4/7/2021 1:00:00 PM 9.98 49.964 0.152 7.55 4.26 12.01
4/7/2021 1:15:00 PM 10.15 50.27 0.152 7.55 13.92 12.01
4/7/2021 1:30:00 PM 10.41 50.738 0.152 7.57 11.94 12.04
4/7/2021 1:45:00 PM 10.66 51.188 0.152 7.58 14.08 12.04
4/7/2021 2:00:00 PM 10.9 51.62 0.152 7.6 8.5 12.04
4/7/2021 2:15:00 PM 11.13 52.034 0.152 7.62 11.28 12.03
4/7/2021 2:30:00 PM 11.36 52.448 0.152 7.63 3.87 12.01
4/7/2021 2:45:00 PM 11.58 52.844 0.152 7.64 11.57 11.99
4/7/2021 3:00:00 PM 11.78 53.204 0.152 7.63 4.08 11.97
4/7/2021 3:15:00 PM 12 53.6 0.152 7.67 3.93 11.93
4/7/2021 3:30:00 PM 12.17 53.906 0.152 7.67 11.56 11.9
4/7/2021 3:45:00 PM 12.38 54.284 0.152 7.68 10.5 11.87
4/7/2021 4:00:00 PM 12.55 54.59 0.152 7.69 14.65 11.82
4/7/2021 4:15:00 PM 12.7 54.86 0.152 7.7 11.49 11.78
4/7/2021 4:30:00 PM 12.82 55.076 0.152 7.7 12.66 11.73
4/7/2021 4:45:00 PM 12.93 55.274 0.152 7.71 10.29 11.68
4/7/2021 5:00:00 PM 13.01 55.418 0.152 7.7 4.42 11.61
4/7/2021 5:15:00 PM 13.08 55.544 0.152 7.7 10.09 11.56
4/7/2021 5:30:00 PM 13.11 55.598 0.152 7.69 9.06 11.49
4/7/2021 5:45:00 PM 13.15 55.67 0.152 7.69 13.25 11.41
4/7/2021 6:00:00 PM 13.16 55.688 0.153 7.68 8.53 11.33
4/7/2021 6:15:00 PM 13.18 55.724 0.152 7.66 4.73 11.26
4/7/2021 6:30:00 PM 13.19 55.742 0.153 7.64 11.57 11.17
4/7/2021 6:45:00 PM 13.19 55.742 0.152 7.63 10.3 11.07
4/7/2021 7:00:00 PM 13.18 55.724 0.152 7.62 9.39 10.98
4/7/2021 7:15:00 PM 13.16 55.688 0.152 7.59 10.82 10.87
4/7/2021 7:30:00 PM 13.14 55.652 0.152 7.57 16.19 10.76
4/7/2021 7:45:00 PM 13.1 55.58 0.153 7.54 14.24 10.65
4/7/2021 8:00:00 PM 13.05 55.49 0.153 7.52 12.65 10.54
4/7/2021 8:15:00 PM 12.99 55.382 0.153 7.5 4.51 10.43
4/7/2021 8:30:00 PM 12.92 55.256 0.153 7.47 13.42 10.35
4/7/2021 8:45:00 PM 12.85 55.13 0.153 7.46 10.46 10.28
4/7/2021 9:00:00 PM 12.78 55.004 0.153 7.44 7.32 10.21
4/7/2021 9:15:00 PM 12.7 54.86 0.153 7.42 8.93 10.14
4/7/2021 9:30:00 PM 12.62 54.716 0.153 7.4 10.91 10.11
4/7/2021 9:45:00 PM 12.54 54.572 0.153 7.38 11.95 10.06
4/7/2021 10:00:00 PM 12.44 54.392 0.153 7.36 8.36 10.02
4/7/2021 10:15:00 PM 12.34 54.212 0.152 7.35 13.63 9.99
4/7/2021 10:30:00 PM 12.24 54.032 0.153 7.33 14.13 9.97
4/7/2021 10:45:00 PM 12.14 53.852 0.153 7.33 12.83 9.94
4/7/2021 11:00:00 PM 12.04 53.672 0.153 7.32 9.9 9.92
4/7/2021 11:15:00 PM 11.92 53.456 0.153 7.31 7.5 9.91
4/7/2021 11:30:00 PM 11.82 53.276 0.153 7.3 7.53 9.9
4/7/2021 11:45:00 PM 11.71 53.078 0.153 7.3 9.77 9.89
4/8/2021 12:00:00 AM 11.6 52.88 0.153 7.3 9.02 9.88
4/8/2021 12:15:00 AM 11.48 52.664 0.154 7.29 8.81 9.89
4/8/2021 12:30:00 AM 11.36 52.448 0.153 7.28 7.66 9.89
4/8/2021 12:45:00 AM 11.25 52.25 0.154 7.28 6.78 9.88
4/8/2021 1:00:00 AM 11.13 52.034 0.154 7.27 9.03 9.9
4/8/2021 1:15:00 AM 11.01 51.818 0.154 7.26 4.35 9.91
4/8/2021 1:30:00 AM 10.89 51.602 0.154 7.26 11.61 9.93
4/8/2021 1:45:00 AM 10.75 51.35 0.154 7.26 8.74 9.95
4/8/2021 2:00:00 AM 10.63 51.134 0.155 7.25 10.32 9.96
4/8/2021 2:15:00 AM 10.5 50.9 0.155 7.25 9.25 9.99
4/8/2021 2:30:00 AM 10.36 50.648 0.155 7.25 7.39 10.02
4/8/2021 2:45:00 AM 10.24 50.432 0.155 7.25 11.5 10.04
4/8/2021 3:00:00 AM 10.11 50.198 0.155 7.24 7.41 10.06
4/8/2021 3:15:00 AM 9.98 49.964 0.155 7.24 11.24 10.09
4/8/2021 3:30:00 AM 9.86 49.748 0.155 7.24 11.42 10.12
4/8/2021 3:45:00 AM 9.73 49.514 0.155 7.24 8.63 10.15
4/8/2021 4:00:00 AM 9.62 49.316 0.155 7.24 7.82 10.17
4/8/2021 4:15:00 AM 9.49 49.082 0.155 7.23 9.82 10.21
4/8/2021 4:30:00 AM 9.38 48.884 0.155 7.24 8.97 10.23
4/8/2021 4:45:00 AM 9.27 48.686 0.155 7.21 9.94 10.26
4/8/2021 5:00:00 AM 9.15 48.47 0.155 7.24 11.76 10.29
4/8/2021 5:15:00 AM 9.04 48.272 0.155 7.24 10.02 10.32
4/8/2021 5:30:00 AM 8.95 48.11 0.156 7.24 8.69 10.34
4/8/2021 5:45:00 AM 8.85 47.93 0.156 7.24 9.91 10.36
4/8/2021 6:00:00 AM 8.75 47.75 0.156 7.23 10.37 10.39
4/8/2021 6:15:00 AM 8.65 47.57 0.156 7.24 9.67 10.42
4/8/2021 6:30:00 AM 8.56 47.408 0.156 7.24 10.86 10.45
4/8/2021 6:45:00 AM 8.47 47.246 0.156 7.24 11.41 10.48
4/8/2021 7:00:00 AM 8.39 47.102 0.156 7.23 8.63 10.51
4/8/2021 7:15:00 AM 8.32 46.976 0.156 7.25 5.98 10.55
4/8/2021 7:30:00 AM 8.25 46.85 0.156 7.26 10.76 10.64
4/8/2021 7:45:00 AM 8.19 46.742 0.156 7.26 8.97 10.71
4/8/2021 8:00:00 AM 8.15 46.67 0.156 7.28 8.15 10.81
4/8/2021 8:15:00 AM 8.13 46.634 0.156 7.29 8.33 10.9
4/8/2021 8:30:00 AM 8.13 46.634 0.156 7.31 9.13 11
4/8/2021 8:45:00 AM 8.14 46.652 0.156 7.32 9.64 11.08
4/8/2021 9:00:00 AM 8.18 46.724 0.156 7.33 8.97 11.17
4/8/2021 9:15:00 AM 8.23 46.814 0.156 7.35 8.15 11.25
4/8/2021 9:30:00 AM 8.31 46.958 0.156 7.36 7.83 11.32
4/8/2021 9:45:00 AM 8.41 47.138 0.156 7.38 9.21 11.39
4/8/2021 10:00:00 AM 8.55 47.39 0.156 7.4 6.14 11.47
4/8/2021 10:15:00 AM 8.7 47.66 0.156 7.41 12.64 11.53
4/8/2021 10:30:00 AM 8.86 47.948 0.156 7.43 8.9 11.59
4/8/2021 10:45:00 AM 9.06 48.308 0.156 7.44 7.63 11.65
4/8/2021 11:00:00 AM 9.25 48.65 0.156 7.46 6.01 11.68
4/8/2021 11:15:00 AM 9.46 49.028 0.156 7.48 10.1 11.74
4/8/2021 11:30:00 AM 9.67 49.406 0.156 7.48 7.64 11.78
4/8/2021 11:45:00 AM 9.88 49.784 0.156 7.5 10.95 11.81
4/8/2021 12:00:00 PM 10.11 50.198 0.156 7.51 5.83 11.83
4/8/2021 12:15:00 PM 10.35 50.63 0.156 7.53 8.21 11.86
4/8/2021 12:30:00 PM 10.58 51.044 0.156 7.55 6.72 11.88
4/8/2021 12:45:00 PM 10.83 51.494 0.156 7.56 7.14 11.9
4/8/2021 1:00:00 PM 11.08 51.944 0.155 7.58 8.01 11.91
4/8/2021 1:15:00 PM 11.34 52.412 0.155 7.58 9.71 11.92
4/8/2021 1:30:00 PM 11.59 52.862 0.155 7.6 13.99 11.93
4/8/2021 1:45:00 PM 11.85 53.33 0.155 7.6 10.6 11.92
4/8/2021 2:00:00 PM 12.11 53.798 0.155 7.63 9.12 11.91
4/8/2021 2:15:00 PM 12.36 54.248 0.155 7.65 12.28 11.9
4/8/2021 2:30:00 PM 12.61 54.698 0.155 7.67 8.53 11.88
4/8/2021 2:45:00 PM 12.84 55.112 0.155 7.68 7.71 11.85
4/8/2021 3:00:00 PM 13.07 55.526 0.155 7.69 6.15 11.81
4/8/2021 3:15:00 PM 13.3 55.94 0.155 7.71 7.78 11.77
4/8/2021 3:30:00 PM 13.52 56.336 0.155 7.72 11.54 11.73
4/8/2021 3:45:00 PM 13.73 56.714 0.155 7.73 6.12 11.68
4/8/2021 4:00:00 PM 13.92 57.056 0.155 7.74 8.26 11.64
4/8/2021 4:15:00 PM 14.12 57.416 0.155 7.75 8.29 11.57
4/8/2021 4:30:00 PM 14.29 57.722 0.155 7.76 13.9 11.51
4/8/2021 4:45:00 PM 14.44 57.992 0.155 7.76 8.34 11.45
4/8/2021 5:00:00 PM 14.55 58.19 0.155 7.76 11.44 11.39
4/8/2021 5:15:00 PM 14.64 58.352 0.155 7.76 5.03 11.3
4/8/2021 5:30:00 PM 14.73 58.514 0.155 7.76 8.38 11.21
4/8/2021 5:45:00 PM 14.78 58.604 0.155 7.75 6.25 11.12
4/8/2021 6:00:00 PM 14.83 58.694 0.155 7.74 18.6 11.03
4/8/2021 6:15:00 PM 14.86 58.748 0.156 7.73 9.62 10.93
4/8/2021 6:30:00 PM 14.87 58.766 0.156 7.69 7.55 10.85
4/8/2021 6:45:00 PM 14.88 58.784 0.156 7.69 11.32 10.74
4/8/2021 7:00:00 PM 14.89 58.802 0.156 7.67 12.07 10.64
4/8/2021 7:15:00 PM 14.87 58.766 0.156 7.65 7.23 10.53
4/8/2021 7:30:00 PM 14.86 58.748 0.156 7.63 7.92 10.42
4/8/2021 7:45:00 PM 14.82 58.676 0.157 7.6 11.23 10.31
4/8/2021 8:00:00 PM 14.77 58.586 0.157 7.58 7.48 10.18
4/8/2021 8:15:00 PM 14.72 58.496 0.157 7.55 7.86 10.07
4/8/2021 8:30:00 PM 14.65 58.37 0.157 7.53 7.02 9.96
4/8/2021 8:45:00 PM 14.58 58.244 0.157 7.51 10.4 9.88
4/8/2021 9:00:00 PM 14.5 58.1 0.158 7.49 12.59 9.81
4/8/2021 9:15:00 PM 14.42 57.956 0.157 7.47 8.3 9.75
4/8/2021 9:30:00 PM 14.34 57.812 0.157 7.45 7.56 9.69
4/8/2021 9:45:00 PM 14.26 57.668 0.158 7.42 8.43 9.64
4/8/2021 10:00:00 PM 14.18 57.524 0.158 7.42 8.79 9.6
4/8/2021 10:15:00 PM 14.1 57.38 0.158 7.4 11.17 9.56
4/8/2021 10:30:00 PM 14.01 57.218 0.157 7.39 7.71 9.54
4/8/2021 10:45:00 PM 13.92 57.056 0.158 7.37 9.43 9.51
4/8/2021 11:00:00 PM 13.83 56.894 0.158 7.36 4.17 9.49
4/8/2021 11:15:00 PM 13.73 56.714 0.158 7.36 4.84 9.48
4/8/2021 11:30:00 PM 13.64 56.552 0.158 7.34 7.55 9.46
4/8/2021 11:45:00 PM 13.54 56.372 0.158 7.35 13.38 9.45
4/9/2021 12:00:00 AM 13.44 56.192 0.158 7.34 4.91 9.44
4/9/2021 12:15:00 AM 13.34 56.012 0.158 7.33 9.26 9.43
4/9/2021 12:30:00 AM 13.24 55.832 0.158 7.32 11.89 9.44
4/9/2021 12:45:00 AM 13.13 55.634 0.158 7.31 5.38 9.43
4/9/2021 1:00:00 AM 13.03 55.454 0.159 7.31 11.3 9.44
4/9/2021 1:15:00 AM 12.92 55.256 0.158 7.3 5.93 9.46
4/9/2021 1:30:00 AM 12.82 55.076 0.159 7.3 14.17 9.45
4/9/2021 1:45:00 AM 12.71 54.878 0.159 7.3 12.08 9.48
4/9/2021 2:00:00 AM 12.61 54.698 0.159 7.3 5 9.48
4/9/2021 2:15:00 AM 12.51 54.518 0.159 7.29 14.51 9.49
4/9/2021 2:30:00 AM 12.39 54.302 0.159 7.29 11.63 9.5
4/9/2021 2:45:00 AM 12.3 54.14 0.16 7.28 7.62 9.51
4/9/2021 3:00:00 AM 12.2 53.96 0.159 7.29 10.37 9.54
4/9/2021 3:15:00 AM 12.09 53.762 0.159 7.28 4.49 9.56
4/9/2021 3:30:00 AM 12 53.6 0.16 7.28 9.3 9.57
4/9/2021 3:45:00 AM 11.9 53.42 0.16 7.28 8.68 9.6
4/9/2021 4:00:00 AM 11.79 53.222 0.16 7.27 9.74 9.62
4/9/2021 4:15:00 AM 11.7 53.06 0.16 7.28 12.23 9.65
4/9/2021 4:30:00 AM 11.61 52.898 0.16 7.27 13.29 9.67
4/9/2021 4:45:00 AM 11.53 52.754 0.16 7.28 9.78 9.68
4/9/2021 5:00:00 AM 11.44 52.592 0.16 7.28 4.93 9.7
4/9/2021 5:15:00 AM 11.35 52.43 0.16 7.27 12.19 9.72
4/9/2021 5:30:00 AM 11.26 52.268 0.16 7.28 10.64 9.75
4/9/2021 5:45:00 AM 11.2 52.16 0.16 7.27 9.54 9.75
4/9/2021 6:00:00 AM 11.11 51.998 0.157 7.28 10.27 9.78
4/9/2021 6:15:00 AM 11.04 51.872 0.16 7.28 9.73 9.81
4/9/2021 6:30:00 AM 10.97 51.746 0.16 7.28 12.84 9.82
4/9/2021 6:45:00 AM 10.92 51.656 0.16 7.28 8 9.84
4/9/2021 7:00:00 AM 10.86 51.548 0.16 7.28 13.32 9.87
4/9/2021 7:15:00 AM 10.81 51.458 0.16 7.29 5.18 9.92
4/9/2021 7:30:00 AM 10.77 51.386 0.16 7.3 16.22 9.96
4/9/2021 7:45:00 AM 10.73 51.314 0.16 7.31 12.63 10.02
4/9/2021 8:00:00 AM 10.71 51.278 0.16 7.32 93.75 10.11
4/9/2021 8:15:00 AM 10.7 51.26 0.16 7.33 11.11 10.23
4/9/2021 8:30:00 AM 10.7 51.26 0.16 7.35 12.15 10.36
4/9/2021 8:45:00 AM 10.71 51.278 0.16 7.36 11.28 10.45
4/9/2021 9:00:00 AM 10.74 51.332 0.16 7.38 11.88 10.57
4/9/2021 9:15:00 AM 10.79 51.422 0.16 7.4 13.57 10.66
4/9/2021 9:30:00 AM 10.88 51.584 0.159 7.42 13.41 10.75
4/9/2021 9:45:00 AM 10.97 51.746 0.16 7.44 10.91 10.84
4/9/2021 10:00:00 AM 11.03 51.854 0.159 7.45 14.29 10.93
4/9/2021 10:15:00 AM 11.02 51.836 0.16 7.47 5.1 10.97
4/9/2021 10:30:00 AM 11.03 51.854 0.16 7.49 4.95 11.02
4/9/2021 10:45:00 AM 11.03 51.854 0.16 7.49 11.02 11.04
4/9/2021 11:00:00 AM 11.02 51.836 0.16 7.49 11.49 11.04
4/9/2021 11:15:00 AM 11 51.8 0.16 7.49 17.43 11.02
4/9/2021 11:30:00 AM 10.96 51.728 0.16 7.49 6.49 11.03
4/9/2021 11:45:00 AM 10.95 51.71 0.16 7.5 4.81 11.08
4/9/2021 12:00:00 PM 10.97 51.746 0.16 7.51 13.52 11.15
4/9/2021 12:15:00 PM 10.97 51.746 0.16 7.53 11.47 11.2
4/9/2021 12:30:00 PM 10.97 51.746 0.16 7.54 8.6 11.24
4/9/2021 12:45:00 PM 10.96 51.728 0.16 7.53 13.52 11.26
4/9/2021 1:00:00 PM 10.98 51.764 0.16 7.55 12.8 11.3
4/9/2021 1:15:00 PM 11.06 51.908 0.16 7.57 10.1 11.37
4/9/2021 1:30:00 PM 11.2 52.16 0.16 7.59 14.57 11.44
4/9/2021 1:45:00 PM 11.35 52.43 0.16 7.6 10.31 11.5
4/9/2021 2:00:00 PM 11.54 52.772 0.16 7.65 14.9 11.54
4/9/2021 2:15:00 PM 11.65 52.97 0.159 7.67 12.16 11.57
4/9/2021 2:30:00 PM 11.85 53.33 0.16 7.68 10.65 11.59
4/9/2021 2:45:00 PM 11.94 53.492 0.16 7.7 14 11.61
4/9/2021 3:00:00 PM 12.11 53.798 0.16 7.71 12.02 11.63
4/9/2021 3:15:00 PM 12.19 53.942 0.16 7.73 5.06 11.63
4/9/2021 3:30:00 PM 12.21 53.978 0.16 7.71 14.97 11.6
4/9/2021 3:45:00 PM 12.22 53.996 0.16 7.73 18.75 11.58
4/9/2021 4:00:00 PM 12.24 54.032 0.16 7.74 11.11 11.55
4/9/2021 4:15:00 PM 12.31 54.158 0.16 7.74 11.96 11.57
4/9/2021 4:30:00 PM 12.38 54.284 0.16 7.75 12.27 11.58
4/9/2021 4:45:00 PM 12.47 54.446 0.16 7.77 5.36 11.57
4/9/2021 5:00:00 PM 12.55 54.59 0.16 7.78 17.1 11.59
4/9/2021 5:15:00 PM 12.69 54.842 0.16 7.78 9.24 11.58
4/9/2021 5:30:00 PM 12.78 55.004 0.16 7.79 15.07 11.54
4/9/2021 5:45:00 PM 12.8 55.04 0.16 7.79 11.66 11.49
4/9/2021 6:00:00 PM 12.78 55.004 0.16 7.79 11.91 11.44
4/9/2021 6:15:00 PM 12.77 54.986 0.16 7.77 5.51 11.38
4/9/2021 6:30:00 PM 12.73 54.914 0.16 7.75 7.81 11.3
4/9/2021 6:45:00 PM 12.68 54.824 0.16 7.73 7.82 11.22
4/9/2021 7:00:00 PM 12.63 54.734 0.159 7.7 9.92 11.16
4/9/2021 7:15:00 PM 12.58 54.644 0.16 7.68 7.66 11.08
4/9/2021 7:30:00 PM 12.53 54.554 0.16 7.66 8.28 10.98
4/9/2021 7:45:00 PM 12.47 54.446 0.16 7.63 7.06 10.87
4/9/2021 8:00:00 PM 12.41 54.338 0.159 7.59 6.68 10.77
4/9/2021 8:15:00 PM 12.34 54.212 0.159 7.57 5.67 10.67
4/9/2021 8:30:00 PM 12.27 54.086 0.159 7.55 8.41 10.59
4/9/2021 8:45:00 PM 12.21 53.978 0.159 7.53 8.34 10.51
4/9/2021 9:00:00 PM 12.16 53.888 0.159 7.51 6.45 10.45
4/9/2021 9:15:00 PM 12.11 53.798 0.158 7.48 6.7 10.39
4/9/2021 9:30:00 PM 12.07 53.726 0.158 7.47 4.98 10.33
4/9/2021 9:45:00 PM 12.03 53.654 0.158 7.46 6.79 10.3
4/9/2021 10:00:00 PM 11.99 53.582 0.158 7.45 5.81 10.26
4/9/2021 10:15:00 PM 11.94 53.492 0.158 7.44 7.44 10.22
4/9/2021 10:30:00 PM 11.89 53.402 0.158 7.43 12.12 10.19
4/9/2021 10:45:00 PM 11.84 53.312 0.159 7.42 6.59 10.16
4/9/2021 11:00:00 PM 11.78 53.204 0.159 7.42 5.98 10.13
4/9/2021 11:15:00 PM 11.72 53.096 0.16 7.41 8.73 10.1
4/9/2021 11:30:00 PM 11.65 52.97 0.16 7.4 6.89 10.08
4/9/2021 11:45:00 PM 11.6 52.88 0.16 7.38 11.15 10.07
4/10/2021 12:00:00 AM 11.55 52.79 0.16 7.39 7.14 10.05
4/10/2021 12:15:00 AM 11.51 52.718 0.16 7.38 15.93 10.04
4/10/2021 12:30:00 AM 11.46 52.628 0.161 7.37 6.57 10.02
4/10/2021 12:45:00 AM 11.4 52.52 0.161 7.37 10.19 10.02
4/10/2021 1:00:00 AM 11.35 52.43 0.161 7.37 9.13 10.01
4/10/2021 1:15:00 AM 11.29 52.322 0.161 7.36 6.23 10
4/10/2021 1:30:00 AM 11.25 52.25 0.161 7.36 8.93 9.99
4/10/2021 1:45:00 AM 11.2 52.16 0.161 7.36 9.38 9.99
4/10/2021 2:00:00 AM 11.15 52.07 0.161 7.35 8.09 9.97
4/10/2021 2:15:00 AM 11.1 51.98 0.161 7.35 7.66 9.98
4/10/2021 2:30:00 AM 11.06 51.908 0.162 7.34 7.12 9.97
4/10/2021 2:45:00 AM 11.01 51.818 0.162 7.34 7.34 9.98
4/10/2021 3:00:00 AM 10.96 51.728 0.161 7.34 14.28 9.98
4/10/2021 3:15:00 AM 10.93 51.674 0.162 7.33 11.72 9.97
4/10/2021 3:30:00 AM 10.89 51.602 0.162 7.33 9.12 9.97
4/10/2021 3:45:00 AM 10.86 51.548 0.162 7.33 9.12 9.98
4/10/2021 4:00:00 AM 10.82 51.476 0.162 7.33 8.34 9.97
4/10/2021 4:15:00 AM 10.78 51.404 0.162 7.33 9.27 9.97
4/10/2021 4:30:00 AM 10.75 51.35 0.162 7.32 7.88 9.97
4/10/2021 4:45:00 AM 10.72 51.296 0.162 7.32 8.8 9.98
4/10/2021 5:00:00 AM 10.68 51.224 0.162 7.32 7.91 10
4/10/2021 5:15:00 AM 10.65 51.17 0.163 7.32 8.47 9.99
4/10/2021 5:30:00 AM 10.62 51.116 0.162 7.32 9.93 10
4/10/2021 5:45:00 AM 10.59 51.062 0.163 7.31 8.08 10
4/10/2021 6:00:00 AM 10.56 51.008 0.163 7.32 8.59 10.01
4/10/2021 6:15:00 AM 10.53 50.954 0.163 7.32 8.78 10.01
4/10/2021 6:30:00 AM 10.51 50.918 0.163 7.32 7.59 10.02
4/10/2021 6:45:00 AM 10.49 50.882 0.163 7.32 8.77 10.03
4/10/2021 7:00:00 AM 10.46 50.828 0.163 7.32 9.03 10.03
4/10/2021 7:15:00 AM 10.44 50.792 0.163 7.32 9.35 10.05
4/10/2021 7:30:00 AM 10.43 50.774 0.164 7.33 7.31 10.08
4/10/2021 7:45:00 AM 10.42 50.756 0.163 7.34 9.51 10.14
4/10/2021 8:00:00 AM 10.42 50.756 0.164 7.34 8.34 10.19
4/10/2021 8:15:00 AM 10.42 50.756 0.164 7.35 9.03 10.27
4/10/2021 8:30:00 AM 10.43 50.774 0.164 7.36 8.14 10.35
4/10/2021 8:45:00 AM 10.45 50.81 0.164 7.38 6.91 10.44
4/10/2021 9:00:00 AM 10.47 50.846 0.164 7.39 8.31 10.53
4/10/2021 9:15:00 AM 10.51 50.918 0.164 7.41 7.85 10.64
4/10/2021 9:30:00 AM 10.55 50.99 0.164 7.42 9.02 10.73
4/10/2021 9:45:00 AM 10.59 51.062 0.164 7.43 9.2 10.81
4/10/2021 10:00:00 AM 10.65 51.17 0.164 7.46 8.35 10.91
4/10/2021 10:15:00 AM 10.72 51.296 0.164 7.48 6.89 10.98
4/10/2021 10:30:00 AM 10.8 51.44 0.164 7.48 6.55 11.06
4/10/2021 10:45:00 AM 10.89 51.602 0.164 7.51 7.56 11.13
4/10/2021 11:00:00 AM 10.99 51.782 0.164 7.53 9.25 11.21
4/10/2021 11:15:00 AM 11.13 52.034 0.164 7.56 6.18 11.28
4/10/2021 11:30:00 AM 11.36 52.448 0.163 7.58 8.37 11.35
4/10/2021 11:45:00 AM 11.62 52.916 0.164 7.6 6.69 11.41
4/10/2021 12:00:00 PM 11.95 53.51 0.164 7.62 8.48 11.44
4/10/2021 12:15:00 PM 12.21 53.978 0.164 7.65 8.49 11.47
4/10/2021 12:30:00 PM 12.48 54.464 0.164 7.67 7.98 11.49
4/10/2021 12:45:00 PM 12.76 54.968 0.164 7.68 8.15 11.51
4/10/2021 1:00:00 PM 12.99 55.382 0.164 7.7 8.27 11.54
4/10/2021 1:15:00 PM 13.22 55.796 0.163 7.72 7.61 11.55
4/10/2021 1:30:00 PM 13.42 56.156 0.164 7.74 7.21 11.57
4/10/2021 1:45:00 PM 13.59 56.462 0.163 7.77 8.64 11.59
4/10/2021 2:00:00 PM 13.78 56.804 0.164 7.78 8.27 11.6
4/10/2021 2:15:00 PM 13.97 57.146 0.163 7.8 8.16 11.61
4/10/2021 2:30:00 PM 14.15 57.47 0.163 7.81 7.97 11.6
4/10/2021 2:45:00 PM 14.32 57.776 0.163 7.83 7.3 11.59
4/10/2021 3:00:00 PM 14.46 58.028 0.163 7.84 8.2 11.58
4/10/2021 3:15:00 PM 14.6 58.28 0.162 7.87 7.69 11.58
4/10/2021 3:30:00 PM 14.72 58.496 0.162 7.88 6.63 11.57
4/10/2021 3:45:00 PM 14.81 58.658 0.162 7.89 7.5 11.55
4/10/2021 4:00:00 PM 14.9 58.82 0.162 7.91 8.76 11.52
4/10/2021 4:15:00 PM 14.97 58.946 0.162 7.92 9.11 11.48
4/10/2021 4:30:00 PM 15.05 59.09 0.162 7.94 9.46 11.46
4/10/2021 4:45:00 PM 15.11 59.198 0.162 7.94 9.93 11.42
4/10/2021 5:00:00 PM 15.17 59.306 0.162 7.94 3.7 11.4
4/10/2021 5:15:00 PM 15.21 59.378 0.162 7.94 3.96 11.35
4/10/2021 5:30:00 PM 15.24 59.432 0.161 7.93 3.65 11.27
4/10/2021 5:45:00 PM 15.26 59.468 0.162 7.92 3.54 11.21
4/10/2021 6:00:00 PM 15.29 59.522 0.162 7.91 3.52 11.15
4/10/2021 6:15:00 PM 15.32 59.576 0.162 7.89 3.65 11.06
4/10/2021 6:30:00 PM 15.33 59.594 0.162 7.87 3.74 10.98
4/10/2021 6:45:00 PM 15.35 59.63 0.162 7.85 3.54 10.86
4/10/2021 7:00:00 PM 15.34 59.612 0.162 7.82 3.74 10.74
4/10/2021 7:15:00 PM 15.35 59.63 0.162 7.79 3.67 10.61
4/10/2021 7:30:00 PM 15.33 59.594 0.162 7.75 3.94 10.45
4/10/2021 7:45:00 PM 15.32 59.576 0.162 7.71 3.86 10.3
4/10/2021 8:00:00 PM 15.31 59.558 0.162 7.66 4.13 10.14
4/10/2021 8:15:00 PM 15.28 59.504 0.163 7.63 5.06 10.01
4/10/2021 8:30:00 PM 15.26 59.468 0.163 7.59 5.37 9.88
4/10/2021 8:45:00 PM 15.22 59.396 0.163 7.56 5.42 9.78
4/10/2021 9:00:00 PM 15.18 59.324 0.163 7.54 5.56 9.7
4/10/2021 9:15:00 PM 15.14 59.252 0.163 7.52 5.37 9.61
4/10/2021 9:30:00 PM 15.08 59.144 0.163 7.5 5.61 9.54
4/10/2021 9:45:00 PM 15.03 59.054 0.163 7.48 6.09 9.47
4/10/2021 10:00:00 PM 14.98 58.964 0.163 7.45 6.29 9.42
4/10/2021 10:15:00 PM 14.91 58.838 0.163 7.46 6.75 9.36
4/10/2021 10:30:00 PM 14.85 58.73 0.163 7.44 5.38 9.32
4/10/2021 10:45:00 PM 14.79 58.622 0.163 7.42 6.09 9.29
4/10/2021 11:00:00 PM 14.72 58.496 0.163 7.41 6.08 9.25
4/10/2021 11:15:00 PM 14.65 58.37 0.163 7.4 5.94 9.22
4/10/2021 11:30:00 PM 14.57 58.226 0.163 7.39 5.51 9.2
4/10/2021 11:45:00 PM 14.49 58.082 0.164 7.38 5.28 9.18
4/11/2021 12:00:00 AM 14.41 57.938 0.164 7.38 5.56 9.15
4/11/2021 12:15:00 AM 14.33 57.794 0.164 7.37 5.14 9.14
4/11/2021 12:30:00 AM 14.25 57.65 0.164 7.34 5.48 9.13
4/11/2021 12:45:00 AM 14.17 57.506 0.164 7.35 5.23 9.11
4/11/2021 1:00:00 AM 14.09 57.362 0.164 7.35 5.55 9.1
4/11/2021 1:15:00 AM 14 57.2 0.164 7.34 5.5 9.1
4/11/2021 1:30:00 AM 13.92 57.056 0.165 7.33 5.77 9.09
4/11/2021 1:45:00 AM 13.84 56.912 0.165 7.33 5.29 9.09
4/11/2021 2:00:00 AM 13.75 56.75 0.165 7.32 5.06 9.09
4/11/2021 2:15:00 AM 13.67 56.606 0.165 7.32 5.72 9.09
4/11/2021 2:30:00 AM 13.58 56.444 0.165 7.31 5.16 9.08
4/11/2021 2:45:00 AM 13.49 56.282 0.165 7.32 6.27 9.09
4/11/2021 3:00:00 AM 13.41 56.138 0.166 7.31 5.61 9.1
4/11/2021 3:15:00 AM 13.31 55.958 0.166 7.3 5.83 9.11
4/11/2021 3:30:00 AM 13.22 55.796 0.166 7.29 5.45 9.13
4/11/2021 3:45:00 AM 13.13 55.634 0.166 7.3 6.3 9.13
4/11/2021 4:00:00 AM 13.04 55.472 0.166 7.28 6.79 9.14
4/11/2021 4:15:00 AM 12.94 55.292 0.166 7.29 7.91 9.16
4/11/2021 4:30:00 AM 12.86 55.148 0.166 7.28 6.82 9.17
4/11/2021 4:45:00 AM 12.77 54.986 0.166 7.28 7.75 9.18
4/11/2021 5:00:00 AM 12.68 54.824 0.166 7.29 7.49 9.21
4/11/2021 5:15:00 AM 12.61 54.698 0.166 7.29 7.24 9.23
4/11/2021 5:30:00 AM 12.52 54.536 0.166 7.28 7.73 9.25
4/11/2021 5:45:00 AM 12.45 54.41 0.166 7.28 6.12 9.26
4/11/2021 6:00:00 AM 12.37 54.266 0.166 7.28 5.03 9.28
4/11/2021 6:15:00 AM 12.31 54.158 0.166 7.28 7.04 9.27
4/11/2021 6:30:00 AM 12.22 53.996 0.166 7.26 10.73 9.31
4/11/2021 6:45:00 AM 12.16 53.888 0.167 7.27 9.23 9.32
4/11/2021 7:00:00 AM 12.1 53.78 0.166 7.28 10.9 9.35
4/11/2021 7:15:00 AM 12.05 53.69 0.166 7.29 9.47 9.39
4/11/2021 7:30:00 AM 12 53.6 0.167 7.29 6.79 9.43
4/11/2021 7:45:00 AM 11.96 53.528 0.167 7.3 7.36 9.52
4/11/2021 8:00:00 AM 11.93 53.474 0.166 7.31 7.08 9.62
4/11/2021 8:15:00 AM 11.93 53.474 0.167 7.33 8.5 9.72
4/11/2021 8:30:00 AM 11.93 53.474 0.167 7.34 7.63 9.82
4/11/2021 8:45:00 AM 11.95 53.51 0.166 7.37 9.43 9.99
4/11/2021 9:00:00 AM 12 53.6 0.167 7.39 7.1 10.12
4/11/2021 9:15:00 AM 12.04 53.672 0.167 7.42 7.48 10.22
4/11/2021 9:30:00 AM 12.07 53.726 0.167 7.43 7.86 10.31
4/11/2021 9:45:00 AM 12.09 53.762 0.167 7.44 8.74 10.36
4/11/2021 10:00:00 AM 12.1 53.78 0.167 7.46 6.91 10.42
4/11/2021 10:15:00 AM 12.12 53.816 0.167 7.47 10.01 10.49
4/11/2021 10:30:00 AM 12.14 53.852 0.167 7.49 10.05 10.56
4/11/2021 10:45:00 AM 12.17 53.906 0.167 7.5 6.92 10.6
4/11/2021 11:00:00 AM 12.18 53.924 0.166 7.52 7.54 10.65
4/11/2021 11:15:00 AM 12.19 53.942 0.166 7.52 6.77 10.68
4/11/2021 11:30:00 AM 12.21 53.978 0.166 7.53 5.66 10.73
4/11/2021 11:45:00 AM 12.23 54.014 0.165 7.54 11.24 10.78
4/11/2021 12:00:00 PM 12.26 54.068 0.165 7.56 11.84 10.84
4/11/2021 12:15:00 PM 12.3 54.14 0.165 7.58 12.31 10.89
4/11/2021 12:30:00 PM 12.36 54.248 0.165 7.61 7.4 10.96
4/11/2021 12:45:00 PM 12.44 54.392 0.165 7.62 7.33 11.01
4/11/2021 1:00:00 PM 12.54 54.572 0.164 7.65 12.54 11.09
4/11/2021 1:15:00 PM 12.64 54.752 0.165 7.67 7.28 11.12
4/11/2021 1:30:00 PM 12.68 54.824 0.165 7.69 5.38 11.14
4/11/2021 1:45:00 PM 12.73 54.914 0.164 7.7 5.6 11.16
4/11/2021 2:00:00 PM 12.74 54.932 0.164 7.7 5.63 11.15
4/11/2021 2:15:00 PM 12.75 54.95 0.164 7.7 5.88 11.13
4/11/2021 2:30:00 PM 12.76 54.968 0.164 7.7 10.56 11.13
4/11/2021 2:45:00 PM 12.79 55.022 0.164 7.72 6.42 11.12
4/11/2021 3:00:00 PM 12.82 55.076 0.164 7.72 5.99 11.13
4/11/2021 3:15:00 PM 12.86 55.148 0.164 7.72 5.65 11.15
4/11/2021 3:30:00 PM 12.91 55.238 0.164 7.75 7.23 11.18
4/11/2021 3:45:00 PM 12.95 55.31 0.164 7.76 8.34 11.19
4/11/2021 4:00:00 PM 13 55.4 0.164 7.77 5.46 11.2
4/11/2021 4:15:00 PM 13.02 55.436 0.164 7.77 8.95 11.14
4/11/2021 4:30:00 PM 13.04 55.472 0.164 7.77 5.81 11.1
4/11/2021 4:45:00 PM 13.05 55.49 0.163 7.75 6.4 11.01
4/11/2021 5:00:00 PM 13.06 55.508 0.163 7.75 5.88 10.97
4/11/2021 5:15:00 PM 13.08 55.544 0.163 7.74 6.83 10.94
4/11/2021 5:30:00 PM 13.09 55.562 0.163 7.72 11.69 10.87
4/11/2021 5:45:00 PM 13.09 55.562 0.162 7.7 8.47 10.82
4/11/2021 6:00:00 PM 13.09 55.562 0.163 7.69 9.92 10.75
4/11/2021 6:15:00 PM 13.09 55.562 0.163 7.67 7.09 10.67
4/11/2021 6:30:00 PM 13.08 55.544 0.163 7.66 7.52 10.59
4/11/2021 6:45:00 PM 13.08 55.544 0.162 7.64 8.3 10.51
4/11/2021 7:00:00 PM 13.07 55.526 0.162 7.62 8.24 10.44
4/11/2021 7:15:00 PM 13.07 55.526 0.161 7.61 8.95 10.36
4/11/2021 7:30:00 PM 13.06 55.508 0.161 7.58 8.94 10.27
4/11/2021 7:45:00 PM 13.05 55.49 0.161 7.56 8.99 10.2
4/11/2021 8:00:00 PM 13.04 55.472 0.161 7.54 8.73 10.12
4/11/2021 8:15:00 PM 13.03 55.454 0.161 7.53 7.21 10.05
4/11/2021 8:30:00 PM 13.01 55.418 0.162 7.51 7.41 9.98
4/11/2021 8:45:00 PM 13 55.4 0.161 7.5 5.41 9.94
4/11/2021 9:00:00 PM 12.99 55.382 0.161 7.48 8.74 9.9
4/11/2021 9:15:00 PM 12.97 55.346 0.161 7.47 6.57 9.86
4/11/2021 9:30:00 PM 12.96 55.328 0.161 7.44 7.15 9.82
4/11/2021 9:45:00 PM 12.94 55.292 0.161 7.46 7.67 9.8
4/11/2021 10:00:00 PM 12.92 55.256 0.161 7.46 11.97 9.77
4/11/2021 10:15:00 PM 12.89 55.202 0.161 7.44 12.58 9.76
4/11/2021 10:30:00 PM 12.83 55.094 0.162 7.44 19.3 9.75
4/11/2021 10:45:00 PM 12.74 54.932 0.165 7.42 16.02 9.75
4/11/2021 11:00:00 PM 12.64 54.752 0.168 7.41 10.77 9.73
4/11/2021 11:15:00 PM 12.54 54.572 0.173 7.4 22.29 9.73
4/11/2021 11:30:00 PM 12.45 54.41 0.175 7.39 16.69 9.73
4/11/2021 11:45:00 PM 12.36 54.248 0.178 7.39 17.1 9.74
4/12/2021 12:00:00 AM 12.28 54.104 0.179 7.38 13.86 9.74
4/12/2021 12:15:00 AM 12.18 53.924 0.18 7.37 14.56 9.76
4/12/2021 12:30:00 AM 12.08 53.744 0.18 7.37 15.08 9.78
4/12/2021 12:45:00 AM 11.97 53.546 0.18 7.36 16.91 9.82
4/12/2021 1:00:00 AM 11.87 53.366 0.181 7.35 26.6 9.83
4/12/2021 1:15:00 AM 11.75 53.15 0.183 7.34 19.18 9.86
4/12/2021 1:30:00 AM 11.66 52.988 0.185 7.35 21.44 9.89
4/12/2021 1:45:00 AM 11.58 52.844 0.187 7.34 20.37 9.9
4/12/2021 2:00:00 AM 11.52 52.736 0.188 7.3 19.87 9.92
4/12/2021 2:15:00 AM 11.47 52.646 0.188 7.33 18.44 9.92
4/12/2021 2:30:00 AM 11.43 52.574 0.187 7.33 17.61 9.92
4/12/2021 2:45:00 AM 11.4 52.52 0.185 7.33 16.77 9.92
4/12/2021 3:00:00 AM 11.37 52.466 0.182 7.33 15.71 9.92
4/12/2021 3:15:00 AM 11.36 52.448 0.179 7.33 15.89 9.91
4/12/2021 3:30:00 AM 11.34 52.412 0.176 7.33 15.35 9.92
4/12/2021 3:45:00 AM 11.32 52.376 0.174 7.32 13.23 9.92
4/12/2021 4:00:00 AM 11.29 52.322 0.171 7.32 14 9.92
4/12/2021 4:15:00 AM 11.26 52.268 0.169 7.31 14.28 9.92
4/12/2021 4:30:00 AM 11.22 52.196 0.168 7.31 13.96 9.93
4/12/2021 4:45:00 AM 11.18 52.124 0.166 7.3 13.96 9.94
4/12/2021 5:00:00 AM 11.14 52.052 0.166 7.3 13.93 9.95
4/12/2021 5:15:00 AM 11.09 51.962 0.165 7.29 13.63 9.97
4/12/2021 5:30:00 AM 11.04 51.872 0.165 7.26 14.33 9.98
4/12/2021 5:45:00 AM 10.99 51.782 0.165 7.28 13.49 9.99
4/12/2021 6:00:00 AM 10.95 51.71 0.165 7.26 13.26 10
4/12/2021 6:15:00 AM 10.9 51.62 0.165 7.28 13.15 10.02
4/12/2021 6:30:00 AM 10.85 51.53 0.164 7.28 14.95 10.03
4/12/2021 6:45:00 AM 10.8 51.44 0.163 7.28 24.26 10.05
4/12/2021 7:00:00 AM 10.76 51.368 0.162 7.28 13.43 10.06
4/12/2021 7:15:00 AM 10.71 51.278 0.161 7.25 13.83 10.08
4/12/2021 7:30:00 AM 10.67 51.206 0.159 7.28 12.43 10.1
4/12/2021 7:45:00 AM 10.62 51.116 0.158 7.28 13.86 10.12
4/12/2021 8:00:00 AM 10.57 51.026 0.157 7.28 14.36 10.14
4/12/2021 8:15:00 AM 10.53 50.954 0.156 7.28 13.41 10.16
4/12/2021 8:30:00 AM 10.49 50.882 0.155 7.28 13.31 10.2
4/12/2021 8:45:00 AM 10.45 50.81 0.154 7.28 13.26 10.22
4/12/2021 9:00:00 AM 10.4 50.72 0.154 7.29 12.52 10.25
4/12/2021 9:15:00 AM 10.36 50.648 0.153 7.29 12.27 10.28
4/12/2021 9:30:00 AM 10.33 50.594 0.153 7.29 12.88 10.32
4/12/2021 9:45:00 AM 10.29 50.522 0.152 7.3 13.62 10.35
4/12/2021 10:00:00 AM 10.27 50.486 0.152 7.29 12.05 10.39
4/12/2021 10:15:00 AM 10.24 50.432 0.152 7.32 12.99 10.43
4/12/2021 10:30:00 AM 10.22 50.396 0.152 7.32 12.29 10.47
4/12/2021 10:45:00 AM 10.19 50.342 0.152 7.33 14.07 10.51
4/12/2021 11:00:00 AM 10.17 50.306 0.151 7.33 12.01 10.55
4/12/2021 11:15:00 AM 10.15 50.27 0.151 7.34 14.15 10.6
4/12/2021 11:30:00 AM 10.14 50.252 0.151 7.35 15.43 10.65
4/12/2021 11:45:00 AM 10.12 50.216 0.151 7.36 16.26 10.68
4/12/2021 12:00:00 PM 10.1 50.18 0.151 7.37 12.75 10.72
4/12/2021 12:15:00 PM 10.08 50.144 0.15 7.37 13.53 10.76
4/12/2021 12:30:00 PM 10.07 50.126 0.15 7.38 12.6 10.79
4/12/2021 12:45:00 PM 10.06 50.108 0.15 7.39 12.89 10.83
4/12/2021 1:00:00 PM 10.06 50.108 0.149 7.4 10.39 10.87
4/12/2021 1:15:00 PM 10.06 50.108 0.149 7.4 10.26 10.91
4/12/2021 1:30:00 PM 10.06 50.108 0.149 7.4 9.94 10.96
4/12/2021 1:45:00 PM 10.07 50.126 0.149 7.43 9.74 11
4/12/2021 2:00:00 PM 10.09 50.162 0.149 7.45 9.86 11.05
4/12/2021 2:15:00 PM 10.11 50.198 0.149 7.47 9.83 11.09
4/12/2021 2:30:00 PM 10.12 50.216 0.148 7.47 9.23 11.1
4/12/2021 2:45:00 PM 10.12 50.216 0.148 7.47 9.52 11.11
4/12/2021 3:00:00 PM 10.11 50.198 0.148 7.47 8.92 11.12
4/12/2021 3:15:00 PM 10.1 50.18 0.147 7.46 8.65 11.12
4/12/2021 3:30:00 PM 10.1 50.18 0.147 7.47 8.48 11.13
4/12/2021 3:45:00 PM 10.1 50.18 0.146 7.48 8.49 11.15
4/12/2021 4:00:00 PM 10.11 50.198 0.146 7.47 7.98 11.17
4/12/2021 4:15:00 PM 10.11 50.198 0.146 7.49 8.08 11.17
4/12/2021 4:30:00 PM 10.11 50.198 0.146 7.49 8.18 11.17
4/12/2021 4:45:00 PM 10.1 50.18 0.145 7.49 8.86 11.16
4/12/2021 5:00:00 PM 10.09 50.162 0.145 7.48 7.6 11.15
4/12/2021 5:15:00 PM 10.08 50.144 0.145 7.48 7.78 11.14
4/12/2021 5:30:00 PM 10.06 50.108 0.144 7.47 7.77 11.1
4/12/2021 5:45:00 PM 10.05 50.09 0.144 7.46 7.65 11.07
4/12/2021 6:00:00 PM 10.03 50.054 0.144 7.47 7.78 11.05
4/12/2021 6:15:00 PM 10.01 50.018 0.143 7.47 7.81 11.04
4/12/2021 6:30:00 PM 10 50 0.143 7.45 7.93 11.02
4/12/2021 6:45:00 PM 9.98 49.964 0.143 7.45 7.81 11
4/12/2021 7:00:00 PM 9.97 49.946 0.143 7.43 8.05 10.97
4/12/2021 7:15:00 PM 9.95 49.91 0.143 7.39 7.7 10.93
4/12/2021 7:30:00 PM 9.92 49.856 0.143 7.41 8.11 10.9
4/12/2021 7:45:00 PM 9.89 49.802 0.143 7.4 7.84 10.86
4/12/2021 8:00:00 PM 9.86 49.748 0.143 7.4 8.11 10.83
4/12/2021 8:15:00 PM 9.83 49.694 0.143 7.38 7.95 10.79
4/12/2021 8:30:00 PM 9.8 49.64 0.144 7.37 7.98 10.77
4/12/2021 8:45:00 PM 9.77 49.586 0.143 7.37 7.52 10.75
4/12/2021 9:00:00 PM 9.74 49.532 0.143 7.35 8.14 10.72
4/12/2021 9:15:00 PM 9.71 49.478 0.143 7.35 7.21 10.7
4/12/2021 9:30:00 PM 9.68 49.424 0.142 7.34 7.28 10.69
4/12/2021 9:45:00 PM 9.65 49.37 0.142 7.33 7.97 10.68
4/12/2021 10:00:00 PM 9.62 49.316 0.141 7.32 7.65 10.67
4/12/2021 10:15:00 PM 9.59 49.262 0.14 7.32 7.45 10.66
4/12/2021 10:30:00 PM 9.55 49.19 0.14 7.31 7.8 10.65
4/12/2021 10:45:00 PM 9.52 49.136 0.14 7.3 7.7 10.65
4/12/2021 11:00:00 PM 9.49 49.082 0.139 7.29 8.17 10.65
4/12/2021 11:15:00 PM 9.46 49.028 0.139 7.29 8.19 10.65
4/12/2021 11:30:00 PM 9.42 48.956 0.139 7.28 10.55 10.65
4/12/2021 11:45:00 PM 9.39 48.902 0.138 7.29 8.31 10.66
4/13/2021 12:00:00 AM 9.36 48.848 0.138 7.28 9.45 10.66
4/13/2021 12:15:00 AM 9.33 48.794 0.138 7.27 8.91 10.67
4/13/2021 12:30:00 AM 9.3 48.74 0.138 7.27 9.75 10.67
4/13/2021 12:45:00 AM 9.26 48.668 0.139 7.25 9.51 10.68
4/13/2021 1:00:00 AM 9.22 48.596 0.139 7.26 10.24 10.69
4/13/2021 1:15:00 AM 9.19 48.542 0.14 7.26 11.4 10.7
4/13/2021 1:30:00 AM 9.15 48.47 0.141 7.27 11.6 10.71
4/13/2021 1:45:00 AM 9.11 48.398 0.142 7.27 12.66 10.73
4/13/2021 2:00:00 AM 9.07 48.326 0.142 7.26 14.09 10.74
4/13/2021 2:15:00 AM 9.03 48.254 0.143 7.26 15.52 10.76
4/13/2021 2:30:00 AM 9 48.2 0.143 7.26 16.56 10.77
4/13/2021 2:45:00 AM 8.96 48.128 0.144 7.22 17.71 10.78
4/13/2021 3:00:00 AM 8.92 48.056 0.144 7.24 19.8 10.79
4/13/2021 3:15:00 AM 8.87 47.966 0.144 7.25 19.53 10.81
4/13/2021 3:30:00 AM 8.84 47.912 0.143 7.24 18.07 10.82
4/13/2021 3:45:00 AM 8.8 47.84 0.143 7.24 19.59 10.83
4/13/2021 4:00:00 AM 8.77 47.786 0.142 7.23 20.81 10.84
4/13/2021 4:15:00 AM 8.73 47.714 0.141 7.23 17.8 10.86
4/13/2021 4:30:00 AM 8.68 47.624 0.14 7.22 21.41 10.87
4/13/2021 4:45:00 AM 8.64 47.552 0.14 7.22 20.93 10.88
4/13/2021 5:00:00 AM 8.59 47.462 0.139 7.22 23.67 10.89
4/13/2021 5:15:00 AM 8.54 47.372 0.139 7.22 20.73 10.91
4/13/2021 5:30:00 AM 8.51 47.318 0.138 7.21 20.36 10.91
4/13/2021 5:45:00 AM 8.47 47.246 0.138 7.22 20.43 10.93
4/13/2021 6:00:00 AM 8.44 47.192 0.137 7.22 17.62 10.94
4/13/2021 6:15:00 AM 8.4 47.12 0.137 7.22 19.98 10.95
4/13/2021 6:30:00 AM 8.37 47.066 0.136 7.22 19.31 10.96
4/13/2021 6:45:00 AM 8.33 46.994 0.136 7.22 19.21 10.97
4/13/2021 7:00:00 AM 8.29 46.922 0.135 7.2 19.31 10.98
4/13/2021 7:15:00 AM 8.25 46.85 0.135 7.22 17.99 11
4/13/2021 7:30:00 AM 8.23 46.814 0.135 7.23 17.28 11.02
4/13/2021 7:45:00 AM 8.21 46.778 0.134 7.23 16.75 11.05
4/13/2021 8:00:00 AM 8.21 46.778 0.134 7.24 16.43 11.09
4/13/2021 8:15:00 AM 8.2 46.76 0.134 7.23 16.2 11.12
4/13/2021 8:30:00 AM 8.21 46.778 0.134 7.23 15.24 11.15
4/13/2021 8:45:00 AM 8.23 46.814 0.133 7.24 14.94 11.2
4/13/2021 9:00:00 AM 8.26 46.868 0.133 7.26 14.5 11.24
4/13/2021 9:15:00 AM 8.26 46.868 0.133 7.25 14 11.28
4/13/2021 9:30:00 AM 8.33 46.994 0.132 7.29 13.58 11.32
4/13/2021 9:45:00 AM 8.4 47.12 0.132 7.3 13.21 11.37
4/13/2021 10:00:00 AM 8.47 47.246 0.132 7.31 12.72 11.41
4/13/2021 10:15:00 AM 8.57 47.426 0.131 7.32 12.4 11.45
4/13/2021 10:30:00 AM 8.68 47.624 0.131 7.34 11.97 11.48
4/13/2021 10:45:00 AM 8.8 47.84 0.131 7.34 11.62 11.51
4/13/2021 11:00:00 AM 8.97 48.146 0.131 7.37 11.02 11.54
4/13/2021 11:15:00 AM 9.12 48.416 0.13 7.38 10.79 11.55
4/13/2021 11:30:00 AM 9.25 48.65 0.13 7.38 10.56 11.56
4/13/2021 11:45:00 AM 9.41 48.938 0.13 7.37 10.27 11.57
4/13/2021 12:00:00 PM 9.68 49.424 0.13 7.41 10.14 11.58
4/13/2021 12:15:00 PM 9.95 49.91 0.129 7.43 9.71 11.58
4/13/2021 12:30:00 PM 10.2 50.36 0.129 7.44 9.44 11.58
4/13/2021 12:45:00 PM 10.46 50.828 0.129 7.46 9.29 11.57
4/13/2021 1:00:00 PM 10.72 51.296 0.129 7.47 9.06 11.56
4/13/2021 1:15:00 PM 10.97 51.746 0.129 7.47 8.93 11.54
4/13/2021 1:30:00 PM 11.23 52.214 0.128 7.48 8.76 11.51
4/13/2021 1:45:00 PM 11.48 52.664 0.128 7.5 8.55 11.49
4/13/2021 2:00:00 PM 11.73 53.114 0.128 7.5 9.9 11.46
4/13/2021 2:15:00 PM 11.96 53.528 0.128 7.52 8.24 11.43
4/13/2021 2:30:00 PM 12.18 53.924 0.128 7.53 8.03 11.4
4/13/2021 2:45:00 PM 12.42 54.356 0.127 7.54 8.05 11.37
4/13/2021 3:00:00 PM 12.58 54.644 0.127 7.54 7.63 11.33
4/13/2021 3:15:00 PM 12.74 54.932 0.127 7.55 7.57 11.28
4/13/2021 3:30:00 PM 12.92 55.256 0.127 7.55 7.62 11.23
4/13/2021 3:45:00 PM 13.05 55.49 0.127 7.56 7.55 11.17
4/13/2021 4:00:00 PM 13.24 55.832 0.127 7.56 7.39 11.13
4/13/2021 4:15:00 PM 13.42 56.156 0.127 7.54 7.23 11.08
4/13/2021 4:30:00 PM 13.59 56.462 0.127 7.57 7.13 11.04
4/13/2021 4:45:00 PM 13.73 56.714 0.127 7.55 7.06 10.98
4/13/2021 5:00:00 PM 13.85 56.93 0.127 7.58 7.05 10.93
4/13/2021 5:15:00 PM 13.95 57.11 0.127 7.57 6.85 10.87
4/13/2021 5:30:00 PM 14 57.2 0.127 7.57 8.54 10.81
4/13/2021 5:45:00 PM 14.01 57.218 0.127 7.56 7 10.75
4/13/2021 6:00:00 PM 13.97 57.146 0.127 7.55 7.03 10.68
4/13/2021 6:15:00 PM 13.9 57.02 0.127 7.52 6.98 10.62
4/13/2021 6:30:00 PM 13.82 56.876 0.126 7.5 6.94 10.57
4/13/2021 6:45:00 PM 13.74 56.732 0.126 7.49 6.84 10.5
4/13/2021 7:00:00 PM 13.68 56.624 0.126 7.47 7.15 10.45
4/13/2021 7:15:00 PM 13.61 56.498 0.126 7.45 7.2 10.38
4/13/2021 7:30:00 PM 13.56 56.408 0.126 7.43 7.05 10.32
4/13/2021 7:45:00 PM 13.5 56.3 0.126 7.41 7 10.25
4/13/2021 8:00:00 PM 13.45 56.21 0.126 7.38 6.96 10.18
4/13/2021 8:15:00 PM 13.39 56.102 0.126 7.36 7.03 10.12
4/13/2021 8:30:00 PM 13.31 55.958 0.126 7.33 6.51 10.07
4/13/2021 8:45:00 PM 13.24 55.832 0.126 7.31 6.63 10.02
4/13/2021 9:00:00 PM 13.15 55.67 0.126 7.29 6.73 9.98
4/13/2021 9:15:00 PM 13.07 55.526 0.126 7.28 7.31 9.95
4/13/2021 9:30:00 PM 12.98 55.364 0.126 7.28 7.75 9.93
4/13/2021 9:45:00 PM 12.88 55.184 0.126 7.26 7.42 9.91
4/13/2021 10:00:00 PM 12.79 55.022 0.127 7.25 7.23 9.89
4/13/2021 10:15:00 PM 12.69 54.842 0.127 7.24 7.12 9.88
4/13/2021 10:30:00 PM 12.59 54.662 0.127 7.23 7.03 9.87
4/13/2021 10:45:00 PM 12.48 54.464 0.127 7.22 7.1 9.87
4/13/2021 11:00:00 PM 12.37 54.266 0.127 7.21 6.96 9.88
4/13/2021 11:15:00 PM 12.27 54.086 0.127 7.2 6.99 9.88
4/13/2021 11:30:00 PM 12.16 53.888 0.127 7.2 7.09 9.89
4/13/2021 11:45:00 PM 12.05 53.69 0.127 7.19 7.06 9.9
4/14/2021 12:00:00 AM 11.94 53.492 0.127 7.19 7.1 9.91
4/14/2021 12:15:00 AM 11.83 53.294 0.127 7.18 7.22 9.93
4/14/2021 12:30:00 AM 11.72 53.096 0.128 7.18 7.24 9.94
4/14/2021 12:45:00 AM 11.6 52.88 0.128 7.18 7.13 9.96
4/14/2021 1:00:00 AM 11.47 52.646 0.128 7.17 7.09 9.99
4/14/2021 1:15:00 AM 11.35 52.43 0.128 7.17 7.02 10.01
4/14/2021 1:30:00 AM 11.22 52.196 0.128 7.17 7.07 10.04
4/14/2021 1:45:00 AM 11.09 51.962 0.128 7.16 7.85 10.07
4/14/2021 2:00:00 AM 10.97 51.746 0.128 7.17 7.1 10.1
4/14/2021 2:15:00 AM 10.85 51.53 0.128 7.17 7.2 10.12
4/14/2021 2:30:00 AM 10.72 51.296 0.128 7.17 6.81 10.15
4/14/2021 2:45:00 AM 10.6 51.08 0.128 7.17 6.9 10.18
4/14/2021 3:00:00 AM 10.48 50.864 0.128 7.17 6.8 10.2
4/14/2021 3:15:00 AM 10.36 50.648 0.128 7.17 6.98 10.23
4/14/2021 3:30:00 AM 10.25 50.45 0.128 7.17 6.74 10.26
4/14/2021 3:45:00 AM 10.14 50.252 0.128 7.17 6.65 10.28
4/14/2021 4:00:00 AM 10.03 50.054 0.128 7.17 6.82 10.31
4/14/2021 4:15:00 AM 9.93 49.874 0.128 7.18 6.69 10.34
4/14/2021 4:30:00 AM 9.83 49.694 0.128 7.17 6.69 10.37
4/14/2021 4:45:00 AM 9.75 49.55 0.128 7.18 6.53 10.39
4/14/2021 5:00:00 AM 9.65 49.37 0.128 7.16 6.45 10.42
4/14/2021 5:15:00 AM 9.57 49.226 0.128 7.18 6.48 10.44
4/14/2021 5:30:00 AM 9.5 49.1 0.129 7.18 6.39 10.47
4/14/2021 5:45:00 AM 9.42 48.956 0.128 7.18 6.35 10.49
4/14/2021 6:00:00 AM 9.33 48.794 0.129 7.18 6.44 10.51
4/14/2021 6:15:00 AM 9.24 48.632 0.129 7.17 6.3 10.54
4/14/2021 6:30:00 AM 9.16 48.488 0.129 7.17 6.4 10.56
4/14/2021 6:45:00 AM 9.09 48.362 0.129 7.15 6.22 10.59
4/14/2021 7:00:00 AM 9.03 48.254 0.129 7.19 6.36 10.62
4/14/2021 7:15:00 AM 8.97 48.146 0.129 7.19 5.42 10.65
4/14/2021 7:30:00 AM 8.92 48.056 0.129 7.19 5.19 10.68
4/14/2021 7:45:00 AM 8.88 47.984 0.129 7.21 5.24 10.74
4/14/2021 8:00:00 AM 8.86 47.948 0.129 7.22 5.2 10.82
4/14/2021 8:15:00 AM 8.83 47.894 0.129 7.23 5.02 10.89
4/14/2021 8:30:00 AM 8.83 47.894 0.129 7.24 4.96 10.96
4/14/2021 8:45:00 AM 8.83 47.894 0.128 7.27 4.95 11.04
4/14/2021 9:00:00 AM 8.82 47.876 0.128 7.27 4.93 11.09
4/14/2021 9:15:00 AM 8.84 47.912 0.129 7.28 4.81 11.14
4/14/2021 9:30:00 AM 8.91 48.038 0.129 7.3 4.66 11.21
4/14/2021 9:45:00 AM 8.99 48.182 0.128 7.32 4.68 11.28
4/14/2021 10:00:00 AM 9.1 48.38 0.128 7.34 4.72 11.34
4/14/2021 10:15:00 AM 9.21 48.578 0.128 7.36 4.59 11.4
4/14/2021 10:30:00 AM 9.33 48.794 0.128 7.38 4.49 11.46
4/14/2021 10:45:00 AM 9.44 48.992 0.128 7.39 4.38 11.5
4/14/2021 11:00:00 AM 9.55 49.19 0.128 7.41 4.22 11.55
4/14/2021 11:15:00 AM 9.63 49.334 0.128 7.43 4.3 11.58
4/14/2021 11:30:00 AM 9.76 49.568 0.128 7.44 4.19 11.6
4/14/2021 11:45:00 AM 9.88 49.784 0.128 7.46 4.17 11.63
4/14/2021 12:00:00 PM 10.01 50.018 0.128 7.47 4.23 11.63
4/14/2021 12:15:00 PM 10.14 50.252 0.128 7.46 4.13 11.64
4/14/2021 12:30:00 PM 10.37 50.666 0.128 7.51 4.07 11.66
4/14/2021 12:45:00 PM 10.57 51.026 0.128 7.52 4.04 11.66
4/14/2021 1:00:00 PM 10.75 51.35 0.128 7.54 4.05 11.65
4/14/2021 1:15:00 PM 11.02 51.836 0.128 7.56 3.99 11.65
4/14/2021 1:30:00 PM 11.21 52.178 0.128 7.56 4.09 11.61
4/14/2021 1:45:00 PM 11.25 52.25 0.128 7.56 4.03 11.54
4/14/2021 2:00:00 PM 11.23 52.214 0.128 7.53 3.99 11.46
4/14/2021 2:15:00 PM 11.25 52.25 0.128 7.54 3.99 11.41
4/14/2021 2:30:00 PM 11.28 52.304 0.128 7.53 3.96 11.36
4/14/2021 2:45:00 PM 11.32 52.376 0.128 7.53 4 11.32
4/14/2021 3:00:00 PM 11.41 52.538 0.128 7.52 3.92 11.32
4/14/2021 3:15:00 PM 11.5 52.7 0.128 7.55 3.89 11.32
4/14/2021 3:30:00 PM 11.57 52.826 0.128 7.56 3.92 11.3
4/14/2021 3:45:00 PM 11.64 52.952 0.128 7.57 3.86 11.28
4/14/2021 4:00:00 PM 11.71 53.078 0.128 7.54 3.74 11.26
4/14/2021 4:15:00 PM 11.76 53.168 0.128 7.57 3.85 11.25
4/14/2021 4:30:00 PM 11.89 53.402 0.128 7.58 3.75 11.25
4/14/2021 4:45:00 PM 12.03 53.654 0.128 7.59 3.88 11.24
4/14/2021 5:00:00 PM 12.08 53.744 0.128 7.58 3.77 11.2
4/14/2021 5:15:00 PM 12.1 53.78 0.128 7.59 3.96 11.17
4/14/2021 5:30:00 PM 12.14 53.852 0.129 7.59 3.83 11.16
4/14/2021 5:45:00 PM 12.17 53.906 0.129 7.59 3.88 11.12
4/14/2021 6:00:00 PM 12.21 53.978 0.129 7.58 3.88 11.07
4/14/2021 6:15:00 PM 12.24 54.032 0.129 7.57 3.8 11.02
4/14/2021 6:30:00 PM 12.26 54.068 0.129 7.55 3.82 10.95
4/14/2021 6:45:00 PM 12.27 54.086 0.129 7.54 3.74 10.88
4/14/2021 7:00:00 PM 12.27 54.086 0.129 7.51 3.78 10.8
4/14/2021 7:15:00 PM 12.28 54.104 0.129 7.5 3.81 10.72
4/14/2021 7:30:00 PM 12.27 54.086 0.13 7.48 3.72 10.64
4/14/2021 7:45:00 PM 12.26 54.068 0.13 7.46 3.85 10.57
4/14/2021 8:00:00 PM 12.25 54.05 0.13 7.44 3.85 10.49
4/14/2021 8:15:00 PM 12.24 54.032 0.13 7.41 3.83 10.41
4/14/2021 8:30:00 PM 12.22 53.996 0.13 7.42 3.94 10.34
4/14/2021 8:45:00 PM 12.2 53.96 0.13 7.39 4.04 10.28
4/14/2021 9:00:00 PM 12.18 53.924 0.13 7.38 4.12 10.23
4/14/2021 9:15:00 PM 12.15 53.87 0.131 7.36 4.38 10.17
4/14/2021 9:30:00 PM 12.12 53.816 0.131 7.35 4.14 10.13
4/14/2021 9:45:00 PM 12.09 53.762 0.131 7.33 4.34 10.08
4/14/2021 10:00:00 PM 12.05 53.69 0.131 7.32 4.2 10.05
4/14/2021 10:15:00 PM 12.01 53.618 0.131 7.32 4.15 10.01
4/14/2021 10:30:00 PM 11.96 53.528 0.131 7.3 4.11 9.98
4/14/2021 10:45:00 PM 11.91 53.438 0.131 7.26 4.25 9.96
4/14/2021 11:00:00 PM 11.85 53.33 0.131 7.28 4.18 9.94
4/14/2021 11:15:00 PM 11.79 53.222 0.131 7.26 4.31 9.93
4/14/2021 11:30:00 PM 11.75 53.15 0.131 7.26 4.28 9.91
4/14/2021 11:45:00 PM 11.71 53.078 0.131 7.27 4.28 9.9
4/15/2021 12:00:00 AM 11.67 53.006 0.132 7.26 4.44 9.89
4/15/2021 12:15:00 AM 11.62 52.916 0.132 7.25 4.49 9.89
4/15/2021 12:30:00 AM 11.57 52.826 0.132 7.25 4.7 9.88
4/15/2021 12:45:00 AM 11.51 52.718 0.132 7.25 4.91 9.88
4/15/2021 1:00:00 AM 11.45 52.61 0.132 7.24 4.75 9.88
4/15/2021 1:15:00 AM 11.4 52.52 0.132 7.24 4.66 9.89
4/15/2021 1:30:00 AM 11.34 52.412 0.132 7.24 4.79 9.89
4/15/2021 1:45:00 AM 11.28 52.304 0.132 7.22 5.56 9.9
4/15/2021 2:00:00 AM 11.22 52.196 0.132 7.24 4.75 9.91
4/15/2021 2:15:00 AM 11.15 52.07 0.132 7.23 4.79 9.92
4/15/2021 2:30:00 AM 11.09 51.962 0.132 7.23 4.95 9.93
4/15/2021 2:45:00 AM 11.04 51.872 0.132 7.23 5.21 9.94
4/15/2021 3:00:00 AM 10.97 51.746 0.133 7.23 6.4 9.95
4/15/2021 3:15:00 AM 10.91 51.638 0.133 7.23 6.18 9.96
4/15/2021 3:30:00 AM 10.85 51.53 0.133 7.23 6.08 9.98
4/15/2021 3:45:00 AM 10.78 51.404 0.133 7.23 6.19 9.99
4/15/2021 4:00:00 AM 10.71 51.278 0.133 7.23 6.87 10
4/15/2021 4:15:00 AM 10.64 51.152 0.133 7.21 6.85 10.02
4/15/2021 4:30:00 AM 10.58 51.044 0.133 7.21 6.65 10.03
4/15/2021 4:45:00 AM 10.5 50.9 0.133 7.21 6.82 10.05
4/15/2021 5:00:00 AM 10.43 50.774 0.133 7.22 6.81 10.07
4/15/2021 5:15:00 AM 10.37 50.666 0.133 7.21 6.72 10.09
4/15/2021 5:30:00 AM 10.31 50.558 0.133 7.22 6.77 10.1
4/15/2021 5:45:00 AM 10.24 50.432 0.133 7.22 6.58 10.12
4/15/2021 6:00:00 AM 10.19 50.342 0.133 7.21 6.61 10.13
4/15/2021 6:15:00 AM 10.12 50.216 0.133 7.22 6.19 10.15
4/15/2021 6:30:00 AM 10.07 50.126 0.133 7.2 5.93 10.17
4/15/2021 6:45:00 AM 10.01 50.018 0.133 7.21 5.61 10.17
4/15/2021 7:00:00 AM 9.96 49.928 0.133 7.2 5.53 10.2
4/15/2021 7:15:00 AM 9.9 49.82 0.133 7.21 5.08 10.24
4/15/2021 7:30:00 AM 9.86 49.748 0.133 7.22 4.85 10.27
4/15/2021 7:45:00 AM 9.81 49.658 0.133 7.23 4.62 10.35
4/15/2021 8:00:00 AM 9.78 49.604 0.133 7.25 4.6 10.42
4/15/2021 8:15:00 AM 9.75 49.55 0.133 7.26 4.3 10.49
4/15/2021 8:30:00 AM 9.72 49.496 0.133 7.26 4.18 10.53
4/15/2021 8:45:00 AM 9.68 49.424 0.133 7.27 4.17 10.56
4/15/2021 9:00:00 AM 9.65 49.37 0.133 7.27 4.02 10.6
4/15/2021 9:15:00 AM 9.62 49.316 0.133 7.28 4.06 10.65
4/15/2021 9:30:00 AM 9.61 49.298 0.133 7.3 3.98 10.74
4/15/2021 9:45:00 AM 9.61 49.298 0.133 7.31 3.82 10.82
4/15/2021 10:00:00 AM 9.59 49.262 0.133 7.33 3.89 10.87
4/15/2021 10:15:00 AM 9.59 49.262 0.133 7.33 3.87 10.93
4/15/2021 10:30:00 AM 9.63 49.334 0.133 7.35 3.71 11.03
4/15/2021 10:45:00 AM 9.65 49.37 0.133 7.36 3.7 11.11
4/15/2021 11:00:00 AM 9.64 49.352 0.133 7.39 3.66 11.13
4/15/2021 11:15:00 AM 9.62 49.316 0.133 7.36 3.58 11.13
4/15/2021 11:30:00 AM 9.61 49.298 0.133 7.39 3.62 11.17
4/15/2021 11:45:00 AM 9.61 49.298 0.133 7.39 3.61 11.22
4/15/2021 12:00:00 PM 9.63 49.334 0.133 7.41 3.59 11.28
4/15/2021 12:15:00 PM 9.63 49.334 0.133 7.42 3.52 11.3
4/15/2021 12:30:00 PM 9.63 49.334 0.133 7.43 3.46 11.3
4/15/2021 12:45:00 PM 9.64 49.352 0.133 7.44 3.39 11.34
4/15/2021 1:00:00 PM 9.66 49.388 0.133 7.46 3.4 11.39
4/15/2021 1:15:00 PM 9.69 49.442 0.133 7.48 3.44 11.43
4/15/2021 1:30:00 PM 9.72 49.496 0.133 7.49 3.5 11.45
4/15/2021 1:45:00 PM 9.74 49.532 0.132 7.5 3.42 11.47
4/15/2021 2:00:00 PM 9.75 49.55 0.132 7.51 3.41 11.47
4/15/2021 2:15:00 PM 9.74 49.532 0.132 7.51 3.41 11.47
4/15/2021 2:30:00 PM 9.74 49.532 0.132 7.51 3.42 11.47
4/15/2021 2:45:00 PM 9.75 49.55 0.132 7.52 3.44 11.48
4/15/2021 3:00:00 PM 9.78 49.604 0.132 7.52 3.43 11.5
4/15/2021 3:15:00 PM 9.86 49.748 0.132 7.54 3.43 11.52
4/15/2021 3:30:00 PM 9.92 49.856 0.132 7.57 3.33 11.54
4/15/2021 3:45:00 PM 9.95 49.91 0.132 7.57 3.34 11.52
4/15/2021 4:00:00 PM 9.93 49.874 0.132 7.55 3.35 11.5
4/15/2021 4:15:00 PM 9.92 49.856 0.132 7.55 3.33 11.49
4/15/2021 4:30:00 PM 9.92 49.856 0.131 7.56 3.28 11.51
4/15/2021 4:45:00 PM 9.92 49.856 0.131 7.57 3.3 11.51
4/15/2021 5:00:00 PM 9.91 49.838 0.131 7.57 3.29 11.51
4/15/2021 5:15:00 PM 9.9 49.82 0.131 7.57 3.34 11.49
4/15/2021 5:30:00 PM 9.89 49.802 0.131 7.57 3.38 11.48
4/15/2021 5:45:00 PM 9.88 49.784 0.132 7.55 3.57 11.44
4/15/2021 6:00:00 PM 9.86 49.748 0.132 7.54 3.53 11.4
4/15/2021 6:15:00 PM 9.83 49.694 0.132 7.53 3.33 11.35
4/15/2021 6:30:00 PM 9.79 49.622 0.132 7.51 3.5 11.3
4/15/2021 6:45:00 PM 9.76 49.568 0.132 7.5 3.39 11.26
4/15/2021 7:00:00 PM 9.72 49.496 0.132 7.46 3.48 11.21
4/15/2021 7:15:00 PM 9.69 49.442 0.132 7.47 3.47 11.15
4/15/2021 7:30:00 PM 9.65 49.37 0.132 7.45 3.43 11.09
4/15/2021 7:45:00 PM 9.6 49.28 0.132 7.44 3.42 11.03
4/15/2021 8:00:00 PM 9.56 49.208 0.132 7.42 3.52 10.99
4/15/2021 8:15:00 PM 9.51 49.118 0.133 7.4 3.64 10.94
4/15/2021 8:30:00 PM 9.46 49.028 0.133 7.39 3.66 10.9
4/15/2021 8:45:00 PM 9.42 48.956 0.133 7.38 3.81 10.86
4/15/2021 9:00:00 PM 9.37 48.866 0.133 7.37 3.8 10.83
4/15/2021 9:15:00 PM 9.31 48.758 0.133 7.36 3.91 10.79
4/15/2021 9:30:00 PM 9.25 48.65 0.133 7.35 4.05 10.76
4/15/2021 9:45:00 PM 9.2 48.56 0.133 7.33 3.92 10.74
4/15/2021 10:00:00 PM 9.15 48.47 0.134 7.32 3.87 10.71
4/15/2021 10:15:00 PM 9.1 48.38 0.134 7.33 3.76 10.69
4/15/2021 10:30:00 PM 9.05 48.29 0.134 7.31 3.84 10.68
4/15/2021 10:45:00 PM 9 48.2 0.134 7.31 3.94 10.66
4/15/2021 11:00:00 PM 8.95 48.11 0.134 7.3 4 10.65
4/15/2021 11:15:00 PM 8.9 48.02 0.134 7.29 4.37 10.64
4/15/2021 11:30:00 PM 8.85 47.93 0.134 7.28 3.89 10.64
4/15/2021 11:45:00 PM 8.8 47.84 0.134 7.28 3.91 10.64
4/16/2021 12:00:00 AM 8.76 47.768 0.134 7.26 3.99 10.64
4/16/2021 12:15:00 AM 8.71 47.678 0.134 7.27 3.87 10.63
4/16/2021 12:30:00 AM 8.66 47.588 0.134 7.27 3.89 10.63
4/16/2021 12:45:00 AM 8.62 47.516 0.134 7.26 4.03 10.64
4/16/2021 1:00:00 AM 8.57 47.426 0.134 7.26 3.92 10.65
4/16/2021 1:15:00 AM 8.53 47.354 0.134 7.25 6.81 10.65
4/16/2021 1:30:00 AM 8.48 47.264 0.134 7.26 7.26 10.66
4/16/2021 1:45:00 AM 8.45 47.21 0.134 7.26 4.79 10.66
4/16/2021 2:00:00 AM 8.41 47.138 0.134 7.25 3.88 10.67
4/16/2021 2:15:00 AM 8.36 47.048 0.134 7.24 3.89 10.67
4/16/2021 2:30:00 AM 8.32 46.976 0.134 7.23 3.91 10.69
4/16/2021 2:45:00 AM 8.28 46.904 0.134 7.25 3.87 10.69
4/16/2021 3:00:00 AM 8.24 46.832 0.134 7.25 3.8 10.7
4/16/2021 3:15:00 AM 8.2 46.76 0.134 7.24 4.26 10.71
4/16/2021 3:30:00 AM 8.16 46.688 0.134 7.24 3.97 10.71
4/16/2021 3:45:00 AM 8.12 46.616 0.134 7.24 3.79 10.72
4/16/2021 4:00:00 AM 8.08 46.544 0.134 7.24 3.8 10.73
4/16/2021 4:15:00 AM 8.05 46.49 0.134 7.24 3.75 10.73
4/16/2021 4:30:00 AM 8.01 46.418 0.134 7.21 3.7 10.74
4/16/2021 4:45:00 AM 7.97 46.346 0.134 7.24 3.72 10.75
4/16/2021 5:00:00 AM 7.93 46.274 0.134 7.24 3.84 10.76
4/16/2021 5:15:00 AM 7.9 46.22 0.134 7.23 3.85 10.77
4/16/2021 5:30:00 AM 7.86 46.148 0.134 7.24 3.83 10.78
4/16/2021 5:45:00 AM 7.82 46.076 0.134 7.24 3.85 10.78
4/16/2021 6:00:00 AM 7.78 46.004 0.134 7.23 3.83 10.79
4/16/2021 6:15:00 AM 7.75 45.95 0.134 7.24 3.74 10.8
4/16/2021 6:30:00 AM 7.71 45.878 0.134 7.24 3.71 10.81
4/16/2021 6:45:00 AM 7.67 45.806 0.135 7.24 3.66 10.83
4/16/2021 7:00:00 AM 7.64 45.752 0.135 7.23 3.59 10.83
4/16/2021 7:15:00 AM 7.61 45.698 0.135 7.21 3.59 10.86
4/16/2021 7:30:00 AM 7.57 45.626 0.135 7.24 3.52 10.88
4/16/2021 7:45:00 AM 7.55 45.59 0.135 7.24 3.41 10.91
4/16/2021 8:00:00 AM 7.52 45.536 0.135 7.25 3.36 10.97
4/16/2021 8:15:00 AM 7.5 45.5 0.135 7.26 3.49 11.04
4/16/2021 8:30:00 AM 7.51 45.518 0.135 7.28 3.43 11.13
4/16/2021 8:45:00 AM 7.52 45.536 0.135 7.3 3.34 11.22
4/16/2021 9:00:00 AM 7.52 45.536 0.135 7.3 3.38 11.29
4/16/2021 9:15:00 AM 7.52 45.536 0.135 7.32 3.33 11.36
4/16/2021 9:30:00 AM 7.53 45.554 0.135 7.33 3.31 11.41
4/16/2021 9:45:00 AM 7.54 45.572 0.135 7.35 3.27 11.48
4/16/2021 10:00:00 AM 7.55 45.59 0.135 7.36 3.29 11.54